Time,TemperatureF,DewpointF,PressureIn,WindDirection,WindDirectionDegrees,WindSpeedMPH,WindSpeedGustMPH,Humidity,HourlyPrecipIn,Conditions,Clouds,dailyrainin,SoftwareType,DateUTC
2013-03-06 00:00:00,31.6,29.6,29.15,WNW,292,4.9,6.7,92,0.00,,---,0.00,VWS V14.01,2013-03-06 05:00:00,
2013-03-06 00:01:00,31.6,29.9,29.15,WNW,293,3.1,4.9,93,0.00,,---,0.00,VWS V14.01,2013-03-06 05:01:00,
2013-03-06 00:02:00,31.6,29.9,29.15,WNW,292,4.0,4.0,93,0.00,,---,0.00,VWS V14.01,2013-03-06 05:02:00,
2013-03-06 00:03:00,31.6,29.9,29.15,WNW,292,2.7,4.9,93,0.00,,---,0.00,VWS V14.01,2013-03-06 05:03:00,
2013-03-06 00:04:00,31.6,29.9,29.15,WNW,292,4.0,4.0,93,0.00,,---,0.00,VWS V14.01,2013-03-06 05:04:00,
2013-03-06 00:05:00,31.6,29.9,29.15,WNW,292,3.1,4.9,93,0.00,,---,0.00,VWS V14.01,2013-03-06 05:05:00,
2013-03-06 00:06:00,31.6,29.9,29.15,WNW,292,4.5,4.5,93,0.00,,---,0.00,VWS V14.01,2013-03-06 05:06:00,
2013-03-06 00:07:00,31.6,29.9,29.18,WNW,292,3.1,5.8,93,0.00,,---,0.00,VWS V14.01,2013-03-06 05:07:00,
2013-03-06 00:08:00,31.6,29.9,29.18,WNW,292,0.0,4.0,93,0.00,,---,0.00,VWS V14.01,2013-03-06 05:08:00,
2013-03-06 00:09:00,31.6,29.9,29.18,WSW,249,4.0,4.5,93,0.00,,---,0.00,VWS V14.01,2013-03-06 05:09:00,
2013-03-06 00:10:00,31.6,29.9,29.18,WNW,295,4.0,5.8,93,0.00,,---,0.00,VWS V14.01,2013-03-06 05:10:00,
2013-03-06 00:11:00,31.6,29.9,29.18,WNW,296,3.1,5.4,93,0.00,,---,0.00,VWS V14.01,2013-03-06 05:11:00,
2013-03-06 00:12:00,31.6,29.9,29.18,WNW,295,3.1,4.0,93,0.00,,---,0.00,VWS V14.01,2013-03-06 05:12:00,
2013-03-06 00:13:00,31.6,29.9,29.18,WNW,298,4.0,4.9,93,0.00,,---,0.00,VWS V14.01,2013-03-06 05:13:00,
2013-03-06 00:14:00,31.6,29.9,29.18,WNW,298,5.8,5.8,93,0.00,,---,0.00,VWS V14.01,2013-03-06 05:14:00,
2013-03-06 00:15:00,31.6,30.1,29.18,WNW,289,4.0,5.8,94,0.00,,---,0.00,VWS V14.01,2013-03-06 05:15:00,
2013-03-06 00:16:00,31.6,30.1,29.18,WNW,289,4.0,4.0,94,0.00,,---,0.00,VWS V14.01,2013-03-06 05:16:00,
2013-03-06 00:17:00,31.6,30.1,29.18,WNW,289,2.7,4.0,94,0.00,,---,0.00,VWS V14.01,2013-03-06 05:17:00,
2013-03-06 00:18:00,31.6,30.1,29.18,WNW,289,3.6,4.5,94,0.00,,---,0.00,VWS V14.01,2013-03-06 05:18:00,
2013-03-06 00:19:00,31.6,30.1,29.18,WNW,289,5.8,5.8,94,0.00,,---,0.00,VWS V14.01,2013-03-06 05:19:00,
2013-03-06 00:20:00,31.6,30.1,29.18,WNW,290,3.6,5.8,94,0.00,,---,0.00,VWS V14.01,2013-03-06 05:20:00,
2013-03-06 00:21:00,31.6,30.1,29.18,WNW,290,0.0,4.0,94,0.00,,---,0.00,VWS V14.01,2013-03-06 05:21:00,
2013-03-06 00:22:00,31.6,30.1,29.15,WNW,290,2.7,3.6,94,0.00,,---,0.00,VWS V14.01,2013-03-06 05:22:00,
2013-03-06 00:23:00,31.6,30.1,29.15,WNW,290,0.0,3.1,94,0.00,,---,0.00,VWS V14.01,2013-03-06 05:23:00,
2013-03-06 00:24:00,31.6,30.1,29.15,WNW,290,3.6,3.6,94,0.00,,---,0.00,VWS V14.01,2013-03-06 05:24:00,
2013-03-06 00:25:00,31.6,30.1,29.15,WNW,290,2.7,4.0,94,0.00,,---,0.00,VWS V14.01,2013-03-06 05:25:00,
2013-03-06 00:26:00,31.6,30.1,29.15,WNW,290,3.1,4.0,94,0.00,,---,0.00,VWS V14.01,2013-03-06 05:26:00,
2013-03-06 00:27:00,31.6,30.1,29.15,WNW,290,0.0,3.6,94,0.00,,---,0.00,VWS V14.01,2013-03-06 05:27:00,
2013-03-06 00:28:00,31.6,30.1,29.15,WNW,290,4.0,4.0,94,0.00,,---,0.00,VWS V14.01,2013-03-06 05:28:00,
2013-03-06 00:29:00,31.6,30.1,29.15,NW,320,4.9,4.9,94,0.00,,---,0.00,VWS V14.01,2013-03-06 05:29:00,
2013-03-06 00:30:00,31.6,30.1,29.15,West,272,5.8,5.8,94,0.00,,---,0.00,VWS V14.01,2013-03-06 05:30:00,
2013-03-06 00:31:00,31.6,30.1,29.15,West,264,4.0,6.3,94,0.00,,---,0.00,VWS V14.01,2013-03-06 05:31:00,
2013-03-06 00:32:00,31.6,30.1,29.15,West,271,3.1,4.0,94,0.00,,---,0.00,VWS V14.01,2013-03-06 05:32:00,
2013-03-06 00:33:00,31.6,30.1,29.15,WNW,288,4.5,4.5,94,0.00,,---,0.00,VWS V14.01,2013-03-06 05:33:00,
2013-03-06 00:34:00,31.6,30.1,29.15,WNW,288,3.6,4.5,94,0.00,,---,0.00,VWS V14.01,2013-03-06 05:34:00,
2013-03-06 00:35:00,31.6,30.1,29.15,WNW,291,4.0,5.4,94,0.00,,---,0.00,VWS V14.01,2013-03-06 05:35:00,
2013-03-06 00:36:00,31.6,30.1,29.15,WNW,290,4.0,4.9,94,0.00,,---,0.00,VWS V14.01,2013-03-06 05:36:00,
2013-03-06 00:37:00,31.6,30.4,29.15,NW,314,3.6,4.9,95,0.00,,---,0.00,VWS V14.01,2013-03-06 05:37:00,
2013-03-06 00:38:00,31.6,30.4,29.15,NW,314,4.0,4.5,95,0.00,,---,0.00,VWS V14.01,2013-03-06 05:38:00,
2013-03-06 00:39:00,31.6,30.4,29.15,NW,313,4.5,4.5,95,0.00,,---,0.00,VWS V14.01,2013-03-06 05:39:00,
2013-03-06 00:40:00,31.6,30.4,29.15,NW,313,3.1,4.5,95,0.00,,---,0.00,VWS V14.01,2013-03-06 05:40:00,
2013-03-06 00:41:00,31.6,30.4,29.15,West,278,4.9,5.8,95,0.00,,---,0.00,VWS V14.01,2013-03-06 05:41:00,
2013-03-06 00:42:00,31.6,30.4,29.15,West,279,0.0,4.9,95,0.00,,---,0.00,VWS V14.01,2013-03-06 05:42:00,
2013-03-06 00:43:00,31.6,30.4,29.15,WNW,289,5.8,5.8,95,0.00,,---,0.00,VWS V14.01,2013-03-06 05:43:00,
2013-03-06 00:44:00,31.6,30.4,29.15,WNW,302,4.9,5.8,95,0.00,,---,0.00,VWS V14.01,2013-03-06 05:44:00,
2013-03-06 00:45:00,31.5,30.2,29.15,NW,306,4.9,6.3,95,0.00,,---,0.00,VWS V14.01,2013-03-06 05:45:00,
2013-03-06 00:46:00,31.5,30.2,29.15,WNW,289,3.1,4.9,95,0.00,,---,0.00,VWS V14.01,2013-03-06 05:46:00,
2013-03-06 00:47:00,31.5,30.2,29.15,WNW,289,4.5,6.9,95,0.00,,---,0.00,VWS V14.01,2013-03-06 05:47:00,
2013-03-06 00:48:00,31.5,30.2,29.15,WNW,290,6.7,6.7,95,0.00,,---,0.00,VWS V14.01,2013-03-06 05:48:00,
2013-03-06 00:49:00,31.5,30.2,29.15,WNW,289,2.7,6.9,95,0.00,,---,0.00,VWS V14.01,2013-03-06 05:49:00,
2013-03-06 00:50:00,31.5,30.2,29.15,WNW,289,4.9,4.9,95,0.00,,---,0.00,VWS V14.01,2013-03-06 05:50:00,
2013-03-06 00:51:00,31.5,30.2,29.15,NW,304,6.7,7.4,95,0.00,,---,0.00,VWS V14.01,2013-03-06 05:51:00,
2013-03-06 00:52:00,31.5,30.2,29.18,WSW,254,4.5,6.7,95,0.00,,---,0.00,VWS V14.01,2013-03-06 05:52:00,
2013-03-06 00:53:00,31.5,30.2,29.18,WNW,290,3.6,4.5,95,0.00,,---,0.00,VWS V14.01,2013-03-06 05:53:00,
2013-03-06 00:54:00,31.5,30.2,29.18,WNW,290,0.0,3.6,95,0.00,,---,0.00,VWS V14.01,2013-03-06 05:54:00,
2013-03-06 00:55:00,31.5,30.2,29.18,WSW,246,4.0,5.4,95,0.00,,---,0.00,VWS V14.01,2013-03-06 05:55:00,
2013-03-06 00:56:00,31.5,30.2,29.18,WSW,246,3.6,4.0,95,0.00,,---,0.00,VWS V14.01,2013-03-06 05:56:00,
2013-03-06 00:57:00,28.8,28.0,28.67,NNE,32,0.0,0.0,97,0.00,,---,0.00,VWS V14.01,2013-03-06 05:57:00,
2013-03-06 00:58:00,31.5,30.2,29.18,WNW,290,4.5,5.4,95,0.00,,---,0.00,VWS V14.01,2013-03-06 05:58:00,
2013-03-06 00:59:00,31.5,30.2,29.18,WNW,291,4.5,4.5,95,0.00,,---,0.00,VWS V14.01,2013-03-06 05:59:00,
2013-03-06 01:00:00,31.5,30.2,29.18,NW,317,3.6,5.4,95,0.00,,---,0.00,VWS V14.01,2013-03-06 06:00:00,
2013-03-06 01:01:00,31.6,30.4,29.18,WNW,294,4.0,5.4,95,0.00,,---,0.00,VWS V14.01,2013-03-06 06:01:00,
2013-03-06 01:02:00,31.6,30.4,29.18,NW,324,3.1,4.5,95,0.00,,---,0.00,VWS V14.01,2013-03-06 06:02:00,
2013-03-06 01:03:00,28.9,28.2,28.67,NNE,15,0.0,0.0,97,0.00,,---,0.00,VWS V14.01,2013-03-06 06:03:00,
2013-03-06 01:04:00,31.5,30.2,29.18,West,269,0.0,4.9,95,0.00,,---,0.00,VWS V14.01,2013-03-06 06:04:00,
2013-03-06 01:05:00,31.5,30.2,29.18,West,269,0.0,3.1,95,0.00,,---,0.00,VWS V14.01,2013-03-06 06:05:00,
2013-03-06 01:06:00,31.5,30.2,29.18,NW,305,3.1,4.0,95,0.00,,---,0.00,VWS V14.01,2013-03-06 06:06:00,
2013-03-06 01:07:00,31.5,30.2,29.18,WNW,289,4.0,4.9,95,0.00,,---,0.00,VWS V14.01,2013-03-06 06:07:00,
2013-03-06 01:08:00,31.5,30.2,29.18,WNW,295,0.0,4.9,95,0.00,,---,0.00,VWS V14.01,2013-03-06 06:08:00,
2013-03-06 01:09:00,31.5,30.2,29.18,WNW,295,0.0,2.7,95,0.00,,---,0.00,VWS V14.01,2013-03-06 06:09:00,
2013-03-06 01:10:00,28.9,28.2,28.67,NNE,26,0.0,0.0,97,0.00,,---,0.00,VWS V14.01,2013-03-06 06:10:00,
2013-03-06 01:11:00,31.5,30.2,29.18,WNW,296,4.5,4.5,95,0.00,,---,0.00,VWS V14.01,2013-03-06 06:11:00,
2013-03-06 01:12:00,31.5,30.2,29.18,West,276,4.5,6.3,95,0.00,,---,0.00,VWS V14.01,2013-03-06 06:12:00,
2013-03-06 01:13:00,31.5,30.5,29.18,NW,318,3.6,4.9,96,0.00,,---,0.00,VWS V14.01,2013-03-06 06:13:00,
2013-03-06 01:14:00,31.5,30.5,29.18,NW,318,3.1,4.0,96,0.00,,---,0.00,VWS V14.01,2013-03-06 06:14:00,
2013-03-06 01:15:00,31.5,30.5,29.18,NW,318,3.6,4.0,96,0.00,,---,0.00,VWS V14.01,2013-03-06 06:15:00,
2013-03-06 01:16:00,29.1,28.4,28.70,NNE,32,0.0,0.0,97,0.00,,---,0.00,VWS V14.01,2013-03-06 06:16:00,
2013-03-06 01:17:00,31.5,30.5,29.18,NNW,333,4.5,4.5,96,0.00,,---,0.00,VWS V14.01,2013-03-06 06:17:00,
2013-03-06 01:18:00,31.3,30.3,29.18,WNW,287,4.5,6.7,96,0.00,,---,0.00,VWS V14.01,2013-03-06 06:18:00,
2013-03-06 01:19:00,31.3,30.3,29.18,NW,315,4.0,4.9,96,0.00,,---,0.00,VWS V14.01,2013-03-06 06:19:00,
2013-03-06 01:20:00,31.3,30.3,29.18,WNW,287,5.4,7.4,96,0.00,,---,0.00,VWS V14.01,2013-03-06 06:20:00,
2013-03-06 01:21:00,29.1,28.4,28.70,NNE,30,0.0,0.0,97,0.00,,---,0.00,VWS V14.01,2013-03-06 06:21:00,
2013-03-06 01:22:00,31.3,30.3,29.18,WNW,284,4.5,4.9,96,0.00,,---,0.00,VWS V14.01,2013-03-06 06:22:00,
2013-03-06 01:23:00,31.3,30.3,29.18,WNW,285,0.0,4.9,96,0.00,,---,0.00,VWS V14.01,2013-03-06 06:23:00,
2013-03-06 01:24:00,31.3,30.3,29.18,WNW,285,3.6,3.6,96,0.00,,---,0.00,VWS V14.01,2013-03-06 06:24:00,
2013-03-06 01:25:00,31.3,30.3,29.18,WNW,285,3.6,4.5,96,0.00,,---,0.00,VWS V14.01,2013-03-06 06:25:00,
2013-03-06 01:26:00,31.3,30.3,29.18,WNW,285,4.5,4.5,96,0.00,,---,0.00,VWS V14.01,2013-03-06 06:26:00,
2013-03-06 01:27:00,29.3,28.6,28.70,North,3,0.0,0.0,97,0.00,,---,0.00,VWS V14.01,2013-03-06 06:27:00,
2013-03-06 01:28:00,31.3,30.3,29.18,WNW,293,4.0,5.4,96,0.00,,---,0.00,VWS V14.01,2013-03-06 06:28:00,
2013-03-06 01:29:00,31.3,30.3,29.18,West,279,4.5,5.8,96,0.00,,---,0.00,VWS V14.01,2013-03-06 06:29:00,
2013-03-06 01:30:00,31.3,30.3,29.18,WNW,300,4.9,6.9,96,0.00,,---,0.00,VWS V14.01,2013-03-06 06:30:00,
2013-03-06 01:31:00,31.3,30.3,29.18,WNW,282,4.9,7.4,96,0.00,,---,0.00,VWS V14.01,2013-03-06 06:31:00,
2013-03-06 01:32:00,29.3,28.6,28.70,NNE,17,0.0,0.0,97,0.00,,---,0.00,VWS V14.01,2013-03-06 06:32:00,
2013-03-06 01:33:00,31.3,30.3,29.18,NW,313,5.4,6.9,96,0.00,,---,0.00,VWS V14.01,2013-03-06 06:33:00,
2013-03-06 01:34:00,31.3,30.3,29.18,WNW,299,5.8,5.8,96,0.00,,---,0.00,VWS V14.01,2013-03-06 06:34:00,
2013-03-06 01:35:00,31.3,30.3,29.18,WNW,291,4.9,6.7,96,0.00,,---,0.00,VWS V14.01,2013-03-06 06:35:00,
2013-03-06 01:36:00,31.3,30.3,29.18,WNW,291,3.6,4.9,96,0.00,,---,0.00,VWS V14.01,2013-03-06 06:36:00,
2013-03-06 01:37:00,29.5,28.7,28.70,NNE,24,0.0,0.0,97,0.00,,---,0.00,VWS V14.01,2013-03-06 06:37:00,
2013-03-06 01:38:00,31.3,30.3,29.18,WNW,284,0.0,5.4,96,0.00,,---,0.00,VWS V14.01,2013-03-06 06:38:00,
2013-03-06 01:39:00,31.3,30.3,29.18,WNW,293,4.5,4.5,96,0.00,,---,0.00,VWS V14.01,2013-03-06 06:39:00,
2013-03-06 01:40:00,31.3,30.3,29.18,WNW,291,4.9,5.8,96,0.00,,---,0.00,VWS V14.01,2013-03-06 06:40:00,
2013-03-06 01:41:00,31.3,30.3,29.18,West,268,5.4,5.8,96,0.00,,---,0.00,VWS V14.01,2013-03-06 06:41:00,
2013-03-06 01:42:00,31.3,30.3,29.18,WNW,296,6.9,6.9,96,0.00,,---,0.00,VWS V14.01,2013-03-06 06:42:00,
2013-03-06 01:43:00,31.3,30.3,29.18,WNW,296,4.9,7.4,96,0.00,,---,0.00,VWS V14.01,2013-03-06 06:43:00,
2013-03-06 01:44:00,31.3,30.3,29.18,WNW,299,2.7,5.8,96,0.00,,---,0.00,VWS V14.01,2013-03-06 06:44:00,
2013-03-06 01:45:00,31.3,30.3,29.18,WNW,300,3.1,4.0,96,0.00,,---,0.00,VWS V14.01,2013-03-06 06:45:00,
2013-03-06 01:46:00,31.3,30.3,29.18,WNW,299,3.6,3.6,96,0.00,,---,0.00,VWS V14.01,2013-03-06 06:46:00,
2013-03-06 01:47:00,31.3,30.3,29.18,WNW,300,4.0,4.9,96,0.00,,---,0.00,VWS V14.01,2013-03-06 06:47:00,
2013-03-06 01:48:00,31.3,30.3,29.18,WNW,300,4.5,4.9,96,0.00,,---,0.00,VWS V14.01,2013-03-06 06:48:00,
2013-03-06 01:49:00,31.3,30.3,29.18,WNW,296,5.4,6.3,96,0.00,,---,0.00,VWS V14.01,2013-03-06 06:49:00,
2013-03-06 01:50:00,31.3,30.3,29.18,WNW,296,4.9,5.4,96,0.00,,---,0.00,VWS V14.01,2013-03-06 06:50:00,
2013-03-06 01:51:00,31.3,30.3,29.18,WNW,296,4.0,4.9,96,0.00,,---,0.00,VWS V14.01,2013-03-06 06:51:00,
2013-03-06 01:52:00,31.3,30.3,29.18,NNW,344,3.6,5.4,96,0.00,,---,0.00,VWS V14.01,2013-03-06 06:52:00,
2013-03-06 01:53:00,31.3,30.3,29.18,NW,310,3.6,4.9,96,0.00,,---,0.00,VWS V14.01,2013-03-06 06:53:00,
2013-03-06 01:54:00,31.3,30.3,29.18,NW,310,3.1,4.5,96,0.00,,---,0.00,VWS V14.01,2013-03-06 06:54:00,
2013-03-06 01:55:00,31.3,30.3,29.18,WNW,298,6.3,6.7,96,0.00,,---,0.00,VWS V14.01,2013-03-06 06:55:00,
2013-03-06 01:56:00,31.3,30.3,29.18,NNW,327,4.5,6.3,96,0.00,,---,0.00,VWS V14.01,2013-03-06 06:56:00,
2013-03-06 01:57:00,31.3,30.3,29.18,WNW,295,4.5,5.4,96,0.00,,---,0.00,VWS V14.01,2013-03-06 06:57:00,
2013-03-06 01:58:00,31.3,30.3,29.18,WNW,295,4.0,4.9,96,0.00,,---,0.00,VWS V14.01,2013-03-06 06:58:00,
2013-03-06 01:59:00,31.3,30.3,29.18,WNW,295,2.7,4.5,96,0.00,,---,0.00,VWS V14.01,2013-03-06 06:59:00,
2013-03-06 02:00:00,31.3,30.3,29.18,WNW,295,3.6,4.5,96,0.00,,---,0.00,VWS V14.01,2013-03-06 07:00:00,
2013-03-06 02:01:00,31.3,30.3,29.18,WNW,294,4.5,4.9,96,0.00,,---,0.00,VWS V14.01,2013-03-06 07:01:00,
2013-03-06 02:02:00,31.3,30.3,29.18,West,281,6.3,6.3,96,0.00,,---,0.00,VWS V14.01,2013-03-06 07:02:00,
2013-03-06 02:03:00,31.3,30.3,29.18,WNW,290,4.5,6.3,96,0.00,,---,0.00,VWS V14.01,2013-03-06 07:03:00,
2013-03-06 02:04:00,31.3,30.3,29.18,WNW,293,6.7,6.7,96,0.00,,---,0.00,VWS V14.01,2013-03-06 07:04:00,
2013-03-06 02:05:00,31.3,30.3,29.18,WNW,293,2.7,6.7,96,0.00,,---,0.00,VWS V14.01,2013-03-06 07:05:00,
2013-03-06 02:06:00,31.3,30.3,29.18,NNW,339,4.0,4.9,96,0.00,,---,0.00,VWS V14.01,2013-03-06 07:06:00,
2013-03-06 02:07:00,31.3,30.3,29.18,NW,304,5.4,5.8,96,0.00,,---,0.00,VWS V14.01,2013-03-06 07:07:00,
2013-03-06 02:08:00,31.3,30.3,29.18,WNW,294,2.7,5.4,96,0.00,,---,0.00,VWS V14.01,2013-03-06 07:08:00,
2013-03-06 02:09:00,31.3,30.3,29.18,WNW,300,2.7,4.5,96,0.00,,---,0.00,VWS V14.01,2013-03-06 07:09:00,
2013-03-06 02:10:00,31.3,30.3,29.18,WNW,300,0.0,2.7,96,0.00,,---,0.00,VWS V14.01,2013-03-06 07:10:00,
2013-03-06 02:11:00,31.3,30.3,29.18,NNW,328,4.5,5.4,96,0.00,,---,0.00,VWS V14.01,2013-03-06 07:11:00,
2013-03-06 02:12:00,31.3,30.3,29.18,WNW,283,3.6,6.9,96,0.00,,---,0.00,VWS V14.01,2013-03-06 07:12:00,
2013-03-06 02:13:00,31.3,30.3,29.18,WNW,292,4.0,6.9,96,0.00,,---,0.00,VWS V14.01,2013-03-06 07:13:00,
2013-03-06 02:14:00,31.3,30.3,29.18,NW,312,4.9,4.9,96,0.00,,---,0.00,VWS V14.01,2013-03-06 07:14:00,
2013-03-06 02:15:00,31.3,30.3,29.18,NW,316,4.5,5.8,96,0.00,,---,0.00,VWS V14.01,2013-03-06 07:15:00,
2013-03-06 02:16:00,31.3,30.3,29.18,NW,316,4.0,4.5,96,0.00,,---,0.00,VWS V14.01,2013-03-06 07:16:00,
2013-03-06 02:17:00,31.3,30.3,29.18,WNW,290,4.5,5.4,96,0.00,,---,0.00,VWS V14.01,2013-03-06 07:17:00,
2013-03-06 02:18:00,31.3,30.3,29.18,WNW,284,3.6,6.3,96,0.00,,---,0.00,VWS V14.01,2013-03-06 07:18:00,
2013-03-06 02:19:00,31.3,30.3,29.18,NW,308,4.0,6.3,96,0.00,,---,0.00,VWS V14.01,2013-03-06 07:19:00,
2013-03-06 02:20:00,31.3,30.3,29.18,WNW,289,5.8,6.7,96,0.00,,---,0.00,VWS V14.01,2013-03-06 07:20:00,
2013-03-06 02:21:00,31.3,30.3,29.18,NW,304,5.4,7.8,96,0.00,,---,0.00,VWS V14.01,2013-03-06 07:21:00,
2013-03-06 02:22:00,31.3,30.3,29.18,NW,308,4.5,6.7,96,0.00,,---,0.00,VWS V14.01,2013-03-06 07:22:00,
2013-03-06 02:23:00,31.3,30.3,29.18,WNW,285,4.0,5.8,96,0.00,,---,0.00,VWS V14.01,2013-03-06 07:23:00,
2013-03-06 02:24:00,31.3,30.3,29.18,WNW,297,3.6,4.9,96,0.00,,---,0.00,VWS V14.01,2013-03-06 07:24:00,
2013-03-06 02:25:00,31.3,30.3,29.18,WNW,297,3.1,3.6,96,0.00,,---,0.00,VWS V14.01,2013-03-06 07:25:00,
2013-03-06 02:26:00,31.3,30.3,29.18,WNW,297,2.7,3.6,96,0.00,,---,0.00,VWS V14.01,2013-03-06 07:26:00,
2013-03-06 02:27:00,31.3,30.3,29.18,WNW,296,5.4,6.7,96,0.00,,---,0.00,VWS V14.01,2013-03-06 07:27:00,
2013-03-06 02:28:00,31.3,30.3,29.18,WNW,293,3.6,7.4,96,0.00,,---,0.00,VWS V14.01,2013-03-06 07:28:00,
2013-03-06 02:29:00,31.3,30.3,29.18,West,267,3.1,4.0,96,0.00,,---,0.00,VWS V14.01,2013-03-06 07:29:00,
2013-03-06 02:30:00,31.3,30.3,29.18,WNW,294,6.9,6.9,96,0.00,,---,0.00,VWS V14.01,2013-03-06 07:30:00,
2013-03-06 02:31:00,31.3,30.3,29.18,NW,308,5.4,6.9,96,0.00,,---,0.00,VWS V14.01,2013-03-06 07:31:00,
2013-03-06 02:32:00,31.3,30.3,29.18,NW,316,4.0,6.7,96,0.00,,---,0.00,VWS V14.01,2013-03-06 07:32:00,
2013-03-06 02:33:00,31.3,30.3,29.18,WNW,288,4.0,5.8,96,0.00,,---,0.00,VWS V14.01,2013-03-06 07:33:00,
2013-03-06 02:34:00,31.3,30.3,29.18,WNW,290,8.3,8.3,96,0.00,,---,0.00,VWS V14.01,2013-03-06 07:34:00,
2013-03-06 02:35:00,31.3,30.3,29.18,NW,310,3.1,8.3,96,0.00,,---,0.00,VWS V14.01,2013-03-06 07:35:00,
2013-03-06 02:36:00,31.3,30.3,29.18,NW,310,3.1,5.8,96,0.00,,---,0.00,VWS V14.01,2013-03-06 07:36:00,
2013-03-06 02:37:00,31.3,30.3,29.18,NW,310,3.6,4.5,96,0.00,,---,0.00,VWS V14.01,2013-03-06 07:37:00,
2013-03-06 02:39:00,31.3,30.5,29.18,WNW,289,4.0,4.0,97,0.00,,---,0.00,VWS V14.01,2013-03-06 07:39:00,
2013-03-06 02:40:00,31.5,30.7,29.18,WNW,289,3.1,4.0,97,0.00,,---,0.00,VWS V14.01,2013-03-06 07:40:00,
2013-03-06 02:41:00,31.5,30.7,29.18,WNW,289,4.5,4.5,97,0.00,,---,0.00,VWS V14.01,2013-03-06 07:41:00,
2013-03-06 02:42:00,31.5,30.7,29.18,WNW,289,3.1,4.5,97,0.00,,---,0.00,VWS V14.01,2013-03-06 07:42:00,
2013-03-06 02:50:00,31.5,30.7,29.18,West,264,4.0,4.0,97,0.00,,---,0.00,VWS V14.01,2013-03-06 07:50:00,
2013-03-06 02:51:00,31.5,30.7,29.18,West,272,4.5,4.5,97,0.00,,---,0.00,VWS V14.01,2013-03-06 07:51:00,
2013-03-06 02:52:00,31.5,30.7,29.18,WNW,292,3.1,4.9,97,0.00,,---,0.00,VWS V14.01,2013-03-06 07:52:00,
2013-03-06 02:53:00,31.5,30.7,29.18,WNW,296,3.1,5.4,97,0.00,,---,0.00,VWS V14.01,2013-03-06 07:53:00,
2013-03-06 02:54:00,31.5,30.7,29.18,WNW,296,0.0,3.6,97,0.00,,---,0.00,VWS V14.01,2013-03-06 07:54:00,
2013-03-06 02:55:00,31.5,30.7,29.18,West,279,4.0,6.9,97,0.00,,---,0.00,VWS V14.01,2013-03-06 07:55:00,
2013-03-06 02:57:00,31.5,30.7,29.18,WNW,288,0.0,4.5,97,0.00,,---,0.00,VWS V14.01,2013-03-06 07:57:00,
2013-03-06 02:58:00,31.5,30.7,29.18,WNW,288,0.0,3.1,97,0.00,,---,0.00,VWS V14.01,2013-03-06 07:58:00,
2013-03-06 02:59:00,31.5,30.7,29.18,WNW,288,0.0,2.7,97,0.00,,---,0.00,VWS V14.01,2013-03-06 07:59:00,
2013-03-06 03:00:00,31.5,30.7,29.18,WNW,288,2.7,4.0,97,0.00,,---,0.00,VWS V14.01,2013-03-06 08:00:00,
2013-03-06 03:01:00,31.5,30.7,29.18,WNW,288,3.6,4.0,97,0.00,,---,0.00,VWS V14.01,2013-03-06 08:01:00,
2013-03-06 03:02:00,31.5,30.7,29.18,NW,305,4.5,4.5,97,0.00,,---,0.00,VWS V14.01,2013-03-06 08:02:00,
2013-03-06 03:03:00,31.5,30.7,29.18,NW,305,0.0,4.5,97,0.00,,---,0.00,VWS V14.01,2013-03-06 08:03:00,
2013-03-06 03:04:00,31.5,30.7,29.18,NW,305,4.5,5.8,97,0.00,,---,0.00,VWS V14.01,2013-03-06 08:04:00,
2013-03-06 03:05:00,31.5,30.7,29.18,NW,305,4.5,4.5,97,0.00,,---,0.00,VWS V14.01,2013-03-06 08:05:00,
2013-03-06 03:06:00,31.5,30.7,29.18,NW,305,3.1,4.5,97,0.00,,---,0.00,VWS V14.01,2013-03-06 08:06:00,
2013-03-06 03:07:00,31.5,30.7,29.18,NW,305,3.6,4.0,97,0.00,,---,0.00,VWS V14.01,2013-03-06 08:07:00,
2013-03-06 03:08:00,31.5,30.7,29.18,NW,305,4.0,4.0,97,0.00,,---,0.00,VWS V14.01,2013-03-06 08:08:00,
2013-03-06 03:09:00,31.5,30.7,29.18,NW,305,3.6,4.0,97,0.00,,---,0.00,VWS V14.01,2013-03-06 08:09:00,
2013-03-06 03:10:00,31.5,30.7,29.18,NW,305,3.1,4.0,97,0.00,,---,0.00,VWS V14.01,2013-03-06 08:10:00,
2013-03-06 03:11:00,31.5,30.7,29.18,NW,305,2.7,3.6,97,0.00,,---,0.00,VWS V14.01,2013-03-06 08:11:00,
2013-03-06 03:12:00,31.5,30.7,29.18,NW,305,4.0,4.5,97,0.00,,---,0.00,VWS V14.01,2013-03-06 08:12:00,
2013-03-06 03:13:00,31.5,30.7,29.18,NW,305,0.0,4.0,97,0.00,,---,0.00,VWS V14.01,2013-03-06 08:13:00,
2013-03-06 03:14:00,31.5,30.7,29.18,NW,305,3.1,4.5,97,0.00,,---,0.00,VWS V14.01,2013-03-06 08:14:00,
2013-03-06 03:15:00,31.5,30.7,29.18,NW,305,4.5,4.5,97,0.00,,---,0.00,VWS V14.01,2013-03-06 08:15:00,
2013-03-06 03:16:00,31.5,30.7,29.18,NW,305,3.6,5.4,97,0.00,,---,0.00,VWS V14.01,2013-03-06 08:16:00,
2013-03-06 03:17:00,31.5,30.7,29.18,NW,305,4.0,4.5,97,0.00,,---,0.00,VWS V14.01,2013-03-06 08:17:00,
2013-03-06 03:18:00,31.5,30.7,29.18,NW,305,3.6,4.9,97,0.00,,---,0.00,VWS V14.01,2013-03-06 08:18:00,
2013-03-06 03:19:00,31.5,30.7,29.18,NW,305,3.1,3.6,97,0.00,,---,0.00,VWS V14.01,2013-03-06 08:19:00,
2013-03-06 03:20:00,31.5,30.7,29.18,NW,305,4.0,4.0,97,0.00,,---,0.00,VWS V14.01,2013-03-06 08:20:00,
2013-03-06 03:21:00,27.3,26.6,28.73,North,356,0.0,0.0,97,0.00,,---,0.00,VWS V14.01,2013-03-06 08:21:00,
2013-03-06 03:22:00,31.5,30.7,29.18,NW,305,3.6,4.0,97,0.00,,---,0.00,VWS V14.01,2013-03-06 08:22:00,
2013-03-06 03:23:00,31.5,30.7,29.18,NW,305,3.1,3.6,97,0.00,,---,0.00,VWS V14.01,2013-03-06 08:23:00,
2013-03-06 03:24:00,31.6,30.9,29.18,NW,305,2.7,4.5,97,0.00,,---,0.00,VWS V14.01,2013-03-06 08:24:00,
2013-03-06 03:25:00,31.6,30.9,29.18,NW,305,3.1,4.5,97,0.00,,---,0.00,VWS V14.01,2013-03-06 08:25:00,
2013-03-06 03:26:00,31.6,30.9,29.18,NW,305,4.0,4.0,97,0.00,,---,0.00,VWS V14.01,2013-03-06 08:26:00,
2013-03-06 03:27:00,31.6,30.9,29.18,NW,305,3.1,4.5,97,0.00,,---,0.00,VWS V14.01,2013-03-06 08:27:00,
2013-03-06 03:28:00,31.6,30.9,29.18,NW,305,3.1,4.5,97,0.00,,---,0.00,VWS V14.01,2013-03-06 08:28:00,
2013-03-06 03:29:00,27.1,26.4,28.76,NNE,26,0.0,0.0,97,0.00,,---,0.00,VWS V14.01,2013-03-06 08:29:00,
2013-03-06 03:30:00,31.6,30.9,29.18,NW,305,0.0,4.0,97,0.00,,---,0.00,VWS V14.01,2013-03-06 08:30:00,
2013-03-06 03:31:00,31.6,30.9,29.18,NW,305,4.0,4.0,97,0.00,,---,0.00,VWS V14.01,2013-03-06 08:31:00,
2013-03-06 03:32:00,31.6,30.9,29.18,NW,305,4.0,4.0,97,0.00,,---,0.00,VWS V14.01,2013-03-06 08:32:00,
2013-03-06 03:33:00,31.6,30.9,29.18,West,272,5.4,5.4,97,0.00,,---,0.00,VWS V14.01,2013-03-06 08:33:00,
2013-03-06 03:34:00,31.6,30.9,29.18,West,272,3.6,5.4,97,0.00,,---,0.00,VWS V14.01,2013-03-06 08:34:00,
2013-03-06 03:35:00,27.3,26.6,28.76,North,356,0.0,0.0,97,0.00,,---,0.00,VWS V14.01,2013-03-06 08:35:00,
2013-03-06 03:36:00,31.6,30.9,29.18,WNW,282,5.8,5.8,97,0.00,,---,0.00,VWS V14.01,2013-03-06 08:36:00,
2013-03-06 03:37:00,31.6,30.9,29.18,West,279,3.6,5.8,97,0.00,,---,0.00,VWS V14.01,2013-03-06 08:37:00,
2013-03-06 03:38:00,31.6,30.9,29.18,West,279,3.1,4.0,97,0.00,,---,0.00,VWS V14.01,2013-03-06 08:38:00,
2013-03-06 03:39:00,31.5,30.7,29.18,West,281,4.9,5.8,97,0.00,,---,0.00,VWS V14.01,2013-03-06 08:39:00,
2013-03-06 03:40:00,27.1,26.4,28.76,NNE,19,0.0,0.0,97,0.00,,---,0.00,VWS V14.01,2013-03-06 08:40:00,
2013-03-06 03:41:00,31.5,30.7,29.18,West,281,3.1,3.6,97,0.00,,---,0.00,VWS V14.01,2013-03-06 08:41:00,
2013-03-06 03:42:00,31.6,30.9,29.18,WNW,291,4.5,4.5,97,0.00,,---,0.00,VWS V14.01,2013-03-06 08:42:00,
2013-03-06 03:43:00,31.5,30.7,29.18,West,280,5.4,7.4,97,0.00,,---,0.00,VWS V14.01,2013-03-06 08:43:00,
2013-03-06 03:44:00,31.5,30.7,29.18,WNW,284,4.5,5.8,97,0.00,,---,0.00,VWS V14.01,2013-03-06 08:44:00,
2013-03-06 03:45:00,27.1,26.4,28.76,NNE,30,0.0,0.0,97,0.00,,---,0.00,VWS V14.01,2013-03-06 08:45:00,
2013-03-06 03:46:00,31.6,30.9,29.18,WNW,299,3.1,3.6,97,0.00,,---,0.00,VWS V14.01,2013-03-06 08:46:00,
2013-03-06 03:47:00,31.6,30.9,29.18,West,261,5.4,5.4,97,0.00,,---,0.00,VWS V14.01,2013-03-06 08:47:00,
2013-03-06 03:48:00,31.6,30.9,29.18,NW,315,4.5,5.4,97,0.00,,---,0.00,VWS V14.01,2013-03-06 08:48:00,
2013-03-06 03:49:00,31.6,30.9,29.18,NW,315,3.6,4.5,97,0.00,,---,0.00,VWS V14.01,2013-03-06 08:49:00,
2013-03-06 03:50:00,27.1,26.4,28.76,North,3,0.0,0.0,97,0.00,,---,0.00,VWS V14.01,2013-03-06 08:50:00,
2013-03-06 03:51:00,31.6,30.9,29.18,WNW,290,4.5,5.4,97,0.00,,---,0.00,VWS V14.01,2013-03-06 08:51:00,
2013-03-06 03:52:00,31.6,30.9,29.18,WNW,291,2.7,5.8,97,0.00,,---,0.00,VWS V14.01,2013-03-06 08:52:00,
2013-03-06 03:53:00,31.6,30.9,29.18,WNW,291,3.6,3.6,97,0.00,,---,0.00,VWS V14.01,2013-03-06 08:53:00,
2013-03-06 03:54:00,31.6,30.9,29.18,WNW,291,4.5,4.5,97,0.00,,---,0.00,VWS V14.01,2013-03-06 08:54:00,
2013-03-06 03:55:00,31.6,30.9,29.18,WNW,291,3.6,4.5,97,0.00,,---,0.00,VWS V14.01,2013-03-06 08:55:00,
2013-03-06 03:56:00,31.6,30.9,29.18,WNW,291,3.6,3.6,97,0.00,,---,0.00,VWS V14.01,2013-03-06 08:56:00,
2013-03-06 03:57:00,31.6,30.9,29.18,WNW,291,6.3,6.3,97,0.00,,---,0.00,VWS V14.01,2013-03-06 08:57:00,
2013-03-06 03:58:00,27.0,26.2,28.76,NNE,32,0.0,0.0,97,0.00,,---,0.00,VWS V14.01,2013-03-06 08:58:00,
2013-03-06 03:59:00,31.6,30.9,29.18,WNW,288,0.0,4.0,97,0.00,,---,0.00,VWS V14.01,2013-03-06 08:59:00,
2013-03-06 04:00:00,31.6,30.9,29.18,WNW,288,0.0,4.0,97,0.00,,---,0.00,VWS V14.01,2013-03-06 09:00:00,
2013-03-06 04:01:00,31.6,30.9,29.18,WNW,288,3.6,4.5,97,0.00,,---,0.00,VWS V14.01,2013-03-06 09:01:00,
2013-03-06 04:02:00,31.6,30.9,29.18,NW,320,4.0,6.7,97,0.00,,---,0.00,VWS V14.01,2013-03-06 09:02:00,
2013-03-06 04:03:00,31.6,30.9,29.18,NNW,327,3.1,5.4,97,0.00,,---,0.00,VWS V14.01,2013-03-06 09:03:00,
2013-03-06 04:04:00,31.6,30.9,29.18,NNW,327,3.6,4.5,97,0.00,,---,0.00,VWS V14.01,2013-03-06 09:04:00,
2013-03-06 04:05:00,31.6,30.9,29.18,NW,324,3.6,4.5,97,0.00,,---,0.00,VWS V14.01,2013-03-06 09:05:00,
2013-03-06 04:06:00,31.6,30.9,29.18,West,272,3.6,5.4,97,0.00,,---,0.00,VWS V14.01,2013-03-06 09:06:00,
2013-03-06 04:07:00,31.6,30.9,29.18,WNW,288,3.1,4.5,97,0.00,,---,0.00,VWS V14.01,2013-03-06 09:07:00,
2013-03-06 04:08:00,31.6,30.9,29.18,WNW,288,0.0,4.0,97,0.00,,---,0.00,VWS V14.01,2013-03-06 09:08:00,
2013-03-06 04:09:00,31.6,30.9,29.18,WNW,288,3.1,4.0,97,0.00,,---,0.00,VWS V14.01,2013-03-06 09:09:00,
2013-03-06 04:10:00,31.6,30.9,29.18,West,271,5.4,6.3,97,0.00,,---,0.00,VWS V14.01,2013-03-06 09:10:00,
2013-03-06 04:11:00,31.6,30.9,29.18,WSW,249,4.5,5.4,97,0.00,,---,0.00,VWS V14.01,2013-03-06 09:11:00,
2013-03-06 04:12:00,31.6,30.9,29.18,WNW,282,4.0,4.9,97,0.00,,---,0.00,VWS V14.01,2013-03-06 09:12:00,
2013-03-06 04:13:00,31.6,30.9,29.18,WNW,292,4.0,4.9,97,0.00,,---,0.00,VWS V14.01,2013-03-06 09:13:00,
2013-03-06 04:14:00,31.6,30.9,29.18,WNW,285,6.3,6.7,97,0.00,,---,0.00,VWS V14.01,2013-03-06 09:14:00,
2013-03-06 04:15:00,31.6,30.9,29.18,WNW,291,5.8,6.3,97,0.00,,---,0.00,VWS V14.01,2013-03-06 09:15:00,
2013-03-06 04:16:00,31.6,30.9,29.18,NW,310,4.0,6.3,97,0.00,,---,0.00,VWS V14.01,2013-03-06 09:16:00,
2013-03-06 04:17:00,31.6,30.9,29.18,WNW,286,3.6,4.5,97,0.00,,---,0.00,VWS V14.01,2013-03-06 09:17:00,
2013-03-06 04:18:00,31.6,30.9,29.18,WNW,287,4.0,4.0,97,0.00,,---,0.00,VWS V14.01,2013-03-06 09:18:00,
2013-03-06 04:19:00,31.6,30.9,29.18,WNW,297,3.6,5.4,97,0.00,,---,0.00,VWS V14.01,2013-03-06 09:19:00,
2013-03-06 04:20:00,31.6,30.9,29.18,WNW,297,4.0,4.5,97,0.00,,---,0.00,VWS V14.01,2013-03-06 09:20:00,
2013-03-06 04:21:00,31.6,30.9,29.18,WNW,298,4.0,5.4,97,0.00,,---,0.00,VWS V14.01,2013-03-06 09:21:00,
2013-03-06 04:22:00,31.6,30.9,29.18,WNW,299,3.6,4.9,97,0.00,,---,0.00,VWS V14.01,2013-03-06 09:22:00,
2013-03-06 04:23:00,31.6,30.9,29.18,WNW,289,4.0,5.4,97,0.00,,---,0.00,VWS V14.01,2013-03-06 09:23:00,
2013-03-06 04:24:00,31.6,30.9,29.18,WNW,293,6.7,7.4,97,0.00,,---,0.00,VWS V14.01,2013-03-06 09:24:00,
2013-03-06 04:25:00,31.6,30.9,29.18,NW,309,4.0,6.7,97,0.00,,---,0.00,VWS V14.01,2013-03-06 09:25:00,
2013-03-06 04:26:00,31.6,30.9,29.18,WNW,290,3.6,8.3,97,0.00,,---,0.00,VWS V14.01,2013-03-06 09:26:00,
2013-03-06 04:27:00,31.6,30.9,29.18,WNW,290,0.0,5.4,97,0.00,,---,0.00,VWS V14.01,2013-03-06 09:27:00,
2013-03-06 04:28:00,31.6,30.9,29.18,WNW,295,3.6,6.3,97,0.00,,---,0.00,VWS V14.01,2013-03-06 09:28:00,
2013-03-06 04:29:00,31.6,30.9,29.18,NW,318,4.9,6.3,97,0.00,,---,0.00,VWS V14.01,2013-03-06 09:29:00,
2013-03-06 04:30:00,31.6,30.9,29.18,NW,309,5.8,5.8,97,0.00,,---,0.00,VWS V14.01,2013-03-06 09:30:00,
2013-03-06 04:31:00,31.6,30.9,29.18,West,280,4.9,6.7,97,0.00,,---,0.00,VWS V14.01,2013-03-06 09:31:00,
2013-03-06 04:32:00,31.6,30.9,29.18,WNW,290,3.6,4.9,97,0.00,,---,0.00,VWS V14.01,2013-03-06 09:32:00,
2013-03-06 04:33:00,31.6,30.9,29.18,WNW,290,2.7,4.5,97,0.00,,---,0.00,VWS V14.01,2013-03-06 09:33:00,
2013-03-06 04:34:00,31.6,30.9,29.18,WNW,290,3.6,3.6,97,0.00,,---,0.00,VWS V14.01,2013-03-06 09:34:00,
2013-03-06 04:35:00,31.6,30.9,29.18,WNW,295,3.6,4.5,97,0.00,,---,0.00,VWS V14.01,2013-03-06 09:35:00,
2013-03-06 04:36:00,31.6,30.9,29.18,WNW,295,4.0,4.0,97,0.00,,---,0.00,VWS V14.01,2013-03-06 09:36:00,
2013-03-06 04:37:00,31.6,30.9,29.18,West,268,4.9,4.9,97,0.00,,---,0.00,VWS V14.01,2013-03-06 09:37:00,
2013-03-06 04:38:00,31.6,30.9,29.18,WNW,292,4.0,4.9,97,0.00,,---,0.00,VWS V14.01,2013-03-06 09:38:00,
2013-03-06 04:39:00,31.6,30.9,29.18,WNW,293,4.0,5.4,97,0.00,,---,0.00,VWS V14.01,2013-03-06 09:39:00,
2013-03-06 04:40:00,31.6,30.9,29.18,WNW,293,3.1,4.0,97,0.00,,---,0.00,VWS V14.01,2013-03-06 09:40:00,
2013-03-06 04:41:00,31.6,30.9,29.18,WNW,293,3.1,3.6,97,0.00,,---,0.00,VWS V14.01,2013-03-06 09:41:00,
2013-03-06 04:42:00,31.6,30.9,29.18,WNW,290,5.8,5.8,97,0.00,,---,0.00,VWS V14.01,2013-03-06 09:42:00,
2013-03-06 04:43:00,31.6,30.9,29.18,WNW,292,3.6,6.3,97,0.00,,---,0.00,VWS V14.01,2013-03-06 09:43:00,
2013-03-06 04:44:00,31.6,30.9,29.18,WNW,292,4.0,4.5,97,0.00,,---,0.00,VWS V14.01,2013-03-06 09:44:00,
2013-03-06 04:45:00,31.6,30.9,29.18,WNW,294,3.1,5.8,97,0.00,,---,0.00,VWS V14.01,2013-03-06 09:45:00,
2013-03-06 04:46:00,31.6,30.9,29.18,West,277,6.7,6.7,97,0.00,,---,0.00,VWS V14.01,2013-03-06 09:46:00,
2013-03-06 04:47:00,31.6,30.9,29.18,NW,304,5.8,6.9,97,0.00,,---,0.00,VWS V14.01,2013-03-06 09:47:00,
2013-03-06 04:48:00,31.6,30.9,29.18,WNW,298,4.5,5.8,97,0.00,,---,0.00,VWS V14.01,2013-03-06 09:48:00,
2013-03-06 04:49:00,31.6,30.9,29.18,WNW,298,4.0,4.5,97,0.00,,---,0.00,VWS V14.01,2013-03-06 09:49:00,
2013-03-06 04:50:00,31.6,30.9,29.18,NW,304,4.9,6.3,97,0.00,,---,0.00,VWS V14.01,2013-03-06 09:50:00,
2013-03-06 04:51:00,31.6,30.9,29.18,WNW,296,4.0,5.8,97,0.00,,---,0.00,VWS V14.01,2013-03-06 09:51:00,
2013-03-06 04:52:00,31.6,30.9,29.18,NW,321,3.6,4.9,97,0.00,,---,0.00,VWS V14.01,2013-03-06 09:52:00,
2013-03-06 04:53:00,31.6,30.9,29.18,WNW,289,5.4,6.3,97,0.00,,---,0.00,VWS V14.01,2013-03-06 09:53:00,
2013-03-06 04:54:00,31.6,30.9,29.18,WNW,292,4.5,5.4,97,0.00,,---,0.00,VWS V14.01,2013-03-06 09:54:00,
2013-03-06 04:55:00,31.6,30.9,29.18,WNW,303,5.4,5.4,97,0.00,,---,0.00,VWS V14.01,2013-03-06 09:55:00,
2013-03-06 04:56:00,31.5,30.7,29.18,WNW,291,3.6,6.9,97,0.00,,---,0.00,VWS V14.01,2013-03-06 09:56:00,
2013-03-06 04:57:00,31.5,30.7,29.18,WNW,303,5.4,6.3,97,0.00,,---,0.00,VWS V14.01,2013-03-06 09:57:00,
2013-03-06 04:58:00,31.5,30.7,29.18,WNW,291,4.9,5.8,97,0.00,,---,0.00,VWS V14.01,2013-03-06 09:58:00,
2013-03-06 04:59:00,31.5,30.7,29.18,NW,314,4.0,7.4,97,0.00,,---,0.00,VWS V14.01,2013-03-06 09:59:00,
2013-03-06 05:00:00,31.5,30.7,29.18,NNW,331,4.9,6.3,97,0.00,,---,0.00,VWS V14.01,2013-03-06 10:00:00,
2013-03-06 05:01:00,31.5,30.7,29.18,WNW,288,5.8,6.7,97,0.00,,---,0.00,VWS V14.01,2013-03-06 10:01:00,
2013-03-06 05:02:00,31.5,30.7,29.18,WNW,288,6.3,6.3,97,0.00,,---,0.00,VWS V14.01,2013-03-06 10:02:00,
2013-03-06 05:03:00,31.5,30.7,29.18,WNW,291,3.1,6.3,97,0.00,,---,0.00,VWS V14.01,2013-03-06 10:03:00,
2013-03-06 05:04:00,31.5,30.7,29.18,WNW,291,4.5,4.5,97,0.00,,---,0.00,VWS V14.01,2013-03-06 10:04:00,
2013-03-06 05:05:00,31.5,30.7,29.18,NW,319,4.9,4.9,97,0.00,,---,0.00,VWS V14.01,2013-03-06 10:05:00,
2013-03-06 05:06:00,31.5,30.7,29.18,NW,319,2.7,4.9,97,0.00,,---,0.00,VWS V14.01,2013-03-06 10:06:00,
2013-03-06 05:07:00,31.5,30.7,29.18,NW,319,3.6,4.9,97,0.00,,---,0.00,VWS V14.01,2013-03-06 10:07:00,
2013-03-06 05:08:00,27.1,24.6,28.82,North,351,0.0,0.0,90,0.00,,---,0.00,VWS V14.01,2013-03-06 10:08:00,
2013-03-06 05:09:00,31.5,30.7,29.18,WNW,287,5.8,6.3,97,0.00,,---,0.00,VWS V14.01,2013-03-06 10:09:00,
2013-03-06 05:10:00,31.5,30.7,29.18,NW,304,4.0,5.8,97,0.00,,---,0.00,VWS V14.01,2013-03-06 10:10:00,
2013-03-06 05:11:00,31.5,30.7,29.18,WNW,300,4.9,6.3,97,0.00,,---,0.00,VWS V14.01,2013-03-06 10:11:00,
2013-03-06 05:12:00,31.6,30.9,29.18,NW,320,4.5,4.9,97,0.00,,---,0.00,VWS V14.01,2013-03-06 10:12:00,
2013-03-06 05:13:00,31.5,30.7,29.18,NNW,329,5.4,5.4,97,0.00,,---,0.00,VWS V14.01,2013-03-06 10:13:00,
2013-03-06 05:14:00,31.5,30.7,29.18,WNW,297,5.8,5.8,97,0.00,,---,0.00,VWS V14.01,2013-03-06 10:14:00,
2013-03-06 05:15:00,31.5,30.7,29.18,WNW,300,4.5,5.8,97,0.00,,---,0.00,VWS V14.01,2013-03-06 10:15:00,
2013-03-06 05:16:00,31.5,30.7,29.18,NNW,328,4.0,5.4,97,0.00,,---,0.00,VWS V14.01,2013-03-06 10:16:00,
2013-03-06 05:17:00,31.5,30.7,29.18,NW,322,4.5,5.4,97,0.00,,---,0.00,VWS V14.01,2013-03-06 10:17:00,
2013-03-06 05:18:00,31.5,30.7,29.18,NW,326,3.6,4.9,97,0.00,,---,0.00,VWS V14.01,2013-03-06 10:18:00,
2013-03-06 05:19:00,31.5,30.7,29.18,NW,313,4.9,6.3,97,0.00,,---,0.00,VWS V14.01,2013-03-06 10:19:00,
2013-03-06 05:20:00,27.0,23.9,28.82,North,356,0.0,0.0,88,0.00,,---,0.00,VWS V14.01,2013-03-06 10:20:00,
2013-03-06 05:21:00,31.5,30.7,29.18,WNW,303,5.4,6.3,97,0.00,,---,0.00,VWS V14.01,2013-03-06 10:21:00,
2013-03-06 05:22:00,31.5,30.7,29.20,NW,312,2.7,5.4,97,0.00,,---,0.00,VWS V14.01,2013-03-06 10:22:00,
2013-03-06 05:23:00,31.5,30.7,29.20,WNW,293,5.4,6.3,97,0.00,,---,0.00,VWS V14.01,2013-03-06 10:23:00,
2013-03-06 05:24:00,31.5,30.7,29.20,WNW,303,4.5,6.7,97,0.00,,---,0.00,VWS V14.01,2013-03-06 10:24:00,
2013-03-06 05:25:00,27.0,23.6,28.82,North,8,0.0,0.0,87,0.00,,---,0.00,VWS V14.01,2013-03-06 10:25:00,
2013-03-06 05:26:00,31.5,30.7,29.20,WNW,303,4.5,5.4,97,0.00,,---,0.00,VWS V14.01,2013-03-06 10:26:00,
2013-03-06 05:27:00,31.5,30.7,29.20,NNW,332,4.9,5.4,97,0.00,,---,0.00,VWS V14.01,2013-03-06 10:27:00,
2013-03-06 05:28:00,31.5,30.7,29.20,NNW,332,4.5,4.9,97,0.00,,---,0.00,VWS V14.01,2013-03-06 10:28:00,
2013-03-06 05:29:00,31.5,30.7,29.20,NW,319,4.0,4.9,97,0.00,,---,0.00,VWS V14.01,2013-03-06 10:29:00,
2013-03-06 05:30:00,31.5,30.7,29.20,NNW,333,4.0,4.9,97,0.00,,---,0.00,VWS V14.01,2013-03-06 10:30:00,
2013-03-06 05:31:00,31.5,30.7,29.20,NW,310,3.6,4.9,97,0.00,,---,0.00,VWS V14.01,2013-03-06 10:31:00,
2013-03-06 05:32:00,31.5,30.7,29.20,WNW,303,4.9,5.4,97,0.00,,---,0.00,VWS V14.01,2013-03-06 10:32:00,
2013-03-06 05:33:00,27.1,23.5,28.82,North,5,0.0,0.0,86,0.00,,---,0.00,VWS V14.01,2013-03-06 10:33:00,
2013-03-06 05:34:00,31.5,30.7,29.20,NW,323,4.9,4.9,97,0.00,,---,0.00,VWS V14.01,2013-03-06 10:34:00,
2013-03-06 05:35:00,31.5,30.5,29.20,NW,320,3.6,4.9,96,0.00,,---,0.00,VWS V14.01,2013-03-06 10:35:00,
2013-03-06 05:36:00,31.5,30.5,29.20,WNW,295,3.6,5.8,96,0.00,,---,0.00,VWS V14.01,2013-03-06 10:36:00,
2013-03-06 05:37:00,31.5,30.5,29.20,NW,306,3.6,4.5,96,0.00,,---,0.00,VWS V14.01,2013-03-06 10:37:00,
2013-03-06 05:38:00,27.1,23.5,28.82,NNE,24,0.0,0.0,86,0.00,,---,0.00,VWS V14.01,2013-03-06 10:38:00,
2013-03-06 05:39:00,31.5,30.5,29.20,NW,324,4.5,4.5,96,0.00,,---,0.00,VWS V14.01,2013-03-06 10:39:00,
2013-03-06 05:40:00,31.5,30.5,29.20,NW,324,4.9,4.9,96,0.00,,---,0.00,VWS V14.01,2013-03-06 10:40:00,
2013-03-06 05:41:00,31.5,30.5,29.20,NW,324,3.6,5.8,96,0.00,,---,0.00,VWS V14.01,2013-03-06 10:41:00,
2013-03-06 05:42:00,31.5,30.5,29.20,NW,324,3.6,5.4,96,0.00,,---,0.00,VWS V14.01,2013-03-06 10:42:00,
2013-03-06 05:43:00,26.8,22.9,28.85,North,7,0.0,0.0,85,0.00,,---,0.00,VWS V14.01,2013-03-06 10:43:00,
2013-03-06 05:44:00,31.5,30.5,29.20,NW,308,4.9,5.4,96,0.00,,---,0.00,VWS V14.01,2013-03-06 10:44:00,
2013-03-06 05:45:00,31.5,30.5,29.20,NW,323,3.6,4.9,96,0.00,,---,0.00,VWS V14.01,2013-03-06 10:45:00,
2013-03-06 05:46:00,31.5,30.5,29.20,WNW,282,4.9,5.4,96,0.00,,---,0.00,VWS V14.01,2013-03-06 10:46:00,
2013-03-06 05:47:00,31.5,30.5,29.20,WNW,286,4.0,5.4,96,0.00,,---,0.00,VWS V14.01,2013-03-06 10:47:00,
2013-03-06 05:48:00,31.5,30.5,29.20,WSW,254,5.4,8.3,96,0.00,,---,0.00,VWS V14.01,2013-03-06 10:48:00,
2013-03-06 05:49:00,31.5,30.5,29.20,WNW,290,3.6,6.3,96,0.00,,---,0.00,VWS V14.01,2013-03-06 10:49:00,
2013-03-06 05:50:00,31.6,30.6,29.20,West,273,4.9,7.4,96,0.00,,---,0.00,VWS V14.01,2013-03-06 10:50:00,
2013-03-06 05:51:00,31.6,30.6,29.20,WSW,250,4.5,5.8,96,0.00,,---,0.00,VWS V14.01,2013-03-06 10:51:00,
2013-03-06 05:52:00,31.6,30.6,29.20,NW,312,4.0,6.9,96,0.00,,---,0.00,VWS V14.01,2013-03-06 10:52:00,
2013-03-06 05:53:00,31.6,30.6,29.20,WNW,294,4.0,5.4,96,0.00,,---,0.00,VWS V14.01,2013-03-06 10:53:00,
2013-03-06 05:54:00,31.6,30.6,29.20,WNW,302,7.4,7.4,96,0.00,,---,0.00,VWS V14.01,2013-03-06 10:54:00,
2013-03-06 05:55:00,31.6,30.6,29.20,WSW,256,5.4,7.4,96,0.00,,---,0.00,VWS V14.01,2013-03-06 10:55:00,
2013-03-06 05:56:00,31.6,30.6,29.20,NW,316,4.5,5.4,96,0.00,,---,0.00,VWS V14.01,2013-03-06 10:56:00,
2013-03-06 05:57:00,31.5,30.5,29.20,NW,307,4.0,6.9,96,0.00,,---,0.00,VWS V14.01,2013-03-06 10:57:00,
2013-03-06 05:58:00,26.8,21.7,28.85,NNW,331,0.0,0.0,81,0.00,,---,0.00,VWS V14.01,2013-03-06 10:58:00,
2013-03-06 05:59:00,31.5,30.5,29.20,NNW,328,6.3,6.3,96,0.00,,---,0.00,VWS V14.01,2013-03-06 10:59:00,
2013-03-06 06:00:00,31.5,30.5,29.20,NW,322,4.9,6.3,96,0.00,,---,0.00,VWS V14.01,2013-03-06 11:00:00,
2013-03-06 06:01:00,31.5,30.5,29.20,NW,304,5.4,5.4,96,0.00,,---,0.00,VWS V14.01,2013-03-06 11:01:00,
2013-03-06 06:02:00,31.5,30.5,29.20,WNW,292,4.0,5.4,96,0.00,,---,0.00,VWS V14.01,2013-03-06 11:02:00,
2013-03-06 06:03:00,31.5,30.5,29.20,NW,315,5.4,5.4,96,0.00,,---,0.00,VWS V14.01,2013-03-06 11:03:00,
2013-03-06 06:04:00,31.5,30.5,29.21,WNW,286,3.6,5.8,96,0.00,,---,0.00,VWS V14.01,2013-03-06 11:04:00,
2013-03-06 06:05:00,31.5,30.5,29.21,WNW,286,3.1,4.9,96,0.00,,---,0.00,VWS V14.01,2013-03-06 11:05:00,
2013-03-06 06:08:00,31.5,30.5,29.21,NNW,327,4.5,4.9,96,0.00,,---,0.00,VWS V14.01,2013-03-06 11:08:00,
2013-03-06 06:09:00,31.5,30.5,29.21,NNW,327,4.5,4.5,96,0.00,,---,0.00,VWS V14.01,2013-03-06 11:09:00,
2013-03-06 06:10:00,31.5,30.5,29.20,NW,315,4.5,6.3,96,0.00,,---,0.00,VWS V14.01,2013-03-06 11:10:00,
2013-03-06 06:11:00,31.5,30.5,29.20,NW,320,4.0,4.9,96,0.00,,---,0.00,VWS V14.01,2013-03-06 11:11:00,
2013-03-06 06:12:00,31.6,30.6,29.20,NW,309,4.9,5.4,96,0.00,,---,0.00,VWS V14.01,2013-03-06 11:12:00,
2013-03-06 06:13:00,31.6,30.6,29.20,WNW,299,4.5,6.3,96,0.00,,---,0.00,VWS V14.01,2013-03-06 11:13:00,
2013-03-06 06:14:00,31.6,30.6,29.20,NW,308,5.8,5.8,96,0.00,,---,0.00,VWS V14.01,2013-03-06 11:14:00,
2013-03-06 06:15:00,31.6,30.6,29.20,NNW,330,4.0,6.3,96,0.00,,---,0.00,VWS V14.01,2013-03-06 11:15:00,
2013-03-06 06:16:00,31.6,30.6,29.20,NW,312,5.4,5.4,96,0.00,,---,0.00,VWS V14.01,2013-03-06 11:16:00,
2013-03-06 06:17:00,26.6,21.3,28.88,WNW,299,0.0,0.0,80,0.00,,---,0.00,VWS V14.01,2013-03-06 11:17:00,
2013-03-06 06:18:00,31.6,30.6,29.20,NW,304,4.0,6.3,96,0.00,,---,0.00,VWS V14.01,2013-03-06 11:18:00,
2013-03-06 06:19:00,31.6,30.6,29.21,NW,306,4.9,5.4,96,0.00,,---,0.00,VWS V14.01,2013-03-06 11:19:00,
2013-03-06 06:20:00,31.6,30.6,29.20,NW,309,4.9,5.4,96,0.00,,---,0.00,VWS V14.01,2013-03-06 11:20:00,
2013-03-06 06:21:00,31.6,30.6,29.21,NW,313,4.0,5.4,96,0.00,,---,0.00,VWS V14.01,2013-03-06 11:21:00,
2013-03-06 06:22:00,26.8,21.5,28.88,North,3,0.0,0.0,80,0.00,,---,0.00,VWS V14.01,2013-03-06 11:22:00,
2013-03-06 06:24:00,31.6,30.6,29.21,WNW,293,5.8,5.8,96,0.00,,---,0.00,VWS V14.01,2013-03-06 11:24:00,
2013-03-06 06:25:00,31.6,30.6,29.21,NNW,329,4.9,5.8,96,0.00,,---,0.00,VWS V14.01,2013-03-06 11:25:00,
2013-03-06 06:26:00,31.5,30.5,29.20,NNW,340,4.0,4.9,96,0.00,,---,0.00,VWS V14.01,2013-03-06 11:26:00,
2013-03-06 06:27:00,26.8,21.5,28.88,NNW,342,0.0,0.0,80,0.00,,---,0.00,VWS V14.01,2013-03-06 11:27:00,
2013-03-06 06:28:00,31.6,30.6,29.21,NNW,340,4.0,5.4,96,0.00,,---,0.00,VWS V14.01,2013-03-06 11:28:00,
2013-03-06 06:29:00,31.6,30.6,29.21,NNW,340,4.5,4.5,96,0.00,,---,0.00,VWS V14.01,2013-03-06 11:29:00,
2013-03-06 06:30:00,31.6,30.6,29.21,NNW,340,3.6,4.5,96,0.00,,---,0.00,VWS V14.01,2013-03-06 11:30:00,
2013-03-06 06:31:00,31.6,30.6,29.21,NNW,340,3.6,4.0,96,0.00,,---,0.00,VWS V14.01,2013-03-06 11:31:00,
2013-03-06 06:32:00,31.6,30.6,29.21,NNW,340,2.7,3.6,96,0.00,,---,0.00,VWS V14.01,2013-03-06 11:32:00,
2013-03-06 06:33:00,27.0,21.9,28.88,NNE,13,0.0,0.0,81,0.00,,---,0.00,VWS V14.01,2013-03-06 11:33:00,
2013-03-06 06:34:00,31.6,30.6,29.21,NNW,340,3.1,4.5,96,0.00,,---,0.00,VWS V14.01,2013-03-06 11:34:00,
2013-03-06 06:35:00,31.6,30.6,29.21,NNW,340,3.6,4.0,96,0.00,,---,0.00,VWS V14.01,2013-03-06 11:35:00,
2013-03-06 06:36:00,31.6,30.6,29.21,NW,310,4.5,6.3,96,0.00,,---,0.00,VWS V14.01,2013-03-06 11:36:00,
2013-03-06 06:37:00,31.5,30.5,29.21,NNW,330,4.0,6.7,96,0.00,,---,0.00,VWS V14.01,2013-03-06 11:37:00,
2013-03-06 06:38:00,31.5,30.5,29.21,NW,319,4.5,6.3,96,0.00,,---,0.00,VWS V14.01,2013-03-06 11:38:00,
2013-03-06 06:39:00,31.5,30.5,29.21,NW,319,3.6,4.9,96,0.00,,---,0.00,VWS V14.01,2013-03-06 11:39:00,
2013-03-06 06:40:00,31.5,30.5,29.21,NW,307,6.7,6.7,96,0.00,,---,0.00,VWS V14.01,2013-03-06 11:40:00,
2013-03-06 06:41:00,31.5,30.5,29.21,NW,319,4.5,6.9,96,0.00,,---,0.00,VWS V14.01,2013-03-06 11:41:00,
2013-03-06 06:42:00,31.5,30.5,29.21,NW,320,5.4,7.4,96,0.00,,---,0.00,VWS V14.01,2013-03-06 11:42:00,
2013-03-06 06:43:00,31.5,30.5,29.21,NW,321,4.5,6.7,96,0.00,,---,0.00,VWS V14.01,2013-03-06 11:43:00,
2013-03-06 06:44:00,31.5,30.5,29.21,NW,321,4.5,4.5,96,0.00,,---,0.00,VWS V14.01,2013-03-06 11:44:00,
2013-03-06 06:45:00,31.5,30.5,29.21,NW,326,2.7,4.9,96,0.00,,---,0.00,VWS V14.01,2013-03-06 11:45:00,
2013-03-06 06:46:00,31.5,30.5,29.21,WNW,292,5.8,7.4,96,0.00,,---,0.00,VWS V14.01,2013-03-06 11:46:00,
2013-03-06 06:47:00,31.5,30.5,29.21,WNW,302,5.4,6.7,96,0.00,,---,0.00,VWS V14.01,2013-03-06 11:47:00,
2013-03-06 06:48:00,31.5,30.5,29.21,NW,307,4.9,6.3,96,0.00,,---,0.00,VWS V14.01,2013-03-06 11:48:00,
2013-03-06 06:49:00,31.5,30.2,29.21,NW,311,4.0,5.4,95,0.00,,---,0.00,VWS V14.01,2013-03-06 11:49:00,
2013-03-06 06:50:00,31.5,30.2,29.21,NNW,338,4.9,6.7,95,0.00,,---,0.00,VWS V14.01,2013-03-06 11:50:00,
2013-03-06 06:51:00,31.5,30.2,29.21,NNW,328,4.5,5.8,95,0.00,,---,0.00,VWS V14.01,2013-03-06 11:51:00,
2013-03-06 06:52:00,31.5,30.2,29.21,NW,319,7.4,7.4,95,0.00,,---,0.00,VWS V14.01,2013-03-06 11:52:00,
2013-03-06 06:53:00,31.5,30.2,29.21,NW,316,3.6,7.4,95,0.00,,---,0.00,VWS V14.01,2013-03-06 11:53:00,
2013-03-06 06:54:00,31.5,30.2,29.21,NNW,327,4.0,4.9,95,0.00,,---,0.00,VWS V14.01,2013-03-06 11:54:00,
2013-03-06 06:55:00,31.5,30.2,29.21,North,351,4.5,4.9,95,0.00,,---,0.00,VWS V14.01,2013-03-06 11:55:00,
2013-03-06 06:56:00,31.5,30.2,29.20,North,351,4.5,4.5,95,0.00,,---,0.00,VWS V14.01,2013-03-06 11:56:00,
2013-03-06 06:57:00,31.5,30.2,29.20,NW,320,4.9,5.4,95,0.00,,---,0.00,VWS V14.01,2013-03-06 11:57:00,
2013-03-06 06:58:00,31.5,30.2,29.21,NW,321,4.9,4.9,95,0.00,,---,0.00,VWS V14.01,2013-03-06 11:58:00,
2013-03-06 06:59:00,31.5,30.2,29.20,NW,304,4.0,6.3,95,0.00,,---,0.00,VWS V14.01,2013-03-06 11:59:00,
2013-03-06 07:00:00,31.5,30.2,29.21,NW,304,3.1,4.0,95,0.00,,---,0.00,VWS V14.01,2013-03-06 12:00:00,
2013-03-06 07:01:00,31.5,30.2,29.20,NW,313,5.4,5.4,95,0.00,,---,0.00,VWS V14.01,2013-03-06 12:01:00,
2013-03-06 07:02:00,31.5,30.2,29.20,NW,323,4.5,5.4,95,0.00,,---,0.00,VWS V14.01,2013-03-06 12:02:00,
2013-03-06 07:03:00,31.5,30.2,29.20,North,351,3.6,5.8,95,0.00,,---,0.00,VWS V14.01,2013-03-06 12:03:00,
2013-03-06 07:04:00,31.5,30.2,29.21,NNW,333,5.8,5.8,95,0.00,,---,0.00,VWS V14.01,2013-03-06 12:04:00,
2013-03-06 07:05:00,31.5,30.2,29.20,NNW,329,4.0,5.8,95,0.00,,---,0.00,VWS V14.01,2013-03-06 12:05:00,
2013-03-06 07:06:00,31.5,30.2,29.21,NNW,329,4.0,5.4,95,0.00,,---,0.00,VWS V14.01,2013-03-06 12:06:00,
2013-03-06 07:07:00,31.5,30.2,29.20,NNW,329,3.1,4.9,95,0.00,,---,0.00,VWS V14.01,2013-03-06 12:07:00,
2013-03-06 07:09:00,31.5,30.2,29.20,NW,323,3.1,4.9,95,0.00,,---,0.00,VWS V14.01,2013-03-06 12:09:00,
2013-03-06 07:10:00,31.5,30.2,29.20,NNW,339,3.6,4.9,95,0.00,,---,0.00,VWS V14.01,2013-03-06 12:10:00,
2013-03-06 07:11:00,31.5,30.2,29.21,NNW,339,4.5,4.5,95,0.00,,---,0.00,VWS V14.01,2013-03-06 12:11:00,
2013-03-06 07:12:00,31.5,30.2,29.20,NNW,334,4.0,4.9,95,0.00,,---,0.00,VWS V14.01,2013-03-06 12:12:00,
2013-03-06 07:13:00,31.5,30.2,29.20,NNW,331,4.5,4.9,95,0.00,,---,0.00,VWS V14.01,2013-03-06 12:13:00,
2013-03-06 07:14:00,31.5,30.2,29.20,NW,316,6.3,6.3,95,0.00,,---,0.00,VWS V14.01,2013-03-06 12:14:00,
2013-03-06 07:15:00,31.5,30.2,29.20,NNW,333,4.9,6.3,95,0.00,,---,0.00,VWS V14.01,2013-03-06 12:15:00,
2013-03-06 07:16:00,27.5,22.5,28.91,North,0,0.0,0.0,81,0.00,,---,0.00,VWS V14.01,2013-03-06 12:16:00,
2013-03-06 07:17:00,31.5,29.9,29.20,NNW,329,4.5,6.3,94,0.00,,---,0.00,VWS V14.01,2013-03-06 12:17:00,
2013-03-06 07:18:00,31.5,29.9,29.21,NNW,330,4.5,6.7,94,0.00,,---,0.00,VWS V14.01,2013-03-06 12:18:00,
2013-03-06 07:19:00,31.5,29.9,29.20,NNW,328,4.0,5.8,94,0.00,,---,0.00,VWS V14.01,2013-03-06 12:19:00,
2013-03-06 07:20:00,31.5,29.9,29.20,NNW,340,4.9,6.3,94,0.00,,---,0.00,VWS V14.01,2013-03-06 12:20:00,
2013-03-06 07:21:00,31.5,29.9,29.20,NNW,336,3.6,5.8,94,0.00,,---,0.00,VWS V14.01,2013-03-06 12:21:00,
2013-03-06 07:22:00,31.5,29.9,29.20,NNW,334,2.7,4.5,94,0.00,,---,0.00,VWS V14.01,2013-03-06 12:22:00,
2013-03-06 07:23:00,31.5,29.9,29.20,NNW,334,3.6,4.5,94,0.00,,---,0.00,VWS V14.01,2013-03-06 12:23:00,
2013-03-06 07:24:00,31.5,29.9,29.20,NNW,334,4.5,4.5,94,0.00,,---,0.00,VWS V14.01,2013-03-06 12:24:00,
2013-03-06 07:25:00,31.5,29.9,29.20,NNW,334,0.0,4.5,94,0.00,,---,0.00,VWS V14.01,2013-03-06 12:25:00,
2013-03-06 07:26:00,31.5,29.9,29.20,NNW,334,3.6,3.6,94,0.00,,---,0.00,VWS V14.01,2013-03-06 12:26:00,
2013-03-06 07:27:00,31.5,29.9,29.20,North,356,6.3,7.4,94,0.00,,---,0.00,VWS V14.01,2013-03-06 12:27:00,
2013-03-06 07:28:00,31.5,29.9,29.20,NW,309,4.0,7.4,94,0.00,,---,0.00,VWS V14.01,2013-03-06 12:28:00,
2013-03-06 07:29:00,31.5,29.9,29.20,NNW,330,4.0,6.9,94,0.00,,---,0.00,VWS V14.01,2013-03-06 12:29:00,
2013-03-06 07:30:00,31.5,29.9,29.21,NW,322,4.9,6.7,94,0.00,,---,0.00,VWS V14.01,2013-03-06 12:30:00,
2013-03-06 07:31:00,31.5,29.9,29.20,NW,305,4.9,6.3,94,0.00,,---,0.00,VWS V14.01,2013-03-06 12:31:00,
2013-03-06 07:32:00,31.5,29.9,29.20,NW,324,6.9,6.9,94,0.00,,---,0.00,VWS V14.01,2013-03-06 12:32:00,
2013-03-06 07:33:00,31.5,29.9,29.20,NW,326,4.9,6.9,94,0.00,,---,0.00,VWS V14.01,2013-03-06 12:33:00,
2013-03-06 07:34:00,31.5,29.9,29.21,NW,310,3.6,4.9,94,0.00,,---,0.00,VWS V14.01,2013-03-06 12:34:00,
2013-03-06 07:36:00,31.5,29.7,29.20,NW,317,4.5,5.8,93,0.00,,---,0.00,VWS V14.01,2013-03-06 12:36:00,
2013-03-06 07:37:00,31.5,29.7,29.24,NW,324,4.5,5.8,93,0.00,,---,0.00,VWS V14.01,2013-03-06 12:37:00,
2013-03-06 07:38:00,31.5,29.7,29.24,NW,324,3.6,5.4,93,0.00,,---,0.00,VWS V14.01,2013-03-06 12:38:00,
2013-03-06 07:39:00,31.5,29.7,29.24,NW,312,3.6,5.4,93,0.00,,---,0.00,VWS V14.01,2013-03-06 12:39:00,
2013-03-06 07:40:00,31.5,29.7,29.24,WNW,290,4.0,5.4,93,0.00,,---,0.00,VWS V14.01,2013-03-06 12:40:00,
2013-03-06 07:41:00,31.5,29.7,29.24,WNW,292,4.5,4.9,93,0.00,,---,0.00,VWS V14.01,2013-03-06 12:41:00,
2013-03-06 07:42:00,31.5,29.7,29.24,WNW,292,3.1,4.5,93,0.00,,---,0.00,VWS V14.01,2013-03-06 12:42:00,
2013-03-06 07:43:00,31.5,29.7,29.24,WNW,292,0.0,4.0,93,0.00,,---,0.00,VWS V14.01,2013-03-06 12:43:00,
2013-03-06 07:44:00,31.5,29.7,29.24,WNW,292,3.1,4.0,93,0.00,,---,0.00,VWS V14.01,2013-03-06 12:44:00,
2013-03-06 07:45:00,31.5,29.7,29.24,NW,317,5.8,5.8,93,0.00,,---,0.00,VWS V14.01,2013-03-06 12:45:00,
2013-03-06 07:46:00,31.5,29.7,29.24,WNW,302,4.5,7.4,93,0.00,,---,0.00,VWS V14.01,2013-03-06 12:46:00,
2013-03-06 07:47:00,27.9,22.5,28.94,North,2,0.0,0.0,80,0.00,,---,0.00,VWS V14.01,2013-03-06 12:47:00,
2013-03-06 07:48:00,31.5,29.7,29.24,WNW,303,3.1,4.0,93,0.00,,---,0.00,VWS V14.01,2013-03-06 12:48:00,
2013-03-06 07:49:00,31.5,29.7,29.24,NW,315,5.4,6.3,93,0.00,,---,0.00,VWS V14.01,2013-03-06 12:49:00,
2013-03-06 07:50:00,31.5,29.7,29.24,WNW,300,4.5,7.4,93,0.00,,---,0.00,VWS V14.01,2013-03-06 12:50:00,
2013-03-06 07:51:00,31.5,29.7,29.24,NW,316,5.4,6.3,93,0.00,,---,0.00,VWS V14.01,2013-03-06 12:51:00,
2013-03-06 07:52:00,31.5,29.7,29.24,NW,306,4.5,5.8,93,0.00,,---,0.00,VWS V14.01,2013-03-06 12:52:00,
2013-03-06 07:53:00,31.5,29.7,29.24,NW,315,5.4,6.7,93,0.00,,---,0.00,VWS V14.01,2013-03-06 12:53:00,
2013-03-06 07:54:00,31.5,29.7,29.24,NNW,343,6.7,6.7,93,0.00,,---,0.00,VWS V14.01,2013-03-06 12:54:00,
2013-03-06 07:55:00,31.5,29.7,29.24,NNW,329,3.1,6.7,93,0.00,,---,0.00,VWS V14.01,2013-03-06 12:55:00,
2013-03-06 07:56:00,31.5,29.7,29.24,NW,319,4.9,5.8,93,0.00,,---,0.00,VWS V14.01,2013-03-06 12:56:00,
2013-03-06 07:57:00,31.5,29.7,29.24,NW,308,4.0,6.3,93,0.00,,---,0.00,VWS V14.01,2013-03-06 12:57:00,
2013-03-06 07:58:00,31.5,29.7,29.24,NNW,333,3.1,5.8,93,0.00,,---,0.00,VWS V14.01,2013-03-06 12:58:00,
2013-03-06 07:59:00,31.5,29.7,29.23,NNW,333,4.0,4.5,93,0.00,,---,0.00,VWS V14.01,2013-03-06 12:59:00,
2013-03-06 08:00:00,31.5,29.7,29.23,NW,322,4.5,5.8,93,0.00,,---,0.00,VWS V14.01,2013-03-06 13:00:00,
2013-03-06 08:07:00,31.5,29.7,29.23,WNW,291,3.1,4.5,93,0.00,,---,0.00,VWS V14.01,2013-03-06 13:07:00,
2013-03-06 08:08:00,31.5,29.7,29.24,WNW,291,4.9,5.8,93,0.00,,---,0.00,VWS V14.01,2013-03-06 13:08:00,
2013-03-06 08:09:00,31.5,29.7,29.24,WNW,291,4.5,4.9,93,0.00,,---,0.00,VWS V14.01,2013-03-06 13:09:00,
2013-03-06 08:10:00,31.5,29.7,29.24,WNW,303,4.0,5.8,93,0.00,,---,0.00,VWS V14.01,2013-03-06 13:10:00,
2013-03-06 08:11:00,31.5,29.7,29.24,WNW,294,4.5,5.4,93,0.00,,---,0.00,VWS V14.01,2013-03-06 13:11:00,
2013-03-06 08:12:00,28.2,22.6,28.94,NNW,334,0.0,0.0,79,0.00,,---,0.00,VWS V14.01,2013-03-06 13:12:00,
2013-03-06 08:13:00,31.5,29.7,29.24,NW,322,5.4,6.3,93,0.00,,---,0.00,VWS V14.01,2013-03-06 13:13:00,
2013-03-06 08:14:00,31.5,29.7,29.24,NW,310,4.0,5.4,93,0.00,,---,0.00,VWS V14.01,2013-03-06 13:14:00,
2013-03-06 08:15:00,31.5,29.7,29.24,WNW,301,4.0,5.4,93,0.00,,---,0.00,VWS V14.01,2013-03-06 13:15:00,
2013-03-06 08:16:00,31.5,29.7,29.24,WNW,290,4.0,7.4,93,0.00,,---,0.00,VWS V14.01,2013-03-06 13:16:00,
2013-03-06 08:17:00,28.2,22.6,28.97,NNE,13,0.0,0.0,79,0.00,,---,0.00,VWS V14.01,2013-03-06 13:17:00,
2013-03-06 08:18:00,31.5,29.7,29.24,West,277,4.0,4.9,93,0.00,,---,0.00,VWS V14.01,2013-03-06 13:18:00,
2013-03-06 08:19:00,31.5,29.7,29.23,West,281,4.0,4.5,93,0.00,,---,0.00,VWS V14.01,2013-03-06 13:19:00,
2013-03-06 08:20:00,31.5,29.7,29.24,WNW,291,2.7,4.5,93,0.00,,---,0.00,VWS V14.01,2013-03-06 13:20:00,
2013-03-06 08:21:00,31.5,29.7,29.24,WNW,290,6.3,6.3,93,0.00,,---,0.00,VWS V14.01,2013-03-06 13:21:00,
2013-03-06 08:22:00,28.2,22.6,28.97,NNW,343,0.0,0.0,79,0.00,,---,0.00,VWS V14.01,2013-03-06 13:22:00,
2013-03-06 08:23:00,31.5,29.7,29.24,NW,325,3.6,4.9,93,0.00,,---,0.00,VWS V14.01,2013-03-06 13:23:00,
2013-03-06 08:24:00,31.5,29.7,29.24,WNW,302,3.1,5.8,93,0.00,,---,0.00,VWS V14.01,2013-03-06 13:24:00,
2013-03-06 08:25:00,31.5,29.7,29.24,North,351,2.7,4.5,93,0.00,,---,0.00,VWS V14.01,2013-03-06 13:25:00,
2013-03-06 08:26:00,31.5,29.7,29.24,NNW,344,3.6,4.5,93,0.00,,---,0.00,VWS V14.01,2013-03-06 13:26:00,
2013-03-06 08:27:00,31.5,29.7,29.24,NNW,344,2.7,4.9,93,0.00,,---,0.00,VWS V14.01,2013-03-06 13:27:00,
2013-03-06 08:28:00,31.5,29.7,29.24,NNW,344,0.0,4.0,93,0.00,,---,0.00,VWS V14.01,2013-03-06 13:28:00,
2013-03-06 08:30:00,28.4,22.4,28.97,North,351,0.0,0.0,78,0.00,,---,0.00,VWS V14.01,2013-03-06 13:30:00,
2013-03-06 08:31:00,31.6,29.9,29.24,NNW,334,2.7,4.5,93,0.00,,---,0.00,VWS V14.01,2013-03-06 13:31:00,
2013-03-06 08:32:00,31.6,29.6,29.24,NNW,334,0.0,4.0,92,0.00,,---,0.00,VWS V14.01,2013-03-06 13:32:00,
2013-03-06 08:33:00,31.6,29.6,29.24,NNW,334,3.6,3.6,92,0.00,,---,0.00,VWS V14.01,2013-03-06 13:33:00,
2013-03-06 08:34:00,31.6,29.6,29.23,NNW,334,0.0,3.6,92,0.00,,---,0.00,VWS V14.01,2013-03-06 13:34:00,
2013-03-06 08:35:00,31.6,29.6,29.24,NNW,334,0.0,4.5,92,0.00,,---,0.00,VWS V14.01,2013-03-06 13:35:00,
2013-03-06 08:36:00,31.6,29.6,29.24,NNW,334,0.0,0.0,92,0.00,,---,0.00,VWS V14.01,2013-03-06 13:36:00,
2013-03-06 08:37:00,31.8,29.8,29.24,NNW,334,0.0,0.0,92,0.00,,---,0.00,VWS V14.01,2013-03-06 13:37:00,
2013-03-06 08:38:00,28.6,22.6,28.97,NNE,13,0.0,0.0,78,0.00,,---,0.00,VWS V14.01,2013-03-06 13:38:00,
2013-03-06 08:39:00,31.8,29.8,29.23,NNW,334,2.7,2.7,92,0.00,,---,0.00,VWS V14.01,2013-03-06 13:39:00,
2013-03-06 08:40:00,31.8,29.8,29.23,NNW,334,0.0,3.1,92,0.00,,---,0.00,VWS V14.01,2013-03-06 13:40:00,
2013-03-06 08:41:00,31.8,29.8,29.24,NNW,334,2.7,2.7,92,0.00,,---,0.00,VWS V14.01,2013-03-06 13:41:00,
2013-03-06 08:42:00,31.8,29.8,29.24,NNW,334,3.1,4.9,92,0.00,,---,0.00,VWS V14.01,2013-03-06 13:42:00,
2013-03-06 08:43:00,28.8,22.8,29.00,NNE,31,0.0,0.0,78,0.00,,---,0.00,VWS V14.01,2013-03-06 13:43:00,
2013-03-06 08:44:00,32.0,29.9,29.24,NNW,331,4.0,4.5,92,0.00,,---,0.00,VWS V14.01,2013-03-06 13:44:00,
2013-03-06 08:45:00,32.0,29.9,29.24,NNW,331,4.9,4.9,92,0.00,,---,0.00,VWS V14.01,2013-03-06 13:45:00,
2013-03-06 08:46:00,31.8,29.8,29.24,NNW,332,3.1,5.8,92,0.00,,---,0.00,VWS V14.01,2013-03-06 13:46:00,
2013-03-06 08:47:00,31.8,29.8,29.24,NNW,332,4.5,5.4,92,0.00,,---,0.00,VWS V14.01,2013-03-06 13:47:00,
2013-03-06 08:48:00,31.8,29.8,29.24,NNW,327,4.9,5.4,92,0.00,,---,0.00,VWS V14.01,2013-03-06 13:48:00,
2013-03-06 08:49:00,31.8,29.8,29.24,NW,326,4.5,4.9,92,0.00,,---,0.00,VWS V14.01,2013-03-06 13:49:00,
2013-03-06 08:50:00,32.0,29.9,29.24,NW,326,4.0,5.4,92,0.00,,---,0.00,VWS V14.01,2013-03-06 13:50:00,
2013-03-06 08:51:00,29.1,23.1,29.00,NNE,16,0.0,0.0,78,0.00,,---,0.00,VWS V14.01,2013-03-06 13:51:00,
2013-03-06 08:52:00,32.0,29.9,29.24,NW,326,3.6,4.9,92,0.00,,---,0.00,VWS V14.01,2013-03-06 13:52:00,
2013-03-06 08:53:00,32.0,29.7,29.24,NW,326,3.1,4.0,91,0.00,,---,0.00,VWS V14.01,2013-03-06 13:53:00,
2013-03-06 08:54:00,32.0,29.7,29.24,NW,326,3.6,4.5,91,0.00,,---,0.00,VWS V14.01,2013-03-06 13:54:00,
2013-03-06 08:55:00,32.0,29.7,29.24,NW,326,4.0,4.9,91,0.00,,---,0.00,VWS V14.01,2013-03-06 13:55:00,
2013-03-06 08:56:00,32.0,29.7,29.23,NW,325,4.5,4.9,91,0.00,,---,0.00,VWS V14.01,2013-03-06 13:56:00,
2013-03-06 08:57:00,29.5,23.2,29.00,North,356,0.0,0.0,77,0.00,,---,0.00,VWS V14.01,2013-03-06 13:57:00,
2013-03-06 08:58:00,32.0,29.7,29.24,NNW,327,4.0,5.4,91,0.00,,---,0.00,VWS V14.01,2013-03-06 13:58:00,
2013-03-06 08:59:00,32.0,29.7,29.24,NNW,327,5.8,5.8,91,0.00,,---,0.00,VWS V14.01,2013-03-06 13:59:00,
2013-03-06 09:00:00,32.0,29.7,29.23,WNW,296,5.4,5.8,91,0.00,,---,0.00,VWS V14.01,2013-03-06 14:00:00,
2013-03-06 09:02:00,29.3,23.0,29.00,North,10,0.0,0.0,77,0.00,,---,0.00,VWS V14.01,2013-03-06 14:02:00,
2013-03-06 09:03:00,31.8,29.2,29.23,NW,315,3.1,4.0,90,0.00,,---,0.00,VWS V14.01,2013-03-06 14:03:00,
2013-03-06 09:04:00,32.0,29.4,29.23,NNW,331,3.6,4.9,90,0.00,,---,0.00,VWS V14.01,2013-03-06 14:04:00,
2013-03-06 09:05:00,32.0,29.4,29.23,NNW,331,3.6,4.9,90,0.00,,---,0.00,VWS V14.01,2013-03-06 14:05:00,
2013-03-06 09:06:00,32.0,29.4,29.24,NNW,328,4.0,4.9,90,0.00,,---,0.00,VWS V14.01,2013-03-06 14:06:00,
2013-03-06 09:07:00,29.5,23.2,29.00,SSW,201,0.0,0.0,77,0.00,,---,0.00,VWS V14.01,2013-03-06 14:07:00,
2013-03-06 09:08:00,32.0,29.4,29.23,NW,320,3.1,5.4,90,0.00,,---,0.00,VWS V14.01,2013-03-06 14:08:00,
2013-03-06 09:09:00,32.2,29.6,29.24,NW,320,3.6,4.5,90,0.00,,---,0.00,VWS V14.01,2013-03-06 14:09:00,
2013-03-06 09:10:00,32.2,29.6,29.24,WNW,287,4.9,6.7,90,0.00,,---,0.00,VWS V14.01,2013-03-06 14:10:00,
2013-03-06 09:11:00,32.2,29.6,29.24,NW,309,4.5,5.4,90,0.00,,---,0.00,VWS V14.01,2013-03-06 14:11:00,
2013-03-06 09:12:00,29.7,23.4,29.00,NNE,13,0.0,0.0,77,0.00,,---,0.00,VWS V14.01,2013-03-06 14:12:00,
2013-03-06 09:13:00,32.2,29.3,29.23,NW,317,3.6,5.4,89,0.00,,---,0.00,VWS V14.01,2013-03-06 14:13:00,
2013-03-06 09:14:00,32.2,29.3,29.23,NNW,333,4.0,6.7,89,0.00,,---,0.00,VWS V14.01,2013-03-06 14:14:00,
2013-03-06 09:15:00,32.2,29.3,29.23,NW,305,5.8,7.4,89,0.00,,---,0.00,VWS V14.01,2013-03-06 14:15:00,
2013-03-06 09:16:00,32.2,29.3,29.23,NW,307,4.5,5.8,89,0.00,,---,0.00,VWS V14.01,2013-03-06 14:16:00,
2013-03-06 09:17:00,29.7,23.0,29.00,North,2,0.0,0.0,76,0.00,,---,0.00,VWS V14.01,2013-03-06 14:17:00,
2013-03-06 09:18:00,32.2,29.3,29.24,NNW,331,7.4,7.4,89,0.00,,---,0.00,VWS V14.01,2013-03-06 14:18:00,
2013-03-06 09:19:00,32.2,29.3,29.24,NNW,333,6.3,7.4,89,0.00,,---,0.00,VWS V14.01,2013-03-06 14:19:00,
2013-03-06 09:20:00,32.2,29.3,29.24,NNW,331,7.4,7.4,89,0.00,,---,0.00,VWS V14.01,2013-03-06 14:20:00,
2013-03-06 09:21:00,32.2,29.0,29.24,NW,321,4.0,7.4,88,0.00,,---,0.00,VWS V14.01,2013-03-06 14:21:00,
2013-03-06 09:22:00,32.2,29.0,29.26,NNW,333,3.1,4.9,88,0.00,,---,0.00,VWS V14.01,2013-03-06 14:22:00,
2013-03-06 09:23:00,29.8,23.2,29.00,NNE,13,0.0,0.0,76,0.00,,---,0.00,VWS V14.01,2013-03-06 14:23:00,
2013-03-06 09:24:00,32.2,29.0,29.26,NNW,328,5.8,6.7,88,0.00,,---,0.00,VWS V14.01,2013-03-06 14:24:00,
2013-03-06 09:25:00,32.2,29.0,29.26,NW,323,5.4,5.8,88,0.00,,---,0.00,VWS V14.01,2013-03-06 14:25:00,
2013-03-06 09:26:00,32.2,29.0,29.26,NNW,327,5.4,5.8,88,0.00,,---,0.00,VWS V14.01,2013-03-06 14:26:00,
2013-03-06 09:27:00,32.2,29.0,29.26,NW,312,5.4,6.3,88,0.00,,---,0.00,VWS V14.01,2013-03-06 14:27:00,
2013-03-06 09:28:00,29.8,22.9,29.00,NNW,346,0.0,0.0,75,0.00,,---,0.00,VWS V14.01,2013-03-06 14:28:00,
2013-03-06 09:29:00,32.4,29.2,29.26,NNW,329,3.6,5.8,88,0.00,,---,0.00,VWS V14.01,2013-03-06 14:29:00,
2013-03-06 09:30:00,32.4,29.2,29.26,NW,317,5.4,6.7,88,0.00,,---,0.00,VWS V14.01,2013-03-06 14:30:00,
2013-03-06 09:31:00,32.4,29.2,29.26,NW,324,5.8,5.8,88,0.00,,---,0.00,VWS V14.01,2013-03-06 14:31:00,
2013-03-06 09:32:00,32.4,28.9,29.26,NW,319,4.5,6.3,87,0.00,,---,0.00,VWS V14.01,2013-03-06 14:32:00,
2013-03-06 09:33:00,30.2,23.2,29.00,North,10,0.0,0.0,75,0.00,,---,0.00,VWS V14.01,2013-03-06 14:33:00,
2013-03-06 09:34:00,32.4,28.9,29.26,WNW,295,4.9,6.3,87,0.00,,---,0.00,VWS V14.01,2013-03-06 14:34:00,
2013-03-06 09:35:00,32.4,28.9,29.26,NW,310,7.8,7.8,87,0.00,,---,0.00,VWS V14.01,2013-03-06 14:35:00,
2013-03-06 09:36:00,32.4,28.9,29.26,NNW,347,4.5,7.8,87,0.00,,---,0.00,VWS V14.01,2013-03-06 14:36:00,
2013-03-06 09:37:00,32.4,28.9,29.26,NW,314,6.3,7.4,87,0.00,,---,0.00,VWS V14.01,2013-03-06 14:37:00,
2013-03-06 09:38:00,30.7,23.8,29.00,NNE,21,0.0,0.0,75,0.00,,---,0.00,VWS V14.01,2013-03-06 14:38:00,
2013-03-06 09:39:00,32.5,28.8,29.26,NNW,328,4.5,6.3,86,0.00,,---,0.00,VWS V14.01,2013-03-06 14:39:00,
2013-03-06 09:40:00,32.5,28.8,29.26,NNW,339,5.4,5.4,86,0.00,,---,0.00,VWS V14.01,2013-03-06 14:40:00,
2013-03-06 09:41:00,32.5,28.8,29.26,NNW,330,4.5,6.3,86,0.00,,---,0.00,VWS V14.01,2013-03-06 14:41:00,
2013-03-06 09:42:00,32.5,28.8,29.26,NNW,338,4.5,6.3,86,0.00,,---,0.00,VWS V14.01,2013-03-06 14:42:00,
2013-03-06 09:43:00,30.9,23.3,29.00,NNW,330,0.0,0.0,73,0.00,,---,0.00,VWS V14.01,2013-03-06 14:43:00,
2013-03-06 09:44:00,32.5,28.8,29.26,North,356,5.4,5.8,86,0.00,,---,0.00,VWS V14.01,2013-03-06 14:44:00,
2013-03-06 09:45:00,32.5,28.5,29.26,NNW,338,3.1,5.8,85,0.00,,---,0.00,VWS V14.01,2013-03-06 14:45:00,
2013-03-06 09:46:00,32.5,28.5,29.26,WNW,291,2.7,5.4,85,0.00,,---,0.00,VWS V14.01,2013-03-06 14:46:00,
2013-03-06 09:47:00,32.5,28.5,29.26,NNW,340,6.3,7.8,85,0.00,,---,0.00,VWS V14.01,2013-03-06 14:47:00,
2013-03-06 09:48:00,30.7,22.8,29.00,NNW,337,0.0,0.0,72,0.00,,---,0.00,VWS V14.01,2013-03-06 14:48:00,
2013-03-06 09:49:00,32.5,28.5,29.26,NNW,333,3.1,6.7,85,0.00,,---,0.00,VWS V14.01,2013-03-06 14:49:00,
2013-03-06 09:50:00,32.7,28.7,29.26,NNW,333,4.5,4.9,85,0.00,,---,0.00,VWS V14.01,2013-03-06 14:50:00,
2013-03-06 09:51:00,32.7,28.7,29.26,NNW,333,4.0,4.5,85,0.00,,---,0.00,VWS V14.01,2013-03-06 14:51:00,
2013-03-06 09:52:00,32.9,28.6,29.26,NNW,333,2.7,4.9,84,0.00,,---,0.00,VWS V14.01,2013-03-06 14:52:00,
2013-03-06 09:53:00,30.9,22.6,29.00,North,351,0.0,0.0,71,0.00,,---,0.00,VWS V14.01,2013-03-06 14:53:00,
2013-03-06 09:54:00,32.9,28.6,29.26,NW,320,3.1,4.5,84,0.00,,---,0.00,VWS V14.01,2013-03-06 14:54:00,
2013-03-06 09:55:00,33.1,28.8,29.26,WNW,296,3.1,4.5,84,0.00,,---,0.00,VWS V14.01,2013-03-06 14:55:00,
2013-03-06 09:56:00,33.1,28.5,29.26,NW,319,4.0,4.9,83,0.00,,---,0.00,VWS V14.01,2013-03-06 14:56:00,
2013-03-06 09:57:00,33.1,28.5,29.26,NNW,329,5.8,6.7,83,0.00,,---,0.00,VWS V14.01,2013-03-06 14:57:00,
2013-03-06 09:58:00,30.4,22.1,29.03,North,10,0.0,0.0,71,0.00,,---,0.00,VWS V14.01,2013-03-06 14:58:00,
2013-03-06 09:59:00,32.9,28.0,29.26,NNW,335,2.7,6.9,82,0.00,,---,0.00,VWS V14.01,2013-03-06 14:59:00,
2013-03-06 10:00:00,32.9,28.0,29.26,North,351,5.4,6.7,82,0.00,,---,0.00,VWS V14.01,2013-03-06 15:00:00,
2013-03-06 10:01:00,32.9,28.0,29.26,NW,323,5.8,6.9,82,0.00,,---,0.00,VWS V14.01,2013-03-06 15:01:00,
2013-03-06 10:03:00,31.5,23.5,29.03,NNE,30,0.0,0.0,72,0.00,,---,0.00,VWS V14.01,2013-03-06 15:03:00,
2013-03-06 10:04:00,33.1,27.9,29.26,NW,324,4.5,4.5,81,0.00,,---,0.00,VWS V14.01,2013-03-06 15:04:00,
2013-03-06 10:06:00,33.1,27.6,29.26,NNW,347,4.5,5.4,80,0.00,,---,0.00,VWS V14.01,2013-03-06 15:06:00,
2013-03-06 10:07:00,33.1,27.6,29.26,NNW,347,4.0,5.4,80,0.00,,---,0.00,VWS V14.01,2013-03-06 15:07:00,
2013-03-06 10:08:00,31.8,23.2,29.03,NNE,14,0.0,0.0,70,0.00,,---,0.00,VWS V14.01,2013-03-06 15:08:00,
2013-03-06 10:09:00,33.3,27.8,29.26,NNW,345,2.7,3.1,80,0.00,,---,0.00,VWS V14.01,2013-03-06 15:09:00,
2013-03-06 10:10:00,33.3,27.5,29.26,NNW,341,4.0,5.4,79,0.00,,---,0.00,VWS V14.01,2013-03-06 15:10:00,
2013-03-06 10:11:00,33.3,27.5,29.26,NNW,328,4.0,5.8,79,0.00,,---,0.00,VWS V14.01,2013-03-06 15:11:00,
2013-03-06 10:12:00,33.1,27.3,29.26,NNW,339,4.5,5.8,79,0.00,,---,0.00,VWS V14.01,2013-03-06 15:12:00,
2013-03-06 10:13:00,32.0,22.6,29.03,NNE,15,5.4,7.8,68,0.00,,---,0.00,VWS V14.01,2013-03-06 15:13:00,
2013-03-06 10:14:00,33.3,27.5,29.26,NNW,339,3.1,4.0,79,0.00,,---,0.00,VWS V14.01,2013-03-06 15:14:00,
2013-03-06 10:15:00,33.4,27.6,29.26,NNW,339,3.1,4.5,79,0.00,,---,0.00,VWS V14.01,2013-03-06 15:15:00,
2013-03-06 10:18:00,31.6,21.6,29.03,North,7,3.1,5.4,66,0.00,,---,0.00,VWS V14.01,2013-03-06 15:18:00,
2013-03-06 10:19:00,33.6,27.5,29.26,NNW,341,2.7,4.0,78,0.00,,---,0.00,VWS V14.01,2013-03-06 15:19:00,
2013-03-06 10:20:00,33.6,27.5,29.26,NNW,341,3.1,4.0,78,0.00,,---,0.00,VWS V14.01,2013-03-06 15:20:00,
2013-03-06 10:21:00,33.6,27.2,29.26,NNW,341,3.6,4.9,77,0.00,,---,0.00,VWS V14.01,2013-03-06 15:21:00,
2013-03-06 10:22:00,33.6,27.2,29.26,NW,305,5.4,5.4,77,0.00,,---,0.00,VWS V14.01,2013-03-06 15:22:00,
2013-03-06 10:23:00,32.0,22.3,29.03,NNE,14,4.5,5.8,67,0.00,,---,0.00,VWS V14.01,2013-03-06 15:23:00,
2013-03-06 10:24:00,33.6,27.2,29.26,North,351,4.9,5.4,77,0.00,,---,0.00,VWS V14.01,2013-03-06 15:24:00,
2013-03-06 10:25:00,33.6,26.9,29.26,NW,306,3.6,4.9,76,0.00,,---,0.00,VWS V14.01,2013-03-06 15:25:00,
2013-03-06 10:26:00,33.8,27.0,29.26,NW,314,3.6,4.0,76,0.00,,---,0.00,VWS V14.01,2013-03-06 15:26:00,
2013-03-06 10:27:00,33.8,27.0,29.26,NW,315,2.7,4.0,76,0.00,,---,0.00,VWS V14.01,2013-03-06 15:27:00,
2013-03-06 10:28:00,32.2,21.4,29.03,NNE,19,5.8,5.8,64,0.00,,---,0.00,VWS V14.01,2013-03-06 15:28:00,
2013-03-06 10:29:00,34.2,27.4,29.26,NW,315,3.6,4.5,76,0.00,,---,0.00,VWS V14.01,2013-03-06 15:29:00,
2013-03-06 10:30:00,34.2,27.4,29.26,NW,316,3.6,4.5,76,0.00,,---,0.00,VWS V14.01,2013-03-06 15:30:00,
2013-03-06 10:31:00,34.3,27.2,29.26,NW,316,3.6,4.5,75,0.00,,---,0.00,VWS V14.01,2013-03-06 15:31:00,
2013-03-06 10:32:00,34.3,27.2,29.26,NW,316,3.1,4.0,75,0.00,,---,0.00,VWS V14.01,2013-03-06 15:32:00,
2013-03-06 10:33:00,32.9,21.7,29.03,North,356,4.5,7.8,63,0.00,,---,0.00,VWS V14.01,2013-03-06 15:33:00,
2013-03-06 10:34:00,34.3,26.9,29.26,NW,316,3.6,4.5,74,0.00,,---,0.00,VWS V14.01,2013-03-06 15:34:00,
2013-03-06 10:35:00,34.5,27.1,29.26,NW,316,3.1,3.6,74,0.00,,---,0.00,VWS V14.01,2013-03-06 15:35:00,
2013-03-06 10:36:00,34.5,26.8,29.26,NW,316,3.1,4.9,73,0.00,,---,0.00,VWS V14.01,2013-03-06 15:36:00,
2013-03-06 10:37:00,34.5,26.8,29.26,NW,316,2.7,3.6,73,0.00,,---,0.00,VWS V14.01,2013-03-06 15:37:00,
2013-03-06 10:38:00,33.1,20.7,29.03,NNE,18,3.1,6.9,60,0.00,,---,0.00,VWS V14.01,2013-03-06 15:38:00,
2013-03-06 10:39:00,34.3,25.9,29.26,NW,323,5.4,5.8,71,0.00,,---,0.00,VWS V14.01,2013-03-06 15:39:00,
2013-03-06 10:40:00,34.3,25.9,29.26,NW,323,3.1,5.4,71,0.00,,---,0.00,VWS V14.01,2013-03-06 15:40:00,
2013-03-06 10:41:00,34.5,26.1,29.26,NW,323,3.1,3.6,71,0.00,,---,0.00,VWS V14.01,2013-03-06 15:41:00,
2013-03-06 10:42:00,34.5,26.1,29.26,NW,323,2.7,4.9,71,0.00,,---,0.00,VWS V14.01,2013-03-06 15:42:00,
2013-03-06 10:43:00,33.8,21.0,29.03,NNE,16,0.0,5.4,59,0.00,,---,0.00,VWS V14.01,2013-03-06 15:43:00,
2013-03-06 10:44:00,34.7,25.9,29.26,NW,323,3.6,5.4,70,0.00,,---,0.00,VWS V14.01,2013-03-06 15:44:00,
2013-03-06 10:45:00,34.7,25.9,29.26,NNW,330,6.7,6.9,70,0.00,,---,0.00,VWS V14.01,2013-03-06 15:45:00,
2013-03-06 10:46:00,34.5,25.8,29.26,NNW,327,3.1,6.7,70,0.00,,---,0.00,VWS V14.01,2013-03-06 15:46:00,
2013-03-06 10:47:00,34.5,25.4,29.26,NNW,330,3.6,5.8,69,0.00,,---,0.00,VWS V14.01,2013-03-06 15:47:00,
2013-03-06 10:48:00,34.2,20.5,29.03,NNE,12,2.7,4.5,57,0.00,,---,0.00,VWS V14.01,2013-03-06 15:48:00,
2013-03-06 10:49:00,34.7,25.2,29.26,NNW,330,3.6,4.5,68,0.00,,---,0.00,VWS V14.01,2013-03-06 15:49:00,
2013-03-06 10:50:00,34.9,25.4,29.26,NNW,330,4.0,4.5,68,0.00,,---,0.00,VWS V14.01,2013-03-06 15:50:00,
2013-03-06 10:51:00,34.9,25.4,29.26,NNW,330,3.6,4.9,68,0.00,,---,0.00,VWS V14.01,2013-03-06 15:51:00,
2013-03-06 10:52:00,34.9,25.4,29.26,NNW,331,5.4,5.8,68,0.00,,---,0.00,VWS V14.01,2013-03-06 15:52:00,
2013-03-06 10:53:00,34.3,19.4,29.03,North,356,5.8,5.8,54,0.00,,---,0.00,VWS V14.01,2013-03-06 15:53:00,
2013-03-06 10:54:00,34.9,25.0,29.26,NW,313,3.1,6.3,67,0.00,,---,0.00,VWS V14.01,2013-03-06 15:54:00,
2013-03-06 10:55:00,34.9,24.7,29.26,North,351,4.0,5.4,66,0.00,,---,0.00,VWS V14.01,2013-03-06 15:55:00,
2013-03-06 10:56:00,34.9,24.7,29.26,NW,305,3.6,4.0,66,0.00,,---,0.00,VWS V14.01,2013-03-06 15:56:00,
2013-03-06 10:57:00,35.1,24.9,29.26,NW,308,0.0,4.0,66,0.00,,---,0.00,VWS V14.01,2013-03-06 15:57:00,
2013-03-06 10:58:00,34.5,19.6,29.03,NNE,19,4.0,5.4,54,0.00,,---,0.00,VWS V14.01,2013-03-06 15:58:00,
2013-03-06 10:59:00,35.2,24.7,29.26,NW,315,4.9,4.9,65,0.00,,---,0.00,VWS V14.01,2013-03-06 15:59:00,
2013-03-06 11:00:00,35.2,24.3,29.26,NW,316,4.5,5.8,64,0.00,,---,0.00,VWS V14.01,2013-03-06 16:00:00,
2013-03-06 11:01:00,35.4,24.5,29.26,NW,316,4.5,4.5,64,0.00,,---,0.00,VWS V14.01,2013-03-06 16:01:00,
2013-03-06 11:02:00,35.4,24.1,29.26,NW,317,3.6,4.5,63,0.00,,---,0.00,VWS V14.01,2013-03-06 16:02:00,
2013-03-06 11:03:00,35.6,24.3,29.26,West,277,3.6,5.4,63,0.00,,---,0.00,VWS V14.01,2013-03-06 16:03:00,
2013-03-06 11:04:00,35.2,19.4,29.03,NNE,29,3.6,4.9,52,0.00,,---,0.00,VWS V14.01,2013-03-06 16:04:00,
2013-03-06 11:05:00,35.8,24.0,29.26,NNW,339,3.1,4.5,62,0.00,,---,0.00,VWS V14.01,2013-03-06 16:05:00,
2013-03-06 11:06:00,36.0,24.2,29.26,NNW,339,0.0,3.1,62,0.00,,---,0.00,VWS V14.01,2013-03-06 16:06:00,
2013-03-06 11:07:00,36.1,24.4,29.26,NNW,339,0.0,0.0,62,0.00,,---,0.00,VWS V14.01,2013-03-06 16:07:00,
2013-03-06 11:08:00,36.1,24.0,29.26,NNW,339,4.0,4.0,61,0.00,,---,0.00,VWS V14.01,2013-03-06 16:08:00,
2013-03-06 11:09:00,33.6,18.8,29.03,NNW,328,3.6,5.4,54,0.00,,---,0.00,VWS V14.01,2013-03-06 16:09:00,
2013-03-06 11:10:00,36.1,23.2,29.26,NNW,342,4.5,5.8,59,0.00,,---,0.00,VWS V14.01,2013-03-06 16:10:00,
2013-03-06 11:11:00,36.1,22.8,29.26,North,351,3.6,4.5,58,0.00,,---,0.00,VWS V14.01,2013-03-06 16:11:00,
2013-03-06 11:12:00,36.1,22.4,29.26,NNW,339,5.8,5.8,57,0.00,,---,0.00,VWS V14.01,2013-03-06 16:12:00,
2013-03-06 11:13:00,36.1,22.4,29.26,NW,309,4.9,6.3,57,0.00,,---,0.00,VWS V14.01,2013-03-06 16:13:00,
2013-03-06 11:14:00,34.2,19.7,29.03,NNE,16,3.1,6.3,55,0.00,,---,0.00,VWS V14.01,2013-03-06 16:14:00,
2013-03-06 11:15:00,36.0,21.8,29.26,NW,326,4.0,4.9,56,0.00,,---,0.00,VWS V14.01,2013-03-06 16:15:00,
2013-03-06 11:16:00,36.1,22.0,29.26,NW,326,4.0,4.5,56,0.00,,---,0.00,VWS V14.01,2013-03-06 16:16:00,
2013-03-06 11:17:00,36.1,22.0,29.26,NNW,334,0.0,5.4,56,0.00,,---,0.00,VWS V14.01,2013-03-06 16:17:00,
2013-03-06 11:18:00,36.0,21.4,29.26,WNW,299,6.3,6.9,55,0.00,,---,0.00,VWS V14.01,2013-03-06 16:18:00,
2013-03-06 11:19:00,34.5,19.2,29.03,NNE,14,5.8,7.4,53,0.00,,---,0.00,VWS V14.01,2013-03-06 16:19:00,
2013-03-06 11:20:00,35.8,20.8,29.26,NNW,333,4.5,6.3,54,0.00,,---,0.00,VWS V14.01,2013-03-06 16:20:00,
2013-03-06 11:21:00,36.0,21.4,29.26,NW,323,4.0,4.9,55,0.00,,---,0.00,VWS V14.01,2013-03-06 16:21:00,
2013-03-06 11:22:00,36.1,21.5,29.26,NNW,335,4.0,4.5,55,0.00,,---,0.00,VWS V14.01,2013-03-06 16:22:00,
2013-03-06 11:23:00,36.1,21.5,29.26,NW,320,3.1,5.4,55,0.00,,---,0.00,VWS V14.01,2013-03-06 16:23:00,
2013-03-06 11:24:00,35.1,19.2,29.03,NNE,16,4.0,5.4,52,0.00,,---,0.00,VWS V14.01,2013-03-06 16:24:00,
2013-03-06 11:25:00,36.3,21.3,29.26,NNW,338,6.9,6.9,54,0.00,,---,0.00,VWS V14.01,2013-03-06 16:25:00,
2013-03-06 11:26:00,36.1,20.7,29.26,NNW,333,4.0,6.9,53,0.00,,---,0.00,VWS V14.01,2013-03-06 16:26:00,
2013-03-06 11:27:00,36.3,21.3,29.26,West,277,5.4,5.8,54,0.00,,---,0.00,VWS V14.01,2013-03-06 16:27:00,
2013-03-06 11:28:00,36.5,21.5,29.26,NNW,334,4.5,5.8,54,0.00,,---,0.00,VWS V14.01,2013-03-06 16:28:00,
2013-03-06 11:29:00,35.8,20.3,29.06,NNE,19,4.9,5.4,53,0.00,,---,0.00,VWS V14.01,2013-03-06 16:29:00,
2013-03-06 11:30:00,36.7,21.2,29.26,NNW,335,0.0,5.8,53,0.00,,---,0.00,VWS V14.01,2013-03-06 16:30:00,
2013-03-06 11:31:00,36.9,21.3,29.26,NNW,335,3.6,4.0,53,0.00,,---,0.00,VWS V14.01,2013-03-06 16:31:00,
2013-03-06 11:33:00,36.9,20.9,29.26,NNW,332,4.9,5.4,52,0.00,,---,0.00,VWS V14.01,2013-03-06 16:33:00,
2013-03-06 11:34:00,35.8,19.0,29.06,NNE,16,3.1,5.8,50,0.00,,---,0.00,VWS V14.01,2013-03-06 16:34:00,
2013-03-06 11:35:00,36.9,20.9,29.26,NW,311,5.4,7.4,52,0.00,,---,0.00,VWS V14.01,2013-03-06 16:35:00,
2013-03-06 11:36:00,36.7,20.7,29.26,NW,319,4.9,6.7,52,0.00,,---,0.00,VWS V14.01,2013-03-06 16:36:00,
2013-03-06 11:37:00,36.7,20.7,29.26,NNW,327,4.9,5.8,52,0.00,,---,0.00,VWS V14.01,2013-03-06 16:37:00,
2013-03-06 11:38:00,36.7,20.3,29.26,NW,321,5.8,6.7,51,0.00,,---,0.00,VWS V14.01,2013-03-06 16:38:00,
2013-03-06 11:39:00,36.3,19.5,29.06,NNE,18,4.5,4.5,50,0.00,,---,0.00,VWS V14.01,2013-03-06 16:39:00,
2013-03-06 11:40:00,36.7,20.3,29.26,NNW,338,3.6,6.3,51,0.00,,---,0.00,VWS V14.01,2013-03-06 16:40:00,
2013-03-06 11:41:00,36.7,20.3,29.26,NW,316,4.5,6.7,51,0.00,,---,0.00,VWS V14.01,2013-03-06 16:41:00,
2013-03-06 11:42:00,36.7,19.8,29.26,NNW,338,4.9,6.7,50,0.00,,---,0.00,VWS V14.01,2013-03-06 16:42:00,
2013-03-06 11:43:00,36.7,20.3,29.26,NNW,332,8.3,8.3,51,0.00,,---,0.00,VWS V14.01,2013-03-06 16:43:00,
2013-03-06 11:44:00,34.9,17.7,29.06,NNW,342,4.9,6.7,49,0.00,,---,0.00,VWS V14.01,2013-03-06 16:44:00,
2013-03-06 11:45:00,36.7,19.8,29.26,NNW,343,6.3,6.9,50,0.00,,---,0.00,VWS V14.01,2013-03-06 16:45:00,
2013-03-06 11:46:00,36.7,19.8,29.26,NW,308,6.3,6.3,50,0.00,,---,0.00,VWS V14.01,2013-03-06 16:46:00,
2013-03-06 11:47:00,36.7,19.8,29.26,NW,314,4.0,7.4,50,0.00,,---,0.00,VWS V14.01,2013-03-06 16:47:00,
2013-03-06 11:48:00,36.7,19.3,29.26,NNW,342,5.8,6.9,49,0.00,,---,0.00,VWS V14.01,2013-03-06 16:48:00,
2013-03-06 11:49:00,35.1,18.8,29.06,NNE,22,4.9,6.3,51,0.00,,---,0.00,VWS V14.01,2013-03-06 16:49:00,
2013-03-06 11:50:00,36.9,20.0,29.26,NW,319,5.4,6.7,50,0.00,,---,0.00,VWS V14.01,2013-03-06 16:50:00,
2013-03-06 11:51:00,36.9,20.0,29.26,NW,323,6.3,6.3,50,0.00,,---,0.00,VWS V14.01,2013-03-06 16:51:00,
2013-03-06 11:52:00,36.9,20.0,29.26,NNW,334,5.4,6.9,50,0.00,,---,0.00,VWS V14.01,2013-03-06 16:52:00,
2013-03-06 11:53:00,36.9,20.0,29.26,NNW,327,4.5,6.3,50,0.00,,---,0.00,VWS V14.01,2013-03-06 16:53:00,
2013-03-06 11:54:00,35.4,19.1,29.06,NNE,19,2.7,4.0,51,0.00,,---,0.00,VWS V14.01,2013-03-06 16:54:00,
2013-03-06 11:55:00,37.0,20.1,29.26,NW,318,4.5,5.8,50,0.00,,---,0.00,VWS V14.01,2013-03-06 16:55:00,
2013-03-06 11:56:00,37.0,20.1,29.26,NW,307,4.5,5.4,50,0.00,,---,0.00,VWS V14.01,2013-03-06 16:56:00,
2013-03-06 11:57:00,37.0,20.1,29.26,NW,316,6.3,6.9,50,0.00,,---,0.00,VWS V14.01,2013-03-06 16:57:00,
2013-03-06 11:58:00,37.0,19.7,29.26,NW,309,3.6,6.3,49,0.00,,---,0.00,VWS V14.01,2013-03-06 16:58:00,
2013-03-06 11:59:00,34.9,18.1,29.06,NE,50,2.7,5.8,50,0.00,,---,0.00,VWS V14.01,2013-03-06 16:59:00,
2013-03-06 12:00:00,37.0,19.7,29.26,WNW,303,5.4,7.4,49,0.00,,---,0.00,VWS V14.01,2013-03-06 17:00:00,
2013-03-06 12:01:00,36.9,19.5,29.26,NNW,343,4.0,6.9,49,0.00,,---,0.00,VWS V14.01,2013-03-06 17:01:00,
2013-03-06 12:02:00,37.0,20.1,29.26,NNW,332,6.3,6.9,50,0.00,,---,0.00,VWS V14.01,2013-03-06 17:02:00,
2013-03-06 12:03:00,37.0,20.1,29.26,NW,325,4.0,6.3,50,0.00,,---,0.00,VWS V14.01,2013-03-06 17:03:00,
2013-03-06 12:04:00,34.0,18.2,29.06,North,351,5.4,6.9,52,0.00,,---,0.00,VWS V14.01,2013-03-06 17:04:00,
2013-03-06 12:05:00,37.0,20.1,29.26,NNW,342,4.9,6.9,50,0.00,,---,0.00,VWS V14.01,2013-03-06 17:05:00,
2013-03-06 12:06:00,37.0,20.1,29.26,NW,317,4.5,6.3,50,0.00,,---,0.00,VWS V14.01,2013-03-06 17:06:00,
2013-03-06 12:07:00,37.2,20.3,29.26,NW,320,3.6,4.5,50,0.00,,---,0.00,VWS V14.01,2013-03-06 17:07:00,
2013-03-06 12:08:00,37.4,20.5,29.26,NW,321,4.9,5.4,50,0.00,,---,0.00,VWS V14.01,2013-03-06 17:08:00,
2013-03-06 12:09:00,32.9,19.4,29.06,North,351,2.7,6.7,57,0.00,,---,0.00,VWS V14.01,2013-03-06 17:09:00,
2013-03-06 12:10:00,37.4,20.5,29.26,NNW,334,6.9,7.4,50,0.00,,---,0.00,VWS V14.01,2013-03-06 17:10:00,
2013-03-06 12:11:00,37.4,20.5,29.26,NNW,331,4.9,6.9,50,0.00,,---,0.00,VWS V14.01,2013-03-06 17:11:00,
2013-03-06 12:12:00,37.6,20.6,29.26,NNW,346,3.1,4.9,50,0.00,,---,0.00,VWS V14.01,2013-03-06 17:12:00,
2013-03-06 12:13:00,37.6,20.2,29.26,NNW,329,6.3,6.9,49,0.00,,---,0.00,VWS V14.01,2013-03-06 17:13:00,
2013-03-06 12:14:00,33.8,21.0,29.06,NNW,336,7.4,8.3,59,0.00,,---,0.00,VWS V14.01,2013-03-06 17:14:00,
2013-03-06 12:15:00,37.6,19.7,29.26,NNW,346,3.1,6.7,48,0.00,,---,0.00,VWS V14.01,2013-03-06 17:15:00,
2013-03-06 12:16:00,37.4,19.0,29.26,NNW,327,4.9,4.9,47,0.00,,---,0.00,VWS V14.01,2013-03-06 17:16:00,
2013-03-06 12:17:00,37.4,18.5,29.26,NNW,333,7.4,7.4,46,0.00,,---,0.00,VWS V14.01,2013-03-06 17:17:00,
2013-03-06 12:18:00,37.2,18.4,29.26,NNW,338,7.4,7.8,46,0.00,,---,0.00,VWS V14.01,2013-03-06 17:18:00,
2013-03-06 12:19:00,33.3,20.1,29.06,NNW,341,3.1,6.3,58,0.00,,---,0.00,VWS V14.01,2013-03-06 17:19:00,
2013-03-06 12:20:00,37.4,19.0,29.26,NNW,331,6.3,6.3,47,0.00,,---,0.00,VWS V14.01,2013-03-06 17:20:00,
2013-03-06 12:21:00,37.2,18.9,29.26,NW,326,5.4,6.3,47,0.00,,---,0.00,VWS V14.01,2013-03-06 17:21:00,
2013-03-06 12:22:00,37.4,19.0,29.26,NNE,12,5.4,7.4,47,0.00,,---,0.00,VWS V14.01,2013-03-06 17:22:00,
2013-03-06 12:23:00,37.4,19.0,29.26,North,351,6.3,7.4,47,0.00,,---,0.00,VWS V14.01,2013-03-06 17:23:00,
2013-03-06 12:24:00,34.5,22.1,29.06,NNE,24,0.0,4.9,60,0.00,,---,0.00,VWS V14.01,2013-03-06 17:24:00,
2013-03-06 12:25:00,37.4,19.0,29.26,NNW,335,4.0,6.9,47,0.00,,---,0.00,VWS V14.01,2013-03-06 17:25:00,
2013-03-06 12:26:00,37.4,19.0,29.26,NW,322,6.9,7.4,47,0.00,,---,0.00,VWS V14.01,2013-03-06 17:26:00,
2013-03-06 12:27:00,37.6,19.2,29.26,NNW,327,3.6,7.8,47,0.00,,---,0.00,VWS V14.01,2013-03-06 17:27:00,
2013-03-06 12:28:00,37.4,19.5,29.26,NNE,12,5.4,8.3,48,0.00,,---,0.00,VWS V14.01,2013-03-06 17:28:00,
2013-03-06 12:29:00,34.7,21.0,29.09,NNE,21,4.5,5.4,57,0.00,,---,0.00,VWS V14.01,2013-03-06 17:29:00,
2013-03-06 12:30:00,37.6,20.2,29.26,NNW,331,4.9,6.7,49,0.00,,---,0.00,VWS V14.01,2013-03-06 17:30:00,
2013-03-06 12:31:00,37.6,20.2,29.26,NW,310,4.5,6.7,49,0.00,,---,0.00,VWS V14.01,2013-03-06 17:31:00,
2013-03-06 12:32:00,37.6,20.2,29.26,WNW,300,4.9,6.3,49,0.00,,---,0.00,VWS V14.01,2013-03-06 17:32:00,
2013-03-06 12:33:00,37.8,20.3,29.26,NW,320,6.3,6.3,49,0.00,,---,0.00,VWS V14.01,2013-03-06 17:33:00,
2013-03-06 12:34:00,33.6,20.0,29.09,NNW,338,3.6,6.9,57,0.00,,---,0.00,VWS V14.01,2013-03-06 17:34:00,
2013-03-06 12:35:00,37.4,20.0,29.26,NNW,336,6.9,8.7,49,0.00,,---,0.00,VWS V14.01,2013-03-06 17:35:00,
2013-03-06 12:36:00,37.4,20.0,29.26,NW,317,7.4,9.2,49,0.00,,---,0.00,VWS V14.01,2013-03-06 17:36:00,
2013-03-06 12:37:00,37.2,19.8,29.26,NW,307,7.4,7.4,49,0.00,,---,0.00,VWS V14.01,2013-03-06 17:37:00,
2013-03-06 12:38:00,37.4,20.0,29.26,North,351,6.7,7.4,49,0.00,,---,0.00,VWS V14.01,2013-03-06 17:38:00,
2013-03-06 12:39:00,37.4,20.0,29.26,NNW,345,4.5,7.4,49,0.00,,---,0.00,VWS V14.01,2013-03-06 17:39:00,
2013-03-06 12:40:00,37.4,20.0,29.26,NW,322,6.3,6.9,49,0.00,,---,0.00,VWS V14.01,2013-03-06 17:40:00,
2013-03-06 12:41:00,34.3,20.7,29.09,North,351,4.0,6.3,57,0.00,,---,0.00,VWS V14.01,2013-03-06 17:41:00,
2013-03-06 12:42:00,37.6,20.2,29.26,NNW,330,5.8,6.7,49,0.00,,---,0.00,VWS V14.01,2013-03-06 17:42:00,
2013-03-06 12:43:00,37.8,20.3,29.26,NW,320,3.1,6.3,49,0.00,,---,0.00,VWS V14.01,2013-03-06 17:43:00,
2013-03-06 12:44:00,37.6,20.2,29.26,NNW,337,8.7,8.7,49,0.00,,---,0.00,VWS V14.01,2013-03-06 17:44:00,
2013-03-06 12:45:00,37.4,19.5,29.26,NNW,341,6.9,9.2,48,0.00,,---,0.00,VWS V14.01,2013-03-06 17:45:00,
2013-03-06 12:46:00,37.4,20.0,29.26,North,9,6.3,6.9,49,0.00,,---,0.00,VWS V14.01,2013-03-06 17:46:00,
2013-03-06 12:47:00,37.6,20.2,29.26,NNW,338,4.0,7.8,49,0.00,,---,0.00,VWS V14.01,2013-03-06 17:47:00,
2013-03-06 12:48:00,37.8,20.3,29.26,North,351,6.3,6.7,49,0.00,,---,0.00,VWS V14.01,2013-03-06 17:48:00,
2013-03-06 12:49:00,34.9,21.2,29.09,NNE,20,3.1,5.4,57,0.00,,---,0.00,VWS V14.01,2013-03-06 17:49:00,
2013-03-06 12:50:00,37.9,20.5,29.26,NNW,329,4.0,6.9,49,0.00,,---,0.00,VWS V14.01,2013-03-06 17:50:00,
2013-03-06 12:51:00,38.1,20.7,29.26,NW,322,6.9,6.9,49,0.00,,---,0.00,VWS V14.01,2013-03-06 17:51:00,
2013-03-06 12:52:00,37.9,20.0,29.26,ENE,59,4.0,6.9,48,0.00,,---,0.00,VWS V14.01,2013-03-06 17:52:00,
2013-03-06 12:53:00,38.1,20.2,29.26,NW,323,6.9,6.9,48,0.00,,---,0.00,VWS V14.01,2013-03-06 17:53:00,
2013-03-06 12:54:00,37.9,20.0,29.26,NW,312,4.9,8.3,48,0.00,,---,0.00,VWS V14.01,2013-03-06 17:54:00,
2013-03-06 12:55:00,37.9,20.0,29.26,NNW,347,5.8,7.8,48,0.00,,---,0.00,VWS V14.01,2013-03-06 17:55:00,
2013-03-06 12:56:00,37.8,19.9,29.26,NNW,332,4.9,8.3,48,0.00,,---,0.00,VWS V14.01,2013-03-06 17:56:00,
2013-03-06 12:57:00,37.4,19.5,29.26,NNW,328,6.7,9.6,48,0.00,,---,0.00,VWS V14.01,2013-03-06 17:57:00,
2013-03-06 12:58:00,37.6,19.7,29.26,NNW,333,4.9,7.4,48,0.00,,---,0.00,VWS V14.01,2013-03-06 17:58:00,
2013-03-06 12:59:00,37.8,20.3,29.26,NNW,338,4.0,6.3,49,0.00,,---,0.00,VWS V14.01,2013-03-06 17:59:00,
2013-03-06 13:00:00,37.9,20.5,29.26,North,356,4.0,6.9,49,0.00,,---,0.00,VWS V14.01,2013-03-06 18:00:00,
2013-03-06 13:01:00,38.1,20.7,29.26,NNW,334,5.8,5.8,49,0.00,,---,0.00,VWS V14.01,2013-03-06 18:01:00,
2013-03-06 13:02:00,38.1,20.7,29.26,NW,310,4.9,6.3,49,0.00,,---,0.00,VWS V14.01,2013-03-06 18:02:00,
2013-03-06 13:03:00,38.5,21.0,29.26,NNW,341,4.0,5.4,49,0.00,,---,0.00,VWS V14.01,2013-03-06 18:03:00,
2013-03-06 13:04:00,34.7,18.9,29.09,North,11,4.5,4.5,52,0.00,,---,0.00,VWS V14.01,2013-03-06 18:04:00,
2013-03-06 13:05:00,38.5,20.0,29.26,NNW,327,5.8,6.9,47,0.00,,---,0.00,VWS V14.01,2013-03-06 18:05:00,
2013-03-06 13:06:00,38.3,19.4,29.26,NW,318,4.5,8.3,46,0.00,,---,0.00,VWS V14.01,2013-03-06 18:06:00,
2013-03-06 13:07:00,38.5,19.5,29.26,NNW,328,6.3,6.7,46,0.00,,---,0.00,VWS V14.01,2013-03-06 18:07:00,
2013-03-06 13:08:00,38.5,19.0,29.26,NNW,346,5.4,6.3,45,0.00,,---,0.00,VWS V14.01,2013-03-06 18:08:00,
2013-03-06 13:09:00,38.3,18.8,29.26,North,356,4.0,7.8,45,0.00,,---,0.00,VWS V14.01,2013-03-06 18:09:00,
2013-03-06 13:10:00,38.3,18.8,29.26,NNW,340,3.6,6.9,45,0.00,,---,0.00,VWS V14.01,2013-03-06 18:10:00,
2013-03-06 13:16:00,38.3,18.3,29.26,NW,324,4.0,4.0,44,0.00,,---,0.00,VWS V14.01,2013-03-06 18:16:00,
2013-03-06 13:17:00,38.5,18.5,29.26,NNW,334,5.4,5.4,44,0.00,,---,0.00,VWS V14.01,2013-03-06 18:17:00,
2013-03-06 13:18:00,34.5,19.2,29.09,NNW,341,4.9,6.3,53,0.00,,---,0.00,VWS V14.01,2013-03-06 18:18:00,
2013-03-06 13:19:00,38.5,19.0,29.26,NNW,332,5.4,5.8,45,0.00,,---,0.00,VWS V14.01,2013-03-06 18:19:00,
2013-03-06 13:21:00,38.8,19.3,29.26,NW,304,4.0,5.8,45,0.00,,---,0.00,VWS V14.01,2013-03-06 18:21:00,
2013-03-06 13:22:00,38.8,19.3,29.26,NW,305,4.5,5.4,45,0.00,,---,0.00,VWS V14.01,2013-03-06 18:22:00,
2013-03-06 13:23:00,38.8,18.8,29.26,North,351,6.3,7.4,44,0.00,,---,0.00,VWS V14.01,2013-03-06 18:23:00,
2013-03-06 13:24:00,38.8,18.8,29.26,NNW,342,4.5,6.3,44,0.00,,---,0.00,VWS V14.01,2013-03-06 18:24:00,
2013-03-06 13:25:00,38.7,18.1,29.26,NW,324,7.4,7.8,43,0.00,,---,0.00,VWS V14.01,2013-03-06 18:25:00,
2013-03-06 13:26:00,38.5,17.9,29.26,NNW,329,4.5,8.3,43,0.00,,---,0.00,VWS V14.01,2013-03-06 18:26:00,
2013-03-06 13:27:00,38.5,18.5,29.26,NNW,342,3.1,5.4,44,0.00,,---,0.00,VWS V14.01,2013-03-06 18:27:00,
2013-03-06 13:28:00,34.5,20.5,29.09,NNW,345,4.9,5.8,56,0.00,,---,0.00,VWS V14.01,2013-03-06 18:28:00,
2013-03-06 13:29:00,38.7,19.2,29.26,NW,309,6.3,6.9,45,0.00,,---,0.00,VWS V14.01,2013-03-06 18:29:00,
2013-03-06 13:30:00,38.8,19.3,29.26,NNW,337,3.1,6.3,45,0.00,,---,0.00,VWS V14.01,2013-03-06 18:30:00,
2013-03-06 13:31:00,39.0,19.5,29.26,NW,307,5.4,6.3,45,0.00,,---,0.00,VWS V14.01,2013-03-06 18:31:00,
2013-03-06 13:32:00,39.0,19.0,29.26,NNW,338,5.4,6.7,44,0.00,,---,0.00,VWS V14.01,2013-03-06 18:32:00,
2013-03-06 13:33:00,38.8,18.3,29.26,WNW,301,6.9,8.3,43,0.00,,---,0.00,VWS V14.01,2013-03-06 18:33:00,
2013-03-06 13:34:00,38.7,18.1,29.26,NW,325,5.8,7.8,43,0.00,,---,0.00,VWS V14.01,2013-03-06 18:34:00,
2013-03-06 13:35:00,38.5,17.9,29.26,NW,323,6.9,8.7,43,0.00,,---,0.00,VWS V14.01,2013-03-06 18:35:00,
2013-03-06 13:36:00,38.5,18.5,29.26,North,351,4.9,6.9,44,0.00,,---,0.00,VWS V14.01,2013-03-06 18:36:00,
2013-03-06 13:37:00,38.7,18.6,29.26,NW,324,6.7,6.7,44,0.00,,---,0.00,VWS V14.01,2013-03-06 18:37:00,
2013-03-06 13:38:00,34.7,19.3,29.09,North,351,4.0,7.8,53,0.00,,---,0.00,VWS V14.01,2013-03-06 18:38:00,
2013-03-06 13:39:00,38.8,18.8,29.26,NW,325,0.0,5.4,44,0.00,,---,0.00,VWS V14.01,2013-03-06 18:39:00,
2013-03-06 13:40:00,39.2,19.1,29.26,NNW,327,5.8,5.8,44,0.00,,---,0.00,VWS V14.01,2013-03-06 18:40:00,
2013-03-06 13:41:00,39.0,18.4,29.26,NW,315,5.4,6.9,43,0.00,,---,0.00,VWS V14.01,2013-03-06 18:41:00,
2013-03-06 13:42:00,38.8,18.3,29.26,NW,313,4.9,7.4,43,0.00,,---,0.00,VWS V14.01,2013-03-06 18:42:00,
2013-03-06 13:43:00,34.9,19.5,29.06,NW,324,5.8,6.7,53,0.00,,---,0.00,VWS V14.01,2013-03-06 18:43:00,
2013-03-06 13:44:00,38.7,18.1,29.26,NW,307,4.5,6.9,43,0.00,,---,0.00,VWS V14.01,2013-03-06 18:44:00,
2013-03-06 13:45:00,38.7,18.1,29.26,NNW,339,4.9,6.7,43,0.00,,---,0.00,VWS V14.01,2013-03-06 18:45:00,
2013-03-06 13:46:00,38.7,18.1,29.26,NNW,333,4.5,5.8,43,0.00,,---,0.00,VWS V14.01,2013-03-06 18:46:00,
2013-03-06 13:47:00,38.7,18.1,29.26,NNW,327,4.9,6.7,43,0.00,,---,0.00,VWS V14.01,2013-03-06 18:47:00,
2013-03-06 13:48:00,38.8,17.7,29.26,NNW,339,0.0,5.8,42,0.00,,---,0.00,VWS V14.01,2013-03-06 18:48:00,
2013-03-06 13:49:00,39.0,18.4,29.26,NW,314,6.3,6.7,43,0.00,,---,0.00,VWS V14.01,2013-03-06 18:49:00,
2013-03-06 13:50:00,34.3,19.9,29.06,WNW,294,4.5,6.3,55,0.00,,---,0.00,VWS V14.01,2013-03-06 18:50:00,
2013-03-06 13:51:00,39.0,18.4,29.26,NNW,333,6.7,6.7,43,0.00,,---,0.00,VWS V14.01,2013-03-06 18:51:00,
2013-03-06 13:52:00,39.0,18.4,29.26,NW,319,7.4,7.4,43,0.00,,---,0.00,VWS V14.01,2013-03-06 18:52:00,
2013-03-06 13:53:00,39.0,17.9,29.26,WNW,293,4.5,7.4,42,0.00,,---,0.00,VWS V14.01,2013-03-06 18:53:00,
2013-03-06 13:54:00,39.0,18.4,29.26,NW,308,5.4,6.9,43,0.00,,---,0.00,VWS V14.01,2013-03-06 18:54:00,
2013-03-06 13:55:00,34.5,21.3,29.06,NNW,332,5.4,5.4,58,0.00,,---,0.00,VWS V14.01,2013-03-06 18:55:00,
2013-03-06 13:56:00,39.2,18.6,29.26,NNW,331,4.0,4.9,43,0.00,,---,0.00,VWS V14.01,2013-03-06 18:56:00,
2013-03-06 13:57:00,39.2,18.6,29.26,NNW,330,4.5,4.9,43,0.00,,---,0.00,VWS V14.01,2013-03-06 18:57:00,
2013-03-06 13:58:00,39.2,18.0,29.26,NNW,327,6.7,7.4,42,0.00,,---,0.00,VWS V14.01,2013-03-06 18:58:00,
2013-03-06 13:59:00,39.0,17.3,29.26,NW,326,5.4,7.4,41,0.00,,---,0.00,VWS V14.01,2013-03-06 18:59:00,
2013-03-06 14:00:00,39.2,17.5,29.26,NNW,342,4.9,6.7,41,0.00,,---,0.00,VWS V14.01,2013-03-06 19:00:00,
2013-03-06 14:01:00,35.4,20.9,29.09,NNW,336,2.7,5.8,55,0.00,,---,0.00,VWS V14.01,2013-03-06 19:01:00,
2013-03-06 14:02:00,38.8,17.2,29.26,North,351,6.3,7.4,41,0.00,,---,0.00,VWS V14.01,2013-03-06 19:02:00,
2013-03-06 14:03:00,38.7,17.0,29.26,NNW,345,7.4,8.3,41,0.00,,---,0.00,VWS V14.01,2013-03-06 19:03:00,
2013-03-06 14:04:00,38.5,16.3,29.26,NNW,332,7.4,8.7,40,0.00,,---,0.00,VWS V14.01,2013-03-06 19:04:00,
2013-03-06 14:05:00,38.3,16.7,29.26,NNW,330,6.7,7.4,41,0.00,,---,0.00,VWS V14.01,2013-03-06 19:05:00,
2013-03-06 14:06:00,34.5,19.6,29.09,NW,314,5.8,6.7,54,0.00,,---,0.00,VWS V14.01,2013-03-06 19:06:00,
2013-03-06 14:07:00,38.3,16.7,29.26,NNW,332,6.3,8.7,41,0.00,,---,0.00,VWS V14.01,2013-03-06 19:07:00,
2013-03-06 14:08:00,38.7,17.0,29.26,NNW,347,4.9,6.3,41,0.00,,---,0.00,VWS V14.01,2013-03-06 19:08:00,
2013-03-06 14:09:00,38.8,17.2,29.26,NNW,332,7.8,7.8,41,0.00,,---,0.00,VWS V14.01,2013-03-06 19:09:00,
2013-03-06 14:10:00,38.7,16.4,29.26,North,351,6.9,8.7,40,0.00,,---,0.00,VWS V14.01,2013-03-06 19:10:00,
2013-03-06 14:11:00,38.8,16.6,29.26,North,9,6.9,6.9,40,0.00,,---,0.00,VWS V14.01,2013-03-06 19:11:00,
2013-03-06 14:12:00,34.7,20.6,29.09,NNW,336,4.0,4.9,56,0.00,,---,0.00,VWS V14.01,2013-03-06 19:12:00,
2013-03-06 14:13:00,38.7,16.4,29.26,NNW,334,4.0,6.7,40,0.00,,---,0.00,VWS V14.01,2013-03-06 19:13:00,
2013-03-06 14:14:00,38.8,16.6,29.26,NNW,333,6.7,6.7,40,0.00,,---,0.00,VWS V14.01,2013-03-06 19:14:00,
2013-03-06 14:15:00,38.8,16.0,29.26,NNW,341,4.9,6.7,39,0.00,,---,0.00,VWS V14.01,2013-03-06 19:15:00,
2013-03-06 14:16:00,38.8,16.0,29.26,NNW,336,6.7,6.9,39,0.00,,---,0.00,VWS V14.01,2013-03-06 19:16:00,
2013-03-06 14:17:00,33.8,20.2,29.09,NNW,331,6.7,8.7,57,0.00,,---,0.00,VWS V14.01,2013-03-06 19:17:00,
2013-03-06 14:18:00,39.0,16.2,29.26,NNW,346,4.5,5.4,39,0.00,,---,0.00,VWS V14.01,2013-03-06 19:18:00,
2013-03-06 14:19:00,39.2,16.3,29.26,NW,308,4.5,6.3,39,0.00,,---,0.00,VWS V14.01,2013-03-06 19:19:00,
2013-03-06 14:20:00,39.2,16.3,29.26,NW,311,5.4,5.8,39,0.00,,---,0.00,VWS V14.01,2013-03-06 19:20:00,
2013-03-06 14:21:00,39.4,15.3,29.26,WNW,301,5.4,6.3,37,0.00,,---,0.00,VWS V14.01,2013-03-06 19:21:00,
2013-03-06 14:22:00,39.4,14.7,29.26,NW,305,6.3,6.7,36,0.00,,---,0.00,VWS V14.01,2013-03-06 19:22:00,
2013-03-06 14:23:00,39.4,13.4,29.26,NW,307,4.5,6.3,34,0.00,,---,0.00,VWS V14.01,2013-03-06 19:23:00,
2013-03-06 14:24:00,33.6,20.4,29.09,North,351,8.3,8.3,58,0.00,,---,0.00,VWS V14.01,2013-03-06 19:24:00,
2013-03-06 14:25:00,39.6,12.9,29.26,WNW,300,5.8,6.3,33,0.00,,---,0.00,VWS V14.01,2013-03-06 19:25:00,
2013-03-06 14:26:00,39.7,13.7,29.26,NNW,331,4.5,6.3,34,0.00,,---,0.00,VWS V14.01,2013-03-06 19:26:00,
2013-03-06 14:27:00,39.9,13.8,29.26,NW,319,5.4,6.3,34,0.00,,---,0.00,VWS V14.01,2013-03-06 19:27:00,
2013-03-06 14:28:00,39.9,13.2,29.26,NW,320,4.0,5.4,33,0.00,,---,0.00,VWS V14.01,2013-03-06 19:28:00,
2013-03-06 14:29:00,33.8,20.6,29.09,NW,311,6.3,6.9,58,0.00,,---,0.00,VWS V14.01,2013-03-06 19:29:00,
2013-03-06 14:30:00,39.9,12.5,29.26,NNW,334,4.9,6.9,32,0.00,,---,0.00,VWS V14.01,2013-03-06 19:30:00,
2013-03-06 14:31:00,39.7,11.6,29.26,NNW,334,5.4,6.7,31,0.00,,---,0.00,VWS V14.01,2013-03-06 19:31:00,
2013-03-06 14:32:00,39.7,11.6,29.26,NW,323,4.5,5.4,31,0.00,,---,0.00,VWS V14.01,2013-03-06 19:32:00,
2013-03-06 14:33:00,39.7,10.9,29.26,NW,325,4.5,6.7,30,0.00,,---,0.00,VWS V14.01,2013-03-06 19:33:00,
2013-03-06 14:34:00,39.7,11.6,29.26,NW,326,5.4,6.3,31,0.00,,---,0.00,VWS V14.01,2013-03-06 19:34:00,
2013-03-06 14:35:00,40.1,11.9,29.26,North,351,6.3,6.3,31,0.00,,---,0.00,VWS V14.01,2013-03-06 19:35:00,
2013-03-06 14:36:00,34.0,20.8,29.09,North,351,3.1,4.5,58,0.00,,---,0.00,VWS V14.01,2013-03-06 19:36:00,
2013-03-06 14:37:00,40.1,12.6,29.26,NNW,334,5.4,6.9,32,0.00,,---,0.00,VWS V14.01,2013-03-06 19:37:00,
2013-03-06 14:38:00,39.9,12.5,29.26,WNW,291,5.8,6.7,32,0.00,,---,0.00,VWS V14.01,2013-03-06 19:38:00,
2013-03-06 14:39:00,39.9,12.5,29.26,NNW,338,4.0,7.4,32,0.00,,---,0.00,VWS V14.01,2013-03-06 19:39:00,
2013-03-06 14:40:00,39.6,11.4,29.26,NNE,25,3.6,8.3,31,0.00,,---,0.00,VWS V14.01,2013-03-06 19:40:00,
2013-03-06 14:41:00,34.3,21.1,29.09,NNW,334,2.7,6.9,58,0.00,,---,0.00,VWS V14.01,2013-03-06 19:41:00,
2013-03-06 14:42:00,39.4,11.3,29.26,NNW,339,4.9,7.4,31,0.00,,---,0.00,VWS V14.01,2013-03-06 19:42:00,
2013-03-06 14:43:00,39.6,11.4,29.26,NNW,340,4.5,5.4,31,0.00,,---,0.00,VWS V14.01,2013-03-06 19:43:00,
2013-03-06 14:44:00,39.6,11.4,29.26,NNW,335,5.8,7.4,31,0.00,,---,0.00,VWS V14.01,2013-03-06 19:44:00,
2013-03-06 14:45:00,39.4,10.5,29.26,NNW,330,5.8,7.8,30,0.00,,---,0.00,VWS V14.01,2013-03-06 19:45:00,
2013-03-06 14:46:00,34.7,21.0,29.09,NNW,336,3.1,5.8,57,0.00,,---,0.00,VWS V14.01,2013-03-06 19:46:00,
2013-03-06 14:47:00,39.4,12.0,29.26,WNW,296,5.4,6.9,32,0.00,,---,0.00,VWS V14.01,2013-03-06 19:47:00,
2013-03-06 14:48:00,39.4,12.0,29.26,North,351,4.5,5.8,32,0.00,,---,0.00,VWS V14.01,2013-03-06 19:48:00,
2013-03-06 14:49:00,39.6,12.1,29.26,North,351,4.5,6.3,32,0.00,,---,0.00,VWS V14.01,2013-03-06 19:49:00,
2013-03-06 14:50:00,39.7,12.3,29.26,NNW,339,4.0,8.3,32,0.00,,---,0.00,VWS V14.01,2013-03-06 19:50:00,
2013-03-06 14:51:00,39.7,12.3,29.26,NNW,330,5.4,7.8,32,0.00,,---,0.00,VWS V14.01,2013-03-06 19:51:00,
2013-03-06 14:52:00,39.7,12.3,29.26,NW,307,5.4,5.8,32,0.00,,---,0.00,VWS V14.01,2013-03-06 19:52:00,
2013-03-06 14:53:00,39.6,12.9,29.26,NW,313,5.8,7.4,33,0.00,,---,0.00,VWS V14.01,2013-03-06 19:53:00,
2013-03-06 14:54:00,39.4,12.0,29.26,NNW,340,4.0,6.9,32,0.00,,---,0.00,VWS V14.01,2013-03-06 19:54:00,
2013-03-06 14:55:00,34.3,19.9,29.09,North,351,5.4,7.8,55,0.00,,---,0.00,VWS V14.01,2013-03-06 19:55:00,
2013-03-06 14:56:00,39.2,11.8,29.26,NW,323,5.8,8.7,32,0.00,,---,0.00,VWS V14.01,2013-03-06 19:56:00,
2013-03-06 14:57:00,39.0,12.4,29.26,NNW,336,6.9,8.3,33,0.00,,---,0.00,VWS V14.01,2013-03-06 19:57:00,
2013-03-06 14:58:00,38.7,11.4,29.26,NW,323,8.3,8.7,32,0.00,,---,0.00,VWS V14.01,2013-03-06 19:58:00,
2013-03-06 14:59:00,38.7,11.4,29.26,NNW,333,5.4,8.3,32,0.00,,---,0.00,VWS V14.01,2013-03-06 19:59:00,
2013-03-06 15:00:00,34.5,20.5,29.09,NW,325,5.4,5.4,56,0.00,,---,0.00,VWS V14.01,2013-03-06 20:00:00,
2013-03-06 15:01:00,39.0,13.0,29.26,NNW,334,6.3,6.3,34,0.00,,---,0.00,VWS V14.01,2013-03-06 20:01:00,
2013-03-06 15:02:00,39.2,13.2,29.26,NNW,332,3.1,6.9,34,0.00,,---,0.00,VWS V14.01,2013-03-06 20:02:00,
2013-03-06 15:03:00,39.2,12.5,29.26,NW,325,5.4,5.8,33,0.00,,---,0.00,VWS V14.01,2013-03-06 20:03:00,
2013-03-06 15:04:00,39.6,12.9,29.26,NNW,330,4.5,5.4,33,0.00,,---,0.00,VWS V14.01,2013-03-06 20:04:00,
2013-03-06 15:05:00,39.6,12.9,29.26,NNW,329,4.0,5.8,33,0.00,,---,0.00,VWS V14.01,2013-03-06 20:05:00,
2013-03-06 15:06:00,39.7,12.3,29.26,NNW,341,0.0,5.4,32,0.00,,---,0.00,VWS V14.01,2013-03-06 20:06:00,
2013-03-06 15:07:00,39.7,11.6,29.24,NNW,335,5.4,5.4,31,0.00,,---,0.00,VWS V14.01,2013-03-06 20:07:00,
2013-03-06 15:08:00,39.6,11.4,29.24,NNW,335,4.5,6.3,31,0.00,,---,0.00,VWS V14.01,2013-03-06 20:08:00,
2013-03-06 15:09:00,39.7,12.3,29.24,WNW,299,4.0,5.4,32,0.00,,---,0.00,VWS V14.01,2013-03-06 20:09:00,
2013-03-06 15:10:00,39.9,12.5,29.24,WNW,299,4.5,6.3,32,0.00,,---,0.00,VWS V14.01,2013-03-06 20:10:00,
2013-03-06 15:11:00,39.9,11.8,29.24,NW,322,4.0,5.8,31,0.00,,---,0.00,VWS V14.01,2013-03-06 20:11:00,
2013-03-06 15:12:00,39.9,11.8,29.24,NW,323,4.5,6.3,31,0.00,,---,0.00,VWS V14.01,2013-03-06 20:12:00,
2013-03-06 15:13:00,39.9,11.0,29.24,WNW,303,5.8,5.8,30,0.00,,---,0.00,VWS V14.01,2013-03-06 20:13:00,
2013-03-06 15:14:00,39.6,11.4,29.24,WNW,290,5.4,7.4,31,0.00,,---,0.00,VWS V14.01,2013-03-06 20:14:00,
2013-03-06 15:15:00,39.2,11.1,29.24,WNW,302,5.4,7.4,31,0.00,,---,0.00,VWS V14.01,2013-03-06 20:15:00,
2013-03-06 15:16:00,38.8,11.5,29.24,NW,324,4.5,6.3,32,0.00,,---,0.00,VWS V14.01,2013-03-06 20:16:00,
2013-03-06 15:17:00,38.7,11.4,29.24,NW,324,3.1,4.5,32,0.00,,---,0.00,VWS V14.01,2013-03-06 20:17:00,
2013-03-06 15:18:00,38.5,10.5,29.24,NNW,340,3.6,6.3,31,0.00,,---,0.00,VWS V14.01,2013-03-06 20:18:00,
2013-03-06 15:19:00,38.3,11.0,29.24,North,7,4.9,6.9,32,0.00,,---,0.00,VWS V14.01,2013-03-06 20:19:00,
2013-03-06 15:20:00,38.1,11.6,29.24,NNW,329,5.4,6.9,33,0.00,,---,0.00,VWS V14.01,2013-03-06 20:20:00,
2013-03-06 15:21:00,37.9,10.7,29.24,NNW,337,6.7,9.6,32,0.00,,---,0.00,VWS V14.01,2013-03-06 20:21:00,
2013-03-06 15:22:00,37.8,10.6,29.26,NNE,25,4.0,7.8,32,0.00,,---,0.00,VWS V14.01,2013-03-06 20:22:00,
2013-03-06 15:23:00,37.6,10.4,29.26,NNW,337,6.3,8.3,32,0.00,,---,0.00,VWS V14.01,2013-03-06 20:23:00,
2013-03-06 15:24:00,37.6,11.1,29.26,NNW,343,6.3,6.7,33,0.00,,---,0.00,VWS V14.01,2013-03-06 20:24:00,
2013-03-06 15:25:00,37.6,11.1,29.26,NNW,339,4.0,6.3,33,0.00,,---,0.00,VWS V14.01,2013-03-06 20:25:00,
2013-03-06 15:26:00,37.8,11.9,29.26,NNW,346,4.0,6.3,34,0.00,,---,0.00,VWS V14.01,2013-03-06 20:26:00,
2013-03-06 15:27:00,37.9,12.1,29.26,NNW,329,3.6,6.3,34,0.00,,---,0.00,VWS V14.01,2013-03-06 20:27:00,
2013-03-06 15:28:00,38.1,12.2,29.26,WNW,292,5.4,6.7,34,0.00,,---,0.00,VWS V14.01,2013-03-06 20:28:00,
2013-03-06 15:29:00,38.1,12.2,29.26,NNW,328,3.1,5.8,34,0.00,,---,0.00,VWS V14.01,2013-03-06 20:29:00,
2013-03-06 15:30:00,38.1,12.2,29.26,NW,310,3.6,5.8,34,0.00,,---,0.00,VWS V14.01,2013-03-06 20:30:00,
2013-03-06 15:31:00,38.1,12.2,29.26,NNW,337,4.0,5.4,34,0.00,,---,0.00,VWS V14.01,2013-03-06 20:31:00,
2013-03-06 15:32:00,38.1,12.2,29.26,North,0,5.4,6.9,34,0.00,,---,0.00,VWS V14.01,2013-03-06 20:32:00,
2013-03-06 15:33:00,37.9,12.1,29.26,NNW,328,6.7,6.7,34,0.00,,---,0.00,VWS V14.01,2013-03-06 20:33:00,
2013-03-06 15:34:00,37.8,11.3,29.26,NNW,341,6.9,8.7,33,0.00,,---,0.00,VWS V14.01,2013-03-06 20:34:00,
2013-03-06 15:35:00,37.6,11.1,29.26,NNW,341,4.5,6.9,33,0.00,,---,0.00,VWS V14.01,2013-03-06 20:35:00,
2013-03-06 15:36:00,37.6,11.1,29.26,NNW,337,6.3,7.8,33,0.00,,---,0.00,VWS V14.01,2013-03-06 20:36:00,
2013-03-06 15:37:00,37.4,10.9,29.26,North,356,3.6,6.9,33,0.00,,---,0.00,VWS V14.01,2013-03-06 20:37:00,
2013-03-06 15:38:00,37.4,10.9,29.26,NNW,339,4.9,6.9,33,0.00,,---,0.00,VWS V14.01,2013-03-06 20:38:00,
2013-03-06 15:39:00,37.4,10.9,29.26,NNW,330,3.6,4.9,33,0.00,,---,0.00,VWS V14.01,2013-03-06 20:39:00,
2013-03-06 15:40:00,37.4,11.6,29.26,NNW,340,3.6,5.4,34,0.00,,---,0.00,VWS V14.01,2013-03-06 20:40:00,
2013-03-06 15:41:00,37.6,12.4,29.26,NNW,339,2.7,4.5,35,0.00,,---,0.00,VWS V14.01,2013-03-06 20:41:00,
2013-03-06 15:42:00,37.8,13.2,29.26,NNW,339,5.4,5.4,36,0.00,,---,0.00,VWS V14.01,2013-03-06 20:42:00,
2013-03-06 15:43:00,37.9,13.4,29.26,NW,317,4.5,6.3,36,0.00,,---,0.00,VWS V14.01,2013-03-06 20:43:00,
2013-03-06 15:44:00,37.9,14.0,29.26,WNW,295,6.7,7.4,37,0.00,,---,0.00,VWS V14.01,2013-03-06 20:44:00,
2013-03-06 15:45:00,37.9,14.0,29.26,NW,325,8.3,8.3,37,0.00,,---,0.00,VWS V14.01,2013-03-06 20:45:00,
2013-03-06 15:46:00,37.6,11.8,29.26,NNW,341,3.1,8.3,34,0.00,,---,0.00,VWS V14.01,2013-03-06 20:46:00,
2013-03-06 15:47:00,37.8,12.6,29.26,NNW,342,3.6,5.4,35,0.00,,---,0.00,VWS V14.01,2013-03-06 20:47:00,
2013-03-06 15:48:00,37.8,12.6,29.26,NNW,327,5.8,6.7,35,0.00,,---,0.00,VWS V14.01,2013-03-06 20:48:00,
2013-03-06 15:49:00,37.8,12.6,29.26,NNW,334,5.8,6.3,35,0.00,,---,0.00,VWS V14.01,2013-03-06 20:49:00,
2013-03-06 15:50:00,37.6,12.4,29.26,NNW,342,3.1,8.3,35,0.00,,---,0.00,VWS V14.01,2013-03-06 20:50:00,
2013-03-06 15:51:00,37.6,13.1,29.26,NNW,333,5.4,5.8,36,0.00,,---,0.00,VWS V14.01,2013-03-06 20:51:00,
2013-03-06 15:52:00,37.6,13.1,29.26,NNW,343,4.9,5.8,36,0.00,,---,0.00,VWS V14.01,2013-03-06 20:52:00,
2013-03-06 15:53:00,37.6,13.1,29.26,NNW,327,6.3,7.8,36,0.00,,---,0.00,VWS V14.01,2013-03-06 20:53:00,
2013-03-06 15:54:00,37.8,13.8,29.26,NW,310,4.5,6.3,37,0.00,,---,0.00,VWS V14.01,2013-03-06 20:54:00,
2013-03-06 15:55:00,37.9,14.0,29.26,NNW,330,6.7,6.7,37,0.00,,---,0.00,VWS V14.01,2013-03-06 20:55:00,
2013-03-06 15:56:00,38.1,13.5,29.26,WNW,303,5.8,6.7,36,0.00,,---,0.00,VWS V14.01,2013-03-06 20:56:00,
2013-03-06 15:57:00,38.1,13.5,29.26,NW,326,6.9,6.9,36,0.00,,---,0.00,VWS V14.01,2013-03-06 20:57:00,
2013-03-06 15:58:00,38.1,13.5,29.26,NNW,335,6.7,6.9,36,0.00,,---,0.00,VWS V14.01,2013-03-06 20:58:00,
2013-03-06 16:06:00,37.8,13.8,29.26,NNW,340,5.8,6.7,37,0.00,,---,0.00,VWS V14.01,2013-03-06 21:06:00,
2013-03-06 16:07:00,37.8,13.8,29.26,NNW,340,4.0,5.8,37,0.00,,---,0.00,VWS V14.01,2013-03-06 21:07:00,
2013-03-06 16:08:00,37.6,13.1,29.26,North,356,5.4,8.3,36,0.00,,---,0.00,VWS V14.01,2013-03-06 21:08:00,
2013-03-06 16:09:00,37.4,12.9,29.26,NNW,345,3.6,6.9,36,0.00,,---,0.00,VWS V14.01,2013-03-06 21:09:00,
2013-03-06 16:10:00,37.2,12.7,29.26,NNW,336,4.9,6.7,36,0.00,,---,0.00,VWS V14.01,2013-03-06 21:10:00,
2013-03-06 16:11:00,37.2,14.0,29.26,NNW,331,5.4,5.8,38,0.00,,---,0.00,VWS V14.01,2013-03-06 21:11:00,
2013-03-06 16:12:00,37.2,14.6,29.26,NNW,343,4.9,5.4,39,0.00,,---,0.00,VWS V14.01,2013-03-06 21:12:00,
2013-03-06 16:13:00,37.2,14.6,29.26,NNW,334,4.5,7.4,39,0.00,,---,0.00,VWS V14.01,2013-03-06 21:13:00,
2013-03-06 16:14:00,37.2,14.6,29.26,NNW,330,4.0,5.4,39,0.00,,---,0.00,VWS V14.01,2013-03-06 21:14:00,
2013-03-06 16:15:00,37.2,14.6,29.26,NNW,329,6.3,6.3,39,0.00,,---,0.00,VWS V14.01,2013-03-06 21:15:00,
2013-03-06 16:16:00,37.2,14.6,29.26,NNW,334,5.4,7.4,39,0.00,,---,0.00,VWS V14.01,2013-03-06 21:16:00,
2013-03-06 16:17:00,37.2,14.6,29.26,NNW,335,5.4,7.4,39,0.00,,---,0.00,VWS V14.01,2013-03-06 21:17:00,
2013-03-06 16:18:00,37.2,14.6,29.26,NNW,333,6.7,6.7,39,0.00,,---,0.00,VWS V14.01,2013-03-06 21:18:00,
2013-03-06 16:19:00,37.2,14.6,29.26,NW,326,5.8,8.3,39,0.00,,---,0.00,VWS V14.01,2013-03-06 21:19:00,
2013-03-06 16:20:00,37.0,14.4,29.26,North,356,5.8,7.4,39,0.00,,---,0.00,VWS V14.01,2013-03-06 21:20:00,
2013-03-06 16:21:00,37.0,14.4,29.26,North,351,5.8,8.3,39,0.00,,---,0.00,VWS V14.01,2013-03-06 21:21:00,
2013-03-06 16:22:00,37.0,15.0,29.26,NNW,327,5.4,6.7,40,0.00,,---,0.00,VWS V14.01,2013-03-06 21:22:00,
2013-03-06 16:23:00,37.0,15.0,29.26,North,356,4.9,7.4,40,0.00,,---,0.00,VWS V14.01,2013-03-06 21:23:00,
2013-03-06 16:24:00,37.2,15.1,29.26,NNW,347,4.5,5.8,40,0.00,,---,0.00,VWS V14.01,2013-03-06 21:24:00,
2013-03-06 16:25:00,37.2,15.1,29.26,NNW,345,4.9,5.8,40,0.00,,---,0.00,VWS V14.01,2013-03-06 21:25:00,
2013-03-06 16:26:00,37.2,15.1,29.26,NNW,344,4.5,6.3,40,0.00,,---,0.00,VWS V14.01,2013-03-06 21:26:00,
2013-03-06 16:27:00,37.4,15.3,29.26,NNW,344,4.9,5.4,40,0.00,,---,0.00,VWS V14.01,2013-03-06 21:27:00,
2013-03-06 16:28:00,37.4,15.3,29.26,NNW,344,3.6,5.4,40,0.00,,---,0.00,VWS V14.01,2013-03-06 21:28:00,
2013-03-06 16:29:00,37.6,15.5,29.26,WNW,287,5.8,5.8,40,0.00,,---,0.00,VWS V14.01,2013-03-06 21:29:00,
2013-03-06 16:30:00,37.6,16.0,29.26,NNW,328,7.4,7.4,41,0.00,,---,0.00,VWS V14.01,2013-03-06 21:30:00,
2013-03-06 16:33:00,37.4,15.3,29.26,NNW,347,5.4,7.4,40,0.00,,---,0.00,VWS V14.01,2013-03-06 21:33:00,
2013-03-06 16:34:00,37.4,15.3,29.26,NNW,340,6.3,6.3,40,0.00,,---,0.00,VWS V14.01,2013-03-06 21:34:00,
2013-03-06 16:35:00,37.2,15.1,29.26,NW,322,5.4,6.3,40,0.00,,---,0.00,VWS V14.01,2013-03-06 21:35:00,
2013-03-06 16:36:00,37.4,15.3,29.26,NW,307,3.6,5.8,40,0.00,,---,0.00,VWS V14.01,2013-03-06 21:36:00,
2013-03-06 16:37:00,37.2,15.1,29.26,NW,310,3.6,5.8,40,0.00,,---,0.00,VWS V14.01,2013-03-06 21:37:00,
2013-03-06 16:38:00,37.2,15.1,29.26,NW,317,4.0,4.9,40,0.00,,---,0.00,VWS V14.01,2013-03-06 21:38:00,
2013-03-06 16:39:00,37.4,15.9,29.26,NNW,347,0.0,5.4,41,0.00,,---,0.00,VWS V14.01,2013-03-06 21:39:00,
2013-03-06 16:40:00,37.2,15.7,29.26,NNW,337,5.8,7.4,41,0.00,,---,0.00,VWS V14.01,2013-03-06 21:40:00,
2013-03-06 16:41:00,37.2,15.7,29.26,NW,324,5.4,6.9,41,0.00,,---,0.00,VWS V14.01,2013-03-06 21:41:00,
2013-03-06 16:42:00,37.2,15.7,29.26,NW,326,4.5,5.4,41,0.00,,---,0.00,VWS V14.01,2013-03-06 21:42:00,
2013-03-06 16:43:00,37.2,16.3,29.26,NW,325,3.1,5.4,42,0.00,,---,0.00,VWS V14.01,2013-03-06 21:43:00,
2013-03-06 16:44:00,37.4,16.4,29.26,NNW,343,5.8,5.8,42,0.00,,---,0.00,VWS V14.01,2013-03-06 21:44:00,
2013-03-06 16:45:00,33.8,21.0,29.12,NNW,330,4.5,4.9,59,0.00,,---,0.00,VWS V14.01,2013-03-06 21:45:00,
2013-03-06 16:46:00,37.2,15.7,29.26,NNW,343,4.5,6.7,41,0.00,,---,0.00,VWS V14.01,2013-03-06 21:46:00,
2013-03-06 16:47:00,37.2,15.7,29.26,NNW,343,2.7,4.5,41,0.00,,---,0.00,VWS V14.01,2013-03-06 21:47:00,
2013-03-06 16:48:00,37.2,15.7,29.26,NNW,340,5.4,5.8,41,0.00,,---,0.00,VWS V14.01,2013-03-06 21:48:00,
2013-03-06 16:49:00,37.0,15.5,29.26,NNW,330,4.5,6.7,41,0.00,,---,0.00,VWS V14.01,2013-03-06 21:49:00,
2013-03-06 16:50:00,37.0,15.5,29.26,NNW,329,4.9,4.9,41,0.00,,---,0.00,VWS V14.01,2013-03-06 21:50:00,
2013-03-06 16:51:00,33.8,21.0,29.12,NW,319,7.8,7.8,59,0.00,,---,0.00,VWS V14.01,2013-03-06 21:51:00,
2013-03-06 16:52:00,37.2,15.7,29.26,NW,306,3.1,4.9,41,0.00,,---,0.00,VWS V14.01,2013-03-06 21:52:00,
2013-03-06 16:53:00,37.2,16.3,29.26,NW,314,3.1,4.5,42,0.00,,---,0.00,VWS V14.01,2013-03-06 21:53:00,
2013-03-06 16:54:00,37.2,16.3,29.26,NW,311,4.0,5.8,42,0.00,,---,0.00,VWS V14.01,2013-03-06 21:54:00,
2013-03-06 16:55:00,37.2,16.3,29.26,NW,317,3.6,4.5,42,0.00,,---,0.00,VWS V14.01,2013-03-06 21:55:00,
2013-03-06 16:56:00,37.2,16.3,29.26,NNW,343,4.5,5.8,42,0.00,,---,0.00,VWS V14.01,2013-03-06 21:56:00,
2013-03-06 16:57:00,33.6,20.8,29.12,NW,312,4.9,5.4,59,0.00,,---,0.00,VWS V14.01,2013-03-06 21:57:00,
2013-03-06 16:58:00,37.0,15.5,29.26,NNW,331,6.7,8.3,41,0.00,,---,0.00,VWS V14.01,2013-03-06 21:58:00,
2013-03-06 16:59:00,37.0,16.1,29.26,NNW,331,2.7,6.7,42,0.00,,---,0.00,VWS V14.01,2013-03-06 21:59:00,
2013-03-06 17:00:00,37.2,16.8,29.26,NNW,331,3.1,3.6,43,0.00,,---,0.00,VWS V14.01,2013-03-06 22:00:00,
2013-03-06 17:01:00,37.2,16.8,29.26,NNW,331,4.9,4.9,43,0.00,,---,0.00,VWS V14.01,2013-03-06 22:01:00,
2013-03-06 17:02:00,37.2,16.8,29.26,NNW,331,2.7,4.9,43,0.00,,---,0.00,VWS V14.01,2013-03-06 22:02:00,
2013-03-06 17:03:00,37.4,17.5,29.26,NNW,331,3.6,4.0,44,0.00,,---,0.00,VWS V14.01,2013-03-06 22:03:00,
2013-03-06 17:04:00,37.4,17.5,29.26,NNW,331,5.4,5.8,44,0.00,,---,0.00,VWS V14.01,2013-03-06 22:04:00,
2013-03-06 17:05:00,37.4,17.0,29.26,NNW,332,6.3,6.3,43,0.00,,---,0.00,VWS V14.01,2013-03-06 22:05:00,
2013-03-06 17:06:00,37.2,16.8,29.26,NNW,331,4.9,6.7,43,0.00,,---,0.00,VWS V14.01,2013-03-06 22:06:00,
2013-03-06 17:07:00,37.0,16.1,29.26,NNW,331,4.5,5.4,42,0.00,,---,0.00,VWS V14.01,2013-03-06 22:07:00,
2013-03-06 17:08:00,37.0,16.1,29.26,NNW,331,5.4,5.8,42,0.00,,---,0.00,VWS V14.01,2013-03-06 22:08:00,
2013-03-06 17:09:00,37.0,16.1,29.26,NNW,329,4.0,5.8,42,0.00,,---,0.00,VWS V14.01,2013-03-06 22:09:00,
2013-03-06 17:10:00,37.0,16.1,29.26,NNW,330,5.8,5.8,42,0.00,,---,0.00,VWS V14.01,2013-03-06 22:10:00,
2013-03-06 17:12:00,37.0,16.1,29.26,NW,315,2.7,5.8,42,0.00,,---,0.00,VWS V14.01,2013-03-06 22:12:00,
2013-03-06 17:13:00,37.0,16.6,29.26,NW,313,6.3,6.7,43,0.00,,---,0.00,VWS V14.01,2013-03-06 22:13:00,
2013-03-06 17:14:00,36.9,15.9,29.26,NNW,333,5.4,6.3,42,0.00,,---,0.00,VWS V14.01,2013-03-06 22:14:00,
2013-03-06 17:15:00,36.9,15.9,29.26,NNW,342,4.5,7.4,42,0.00,,---,0.00,VWS V14.01,2013-03-06 22:15:00,
2013-03-06 17:16:00,36.9,15.9,29.26,NNW,327,5.8,6.3,42,0.00,,---,0.00,VWS V14.01,2013-03-06 22:16:00,
2013-03-06 17:17:00,36.9,15.9,29.26,NNW,342,3.6,6.3,42,0.00,,---,0.00,VWS V14.01,2013-03-06 22:17:00,
2013-03-06 17:18:00,36.9,16.5,29.26,NNW,344,5.8,5.8,43,0.00,,---,0.00,VWS V14.01,2013-03-06 22:18:00,
2013-03-06 17:19:00,36.9,16.5,29.26,NW,325,4.9,6.3,43,0.00,,---,0.00,VWS V14.01,2013-03-06 22:19:00,
2013-03-06 17:20:00,36.7,16.3,29.26,NNW,346,4.9,6.7,43,0.00,,---,0.00,VWS V14.01,2013-03-06 22:20:00,
2013-03-06 17:21:00,36.7,16.3,29.26,NNW,336,5.8,6.7,43,0.04,,---,0.04,VWS V14.01,2013-03-06 22:21:00,
2013-03-06 17:22:00,36.7,16.8,29.26,NNW,336,3.6,5.8,44,0.04,,---,0.04,VWS V14.01,2013-03-06 22:22:00,
2013-03-06 17:23:00,36.7,16.8,29.26,NNW,342,0.0,7.8,44,0.04,,---,0.04,VWS V14.01,2013-03-06 22:23:00,
2013-03-06 17:24:00,36.5,16.7,29.26,NW,311,6.9,8.3,44,0.04,,---,0.04,VWS V14.01,2013-03-06 22:24:00,
2013-03-06 17:25:00,36.5,16.7,29.26,North,351,6.7,6.9,44,0.04,,---,0.04,VWS V14.01,2013-03-06 22:25:00,
2013-03-06 17:26:00,36.3,16.5,29.26,North,351,4.9,6.9,44,0.04,,---,0.04,VWS V14.01,2013-03-06 22:26:00,
2013-03-06 17:27:00,36.3,16.5,29.26,NNW,338,4.5,7.4,44,0.04,,---,0.04,VWS V14.01,2013-03-06 22:27:00,
2013-03-06 17:28:00,36.3,16.5,29.26,NW,316,7.4,7.4,44,0.04,,---,0.04,VWS V14.01,2013-03-06 22:28:00,
2013-03-06 17:29:00,36.3,16.5,29.26,NNW,333,5.4,7.4,44,0.04,,---,0.04,VWS V14.01,2013-03-06 22:29:00,
2013-03-06 17:30:00,36.3,16.5,29.26,NNW,333,4.0,5.8,44,0.04,,---,0.04,VWS V14.01,2013-03-06 22:30:00,
2013-03-06 17:31:00,36.3,17.0,29.26,NNW,333,3.6,4.5,45,0.04,,---,0.04,VWS V14.01,2013-03-06 22:31:00,
2013-03-06 17:32:00,36.5,17.2,29.26,North,351,3.6,5.8,45,0.04,,---,0.04,VWS V14.01,2013-03-06 22:32:00,
2013-03-06 17:33:00,36.5,17.2,29.26,North,351,0.0,4.0,45,0.04,,---,0.04,VWS V14.01,2013-03-06 22:33:00,
2013-03-06 17:34:00,36.7,17.9,29.26,NNW,330,6.3,6.3,46,0.04,,---,0.04,VWS V14.01,2013-03-06 22:34:00,
2013-03-06 17:35:00,36.5,17.7,29.26,NNW,329,5.4,7.4,46,0.04,,---,0.04,VWS V14.01,2013-03-06 22:35:00,
2013-03-06 17:36:00,36.3,17.5,29.26,NNW,332,6.7,7.8,46,0.04,,---,0.04,VWS V14.01,2013-03-06 22:36:00,
2013-03-06 17:37:00,36.3,17.0,29.26,NNW,340,2.7,6.7,45,0.04,,---,0.04,VWS V14.01,2013-03-06 22:37:00,
2013-03-06 17:38:00,36.3,17.5,29.26,North,351,3.1,6.7,46,0.04,,---,0.04,VWS V14.01,2013-03-06 22:38:00,
2013-03-06 17:39:00,36.5,17.7,29.26,NNE,32,5.4,5.4,46,0.04,,---,0.04,VWS V14.01,2013-03-06 22:39:00,
2013-03-06 17:40:00,36.5,17.7,29.26,NNW,340,2.7,5.4,46,0.04,,---,0.04,VWS V14.01,2013-03-06 22:40:00,
2013-03-06 17:41:00,36.5,17.7,29.26,North,351,3.6,5.4,46,0.04,,---,0.04,VWS V14.01,2013-03-06 22:41:00,
2013-03-06 17:42:00,36.7,17.9,29.26,North,351,4.0,4.9,46,0.04,,---,0.04,VWS V14.01,2013-03-06 22:42:00,
2013-03-06 17:43:00,36.7,17.9,29.26,NNE,27,4.5,4.9,46,0.04,,---,0.04,VWS V14.01,2013-03-06 22:43:00,
2013-03-06 17:44:00,36.7,18.4,29.26,North,351,0.0,4.9,47,0.04,,---,0.04,VWS V14.01,2013-03-06 22:44:00,
2013-03-06 17:45:00,33.1,21.5,29.12,NNW,334,4.0,5.8,62,0.00,,---,0.00,VWS V14.01,2013-03-06 22:45:00,
2013-03-06 17:46:00,36.7,18.4,29.26,North,351,0.0,4.5,47,0.08,,---,0.08,VWS V14.01,2013-03-06 22:46:00,
2013-03-06 17:47:00,36.7,17.9,29.26,North,351,3.1,3.1,46,0.08,,---,0.08,VWS V14.01,2013-03-06 22:47:00,
2013-03-06 17:48:00,36.9,18.0,29.26,North,351,3.6,5.4,46,0.08,,---,0.08,VWS V14.01,2013-03-06 22:48:00,
2013-03-06 17:49:00,36.7,17.4,29.26,NW,326,4.9,6.9,45,0.08,,---,0.08,VWS V14.01,2013-03-06 22:49:00,
2013-03-06 17:50:00,33.1,21.9,29.12,NNW,328,4.9,6.3,63,0.00,,---,0.00,VWS V14.01,2013-03-06 22:50:00,
2013-03-06 17:51:00,36.7,17.4,29.26,NNE,12,3.6,4.5,45,0.08,,---,0.08,VWS V14.01,2013-03-06 22:51:00,
2013-03-06 17:52:00,36.7,17.4,29.26,NNW,332,4.5,4.9,45,0.08,,---,0.08,VWS V14.01,2013-03-06 22:52:00,
2013-03-06 17:53:00,36.5,17.2,29.26,NNW,333,5.8,5.8,45,0.08,,---,0.08,VWS V14.01,2013-03-06 22:53:00,
2013-03-06 17:54:00,36.5,17.2,29.26,North,356,2.7,5.8,45,0.08,,---,0.08,VWS V14.01,2013-03-06 22:54:00,
2013-03-06 17:55:00,36.5,17.7,29.26,North,356,2.7,3.6,46,0.08,,---,0.08,VWS V14.01,2013-03-06 22:55:00,
2013-03-06 17:56:00,32.9,21.3,29.12,NNW,328,4.0,5.8,62,0.00,,---,0.00,VWS V14.01,2013-03-06 22:56:00,
2013-03-06 17:57:00,36.3,17.0,29.26,NNW,329,3.6,6.3,45,0.08,,---,0.08,VWS V14.01,2013-03-06 22:57:00,
2013-03-06 17:58:00,36.3,17.5,29.26,NNW,329,3.6,4.5,46,0.08,,---,0.08,VWS V14.01,2013-03-06 22:58:00,
2013-03-06 17:59:00,36.3,17.5,29.26,NNW,333,3.1,4.9,46,0.08,,---,0.08,VWS V14.01,2013-03-06 22:59:00,
2013-03-06 18:00:00,36.3,17.5,29.26,NNW,333,4.5,5.4,46,0.08,,---,0.08,VWS V14.01,2013-03-06 23:00:00,
2013-03-06 18:01:00,33.1,22.2,29.12,NNW,328,0.0,3.6,64,0.00,,---,0.00,VWS V14.01,2013-03-06 23:01:00,
2013-03-06 18:02:00,36.3,17.5,29.26,NNW,336,4.0,5.4,46,0.08,,---,0.08,VWS V14.01,2013-03-06 23:02:00,
2013-03-06 18:03:00,36.3,18.0,29.26,NNW,338,3.1,5.4,47,0.08,,---,0.08,VWS V14.01,2013-03-06 23:03:00,
2013-03-06 18:04:00,36.3,18.0,29.26,NNW,338,4.0,4.0,47,0.08,,---,0.08,VWS V14.01,2013-03-06 23:04:00,
2013-03-06 18:05:00,36.3,18.0,29.26,NNW,338,3.6,4.5,47,0.08,,---,0.08,VWS V14.01,2013-03-06 23:05:00,
2013-03-06 18:06:00,36.3,18.0,29.26,NNW,337,0.0,6.3,47,0.08,,---,0.08,VWS V14.01,2013-03-06 23:06:00,
2013-03-06 18:07:00,33.1,22.2,29.12,West,278,3.1,4.9,64,0.00,,---,0.00,VWS V14.01,2013-03-06 23:07:00,
2013-03-06 18:08:00,36.3,18.5,29.26,NNW,337,4.0,5.8,48,0.08,,---,0.08,VWS V14.01,2013-03-06 23:08:00,
2013-03-06 18:09:00,36.1,17.9,29.26,NNW,337,0.0,5.4,47,0.08,,---,0.08,VWS V14.01,2013-03-06 23:09:00,
2013-03-06 18:10:00,36.1,17.9,29.26,NNW,337,2.7,3.6,47,0.08,,---,0.08,VWS V14.01,2013-03-06 23:10:00,
2013-03-06 18:11:00,36.1,17.9,29.26,NNW,337,3.6,4.0,47,0.08,,---,0.08,VWS V14.01,2013-03-06 23:11:00,
2013-03-06 18:12:00,32.9,22.1,29.12,WNW,290,3.6,4.5,64,0.00,,---,0.00,VWS V14.01,2013-03-06 23:12:00,
2013-03-06 18:13:00,36.1,18.4,29.26,NNW,337,3.1,5.8,48,0.08,,---,0.08,VWS V14.01,2013-03-06 23:13:00,
2013-03-06 18:14:00,36.1,17.9,29.26,NNW,337,3.1,4.5,47,0.08,,---,0.08,VWS V14.01,2013-03-06 23:14:00,
2013-03-06 18:15:00,36.1,18.4,29.26,NNW,337,0.0,4.5,48,0.08,,---,0.08,VWS V14.01,2013-03-06 23:15:00,
2013-03-06 18:16:00,36.1,18.4,29.26,NNW,337,4.0,4.0,48,0.08,,---,0.08,VWS V14.01,2013-03-06 23:16:00,
2013-03-06 18:17:00,32.9,22.1,29.12,NNW,334,3.1,4.0,64,0.00,,---,0.00,VWS V14.01,2013-03-06 23:17:00,
2013-03-06 18:18:00,36.0,17.7,29.26,NNW,337,4.0,5.8,47,0.08,,---,0.08,VWS V14.01,2013-03-06 23:18:00,
2013-03-06 18:19:00,35.8,17.5,29.26,NNW,337,3.1,4.5,47,0.08,,---,0.08,VWS V14.01,2013-03-06 23:19:00,
2013-03-06 18:20:00,35.8,17.5,29.26,NNW,337,3.1,3.6,47,0.08,,---,0.08,VWS V14.01,2013-03-06 23:20:00,
2013-03-06 18:21:00,35.8,17.5,29.26,NNW,337,2.7,4.0,47,0.08,,---,0.08,VWS V14.01,2013-03-06 23:21:00,
2013-03-06 18:22:00,32.7,22.3,29.12,NNW,335,4.9,6.7,65,0.00,,---,0.00,VWS V14.01,2013-03-06 23:22:00,
2013-03-06 18:23:00,35.8,17.5,29.26,NNW,337,0.0,5.8,47,0.04,,---,0.08,VWS V14.01,2013-03-06 23:23:00,
2013-03-06 18:24:00,35.8,17.0,29.26,NNW,337,3.6,4.9,46,0.04,,---,0.08,VWS V14.01,2013-03-06 23:24:00,
2013-03-06 18:25:00,35.8,17.0,29.26,NNW,337,3.1,4.5,46,0.04,,---,0.08,VWS V14.01,2013-03-06 23:25:00,
2013-03-06 18:26:00,35.8,17.0,29.26,NNW,337,4.0,4.0,46,0.04,,---,0.08,VWS V14.01,2013-03-06 23:26:00,
2013-03-06 18:27:00,32.7,22.3,29.12,NNW,328,5.8,5.8,65,0.00,,---,0.00,VWS V14.01,2013-03-06 23:27:00,
2013-03-06 18:28:00,35.8,17.0,29.26,NNW,337,3.6,4.5,46,0.04,,---,0.08,VWS V14.01,2013-03-06 23:28:00,
2013-03-06 18:29:00,35.8,17.0,29.26,NNW,337,4.0,4.0,46,0.04,,---,0.08,VWS V14.01,2013-03-06 23:29:00,
2013-03-06 18:30:00,35.8,17.0,29.26,NNW,337,0.0,5.4,46,0.04,,---,0.08,VWS V14.01,2013-03-06 23:30:00,
2013-03-06 18:31:00,35.8,17.0,29.26,NNW,337,3.1,3.1,46,0.04,,---,0.08,VWS V14.01,2013-03-06 23:31:00,
2013-03-06 18:32:00,32.7,21.9,29.15,NW,317,4.5,7.4,64,0.00,,---,0.00,VWS V14.01,2013-03-06 23:32:00,
2013-03-06 18:33:00,35.8,16.5,29.26,NNW,337,0.0,4.9,45,0.04,,---,0.08,VWS V14.01,2013-03-06 23:33:00,
2013-03-06 18:34:00,35.8,16.5,29.26,NNW,337,0.0,5.4,45,0.04,,---,0.08,VWS V14.01,2013-03-06 23:34:00,
2013-03-06 18:35:00,35.8,16.5,29.26,NNW,337,0.0,3.1,45,0.12,,---,0.16,VWS V14.01,2013-03-06 23:35:00,
2013-03-06 18:36:00,35.6,16.4,29.26,NNW,334,6.3,6.3,45,0.12,,---,0.16,VWS V14.01,2013-03-06 23:36:00,
2013-03-06 18:37:00,32.7,21.9,29.15,NW,326,3.6,4.5,64,0.00,,---,0.00,VWS V14.01,2013-03-06 23:37:00,
2013-03-06 18:38:00,35.6,15.3,29.29,NNW,330,3.1,6.7,43,0.12,,---,0.16,VWS V14.01,2013-03-06 23:38:00,
2013-03-06 18:39:00,35.6,14.8,29.29,NNW,334,3.6,6.9,42,0.12,,---,0.16,VWS V14.01,2013-03-06 23:39:00,
2013-03-06 18:40:00,35.6,14.2,29.29,NNW,334,4.5,5.4,41,0.12,,---,0.16,VWS V14.01,2013-03-06 23:40:00,
2013-03-06 18:41:00,35.6,14.8,29.29,NNW,334,0.0,4.5,42,0.12,,---,0.16,VWS V14.01,2013-03-06 23:41:00,
2013-03-06 18:42:00,32.7,22.3,29.15,NNW,327,0.0,4.9,65,0.00,,---,0.00,VWS V14.01,2013-03-06 23:42:00,
2013-03-06 18:43:00,35.6,14.2,29.29,NNW,334,0.0,3.6,41,0.12,,---,0.16,VWS V14.01,2013-03-06 23:43:00,
2013-03-06 18:44:00,35.6,14.8,29.29,NNW,334,4.5,5.4,42,0.12,,---,0.16,VWS V14.01,2013-03-06 23:44:00,
2013-03-06 18:45:00,35.8,14.9,29.29,NNW,334,0.0,4.5,42,0.12,,---,0.16,VWS V14.01,2013-03-06 23:45:00,
2013-03-06 18:46:00,35.8,14.9,29.29,NNW,334,0.0,3.1,42,0.12,,---,0.16,VWS V14.01,2013-03-06 23:46:00,
2013-03-06 18:47:00,32.7,22.3,29.15,NNW,339,3.6,5.4,65,0.00,,---,0.00,VWS V14.01,2013-03-06 23:47:00,
2013-03-06 18:48:00,35.6,14.2,29.29,NNW,334,4.9,5.8,41,0.08,,---,0.16,VWS V14.01,2013-03-06 23:48:00,
2013-03-06 18:49:00,35.8,14.4,29.29,NNW,334,3.1,5.4,41,0.08,,---,0.16,VWS V14.01,2013-03-06 23:49:00,
2013-03-06 18:50:00,35.8,14.9,29.29,NNW,334,0.0,3.1,42,0.08,,---,0.16,VWS V14.01,2013-03-06 23:50:00,
2013-03-06 18:51:00,35.6,14.8,29.29,NNW,329,4.5,5.8,42,0.08,,---,0.16,VWS V14.01,2013-03-06 23:51:00,
2013-03-06 18:52:00,32.7,22.3,29.15,NNW,335,5.4,5.8,65,0.00,,---,0.00,VWS V14.01,2013-03-06 23:52:00,
2013-03-06 18:53:00,35.6,14.2,29.29,NNW,342,4.0,6.3,41,0.08,,---,0.16,VWS V14.01,2013-03-06 23:53:00,
2013-03-06 18:54:00,35.6,14.2,29.29,NNW,342,2.7,4.5,41,0.08,,---,0.16,VWS V14.01,2013-03-06 23:54:00,
2013-03-06 18:55:00,35.6,14.2,29.29,NNW,342,6.3,6.3,41,0.08,,---,0.16,VWS V14.01,2013-03-06 23:55:00,
2013-03-06 18:56:00,35.6,13.7,29.29,NNW,342,4.9,6.3,40,0.08,,---,0.16,VWS V14.01,2013-03-06 23:56:00,
2013-03-06 18:57:00,32.7,22.3,29.15,NW,316,4.0,6.9,65,0.00,,---,0.00,VWS V14.01,2013-03-06 23:57:00,
2013-03-06 18:58:00,35.6,14.2,29.29,NNW,342,0.0,4.0,41,0.08,,---,0.16,VWS V14.01,2013-03-06 23:58:00,
2013-03-06 18:59:00,35.6,14.2,29.29,NNW,342,0.0,4.0,41,0.08,,---,0.16,VWS V14.01,2013-03-06 23:59:00,
2013-03-06 19:00:00,35.6,14.2,29.29,NNW,342,0.0,3.6,41,0.08,,---,0.16,VWS V14.01,2013-03-07 00:00:00,
2013-03-06 19:01:00,35.6,14.2,29.29,NNW,342,3.6,3.6,41,0.08,,---,0.16,VWS V14.01,2013-03-07 00:01:00,
2013-03-06 19:02:00,32.7,22.6,29.15,NNW,336,3.6,4.0,66,0.00,,---,0.00,VWS V14.01,2013-03-07 00:02:00,
2013-03-06 19:03:00,35.4,14.6,29.29,NNW,342,5.8,6.7,42,0.08,,---,0.16,VWS V14.01,2013-03-07 00:03:00,
2013-03-06 19:04:00,35.4,14.6,29.29,NNW,341,2.7,6.3,42,0.08,,---,0.16,VWS V14.01,2013-03-07 00:04:00,
2013-03-06 19:05:00,35.4,14.1,29.29,NNW,341,4.9,5.4,41,0.08,,---,0.16,VWS V14.01,2013-03-07 00:05:00,
2013-03-06 19:06:00,35.4,14.1,29.29,NNW,341,0.0,4.9,41,0.08,,---,0.16,VWS V14.01,2013-03-07 00:06:00,
2013-03-06 19:07:00,32.7,22.6,29.15,NNW,336,0.0,4.0,66,0.00,,---,0.00,VWS V14.01,2013-03-07 00:07:00,
2013-03-06 19:08:00,35.4,14.1,29.29,NNW,341,3.6,4.9,41,0.08,,---,0.16,VWS V14.01,2013-03-07 00:08:00,
2013-03-06 19:09:00,35.4,14.1,29.29,NNW,341,3.6,5.4,41,0.08,,---,0.16,VWS V14.01,2013-03-07 00:09:00,
2013-03-06 19:10:00,35.4,14.6,29.29,NNW,341,0.0,4.5,42,0.08,,---,0.16,VWS V14.01,2013-03-07 00:10:00,
2013-03-06 19:11:00,35.4,14.6,29.29,NNW,341,3.6,3.6,42,0.08,,---,0.16,VWS V14.01,2013-03-07 00:11:00,
2013-03-06 19:12:00,32.5,22.5,29.15,NW,320,4.0,5.4,66,0.00,,---,0.00,VWS V14.01,2013-03-07 00:12:00,
2013-03-06 19:13:00,35.2,14.5,29.29,NNW,341,3.6,4.0,42,0.08,,---,0.16,VWS V14.01,2013-03-07 00:13:00,
2013-03-06 19:14:00,35.2,13.9,29.29,NNW,341,4.5,4.9,41,0.08,,---,0.16,VWS V14.01,2013-03-07 00:14:00,
2013-03-06 19:15:00,35.2,14.5,29.29,NNW,341,2.7,4.5,42,0.08,,---,0.16,VWS V14.01,2013-03-07 00:15:00,
2013-03-06 19:16:00,35.2,14.5,29.29,NNW,341,3.6,3.6,42,0.08,,---,0.16,VWS V14.01,2013-03-07 00:16:00,
2013-03-06 19:17:00,32.5,22.8,29.15,NW,323,3.6,4.5,67,0.00,,---,0.00,VWS V14.01,2013-03-07 00:17:00,
2013-03-06 19:18:00,35.2,15.0,29.29,NNW,341,3.1,3.6,43,0.08,,---,0.16,VWS V14.01,2013-03-07 00:18:00,
2013-03-06 19:19:00,35.2,15.0,29.29,NNW,341,4.0,4.9,43,0.08,,---,0.16,VWS V14.01,2013-03-07 00:19:00,
2013-03-06 19:20:00,35.1,14.3,29.29,NNW,341,4.5,4.5,42,0.08,,---,0.16,VWS V14.01,2013-03-07 00:20:00,
2013-03-06 19:21:00,35.1,14.3,29.29,NNW,341,3.1,5.4,42,0.08,,---,0.16,VWS V14.01,2013-03-07 00:21:00,
2013-03-06 19:22:00,32.5,22.8,29.15,NW,324,3.6,4.9,67,0.00,,---,0.00,VWS V14.01,2013-03-07 00:22:00,
2013-03-06 19:23:00,35.1,14.3,29.29,NNW,341,0.0,2.7,42,0.08,,---,0.16,VWS V14.01,2013-03-07 00:23:00,
2013-03-06 19:24:00,35.1,14.8,29.29,NNW,341,0.0,0.0,43,0.08,,---,0.16,VWS V14.01,2013-03-07 00:24:00,
2013-03-06 19:25:00,35.1,14.8,29.29,NNW,341,3.6,5.8,43,0.08,,---,0.16,VWS V14.01,2013-03-07 00:25:00,
2013-03-06 19:26:00,35.1,14.8,29.29,NNW,341,0.0,4.9,43,0.08,,---,0.16,VWS V14.01,2013-03-07 00:26:00,
2013-03-06 19:27:00,35.1,15.4,29.29,NNW,341,4.9,5.4,44,0.08,,---,0.16,VWS V14.01,2013-03-07 00:27:00,
2013-03-06 19:28:00,32.5,22.8,29.15,NW,324,3.6,3.6,67,0.00,,---,0.00,VWS V14.01,2013-03-07 00:28:00,
2013-03-06 19:29:00,35.1,15.4,29.29,NNW,341,0.0,4.0,44,0.08,,---,0.16,VWS V14.01,2013-03-07 00:29:00,
2013-03-06 19:30:00,35.1,15.4,29.29,NNW,341,3.1,6.3,44,0.08,,---,0.16,VWS V14.01,2013-03-07 00:30:00,
2013-03-06 19:31:00,34.9,15.2,29.29,NNW,341,3.6,5.4,44,0.08,,---,0.16,VWS V14.01,2013-03-07 00:31:00,
2013-03-06 19:32:00,34.9,15.2,29.29,NNW,341,3.6,4.0,44,0.08,,---,0.16,VWS V14.01,2013-03-07 00:32:00,
2013-03-06 19:33:00,32.5,23.2,29.15,NW,324,3.1,3.1,68,0.00,,---,0.00,VWS V14.01,2013-03-07 00:33:00,
2013-03-06 19:34:00,34.9,15.2,29.29,NNW,341,4.5,4.9,44,0.08,,---,0.16,VWS V14.01,2013-03-07 00:34:00,
2013-03-06 19:35:00,34.9,15.7,29.29,NNW,341,3.1,4.5,45,0.08,,---,0.16,VWS V14.01,2013-03-07 00:35:00,
2013-03-06 19:36:00,34.9,15.7,29.29,NNW,341,3.1,4.9,45,0.00,,---,0.16,VWS V14.01,2013-03-07 00:36:00,
2013-03-06 19:37:00,34.9,15.7,29.29,NW,320,5.4,7.4,45,0.00,,---,0.16,VWS V14.01,2013-03-07 00:37:00,
2013-03-06 19:38:00,32.5,23.5,29.15,NW,324,0.0,0.0,69,0.00,,---,0.00,VWS V14.01,2013-03-07 00:38:00,
2013-03-06 19:39:00,34.9,16.2,29.29,NNW,328,4.0,4.9,46,0.00,,---,0.16,VWS V14.01,2013-03-07 00:39:00,
2013-03-06 19:40:00,34.9,15.7,29.29,NNW,331,4.5,5.8,45,0.00,,---,0.16,VWS V14.01,2013-03-07 00:40:00,
2013-03-06 19:41:00,34.9,15.7,29.29,NNW,330,4.9,5.8,45,0.00,,---,0.16,VWS V14.01,2013-03-07 00:41:00,
2013-03-06 19:42:00,34.9,15.7,29.29,NNW,330,4.5,5.4,45,0.00,,---,0.16,VWS V14.01,2013-03-07 00:42:00,
2013-03-06 19:43:00,32.5,23.9,29.15,NW,324,2.7,4.0,70,0.00,,---,0.00,VWS V14.01,2013-03-07 00:43:00,
2013-03-06 19:44:00,34.7,16.0,29.29,NNW,330,4.5,5.4,46,0.00,,---,0.16,VWS V14.01,2013-03-07 00:44:00,
2013-03-06 19:45:00,34.7,16.0,29.29,NNW,330,4.5,4.5,46,0.00,,---,0.16,VWS V14.01,2013-03-07 00:45:00,
2013-03-06 19:46:00,34.7,16.0,29.29,NNW,331,2.7,5.4,46,0.00,,---,0.16,VWS V14.01,2013-03-07 00:46:00,
2013-03-06 19:47:00,34.7,16.0,29.29,NNW,331,3.6,4.9,46,0.00,,---,0.16,VWS V14.01,2013-03-07 00:47:00,
2013-03-06 19:48:00,32.4,23.7,29.15,NW,324,0.0,0.0,70,0.00,,---,0.00,VWS V14.01,2013-03-07 00:48:00,
2013-03-06 19:49:00,34.7,16.0,29.29,NNW,331,4.9,5.4,46,0.00,,---,0.16,VWS V14.01,2013-03-07 00:49:00,
2013-03-06 19:50:00,34.7,15.0,29.29,NNW,331,3.6,5.4,44,0.00,,---,0.16,VWS V14.01,2013-03-07 00:50:00,
2013-03-06 19:51:00,34.7,15.6,29.29,NNW,331,4.5,4.9,45,0.00,,---,0.16,VWS V14.01,2013-03-07 00:51:00,
2013-03-06 19:52:00,34.7,15.6,29.29,NNW,331,5.8,6.3,45,0.00,,---,0.16,VWS V14.01,2013-03-07 00:52:00,
2013-03-06 19:53:00,32.5,23.9,29.15,NNW,328,4.5,5.4,70,0.00,,---,0.00,VWS V14.01,2013-03-07 00:53:00,
2013-03-06 19:54:00,34.7,15.6,29.29,NNW,335,4.0,5.4,45,0.00,,---,0.16,VWS V14.01,2013-03-07 00:54:00,
2013-03-06 19:55:00,34.7,16.0,29.29,NW,314,4.5,7.4,46,0.00,,---,0.16,VWS V14.01,2013-03-07 00:55:00,
2013-03-06 19:56:00,34.7,16.0,29.29,NNW,332,2.7,5.8,46,0.00,,---,0.16,VWS V14.01,2013-03-07 00:56:00,
2013-03-06 19:57:00,34.7,16.0,29.29,NNW,332,3.1,4.5,46,0.00,,---,0.16,VWS V14.01,2013-03-07 00:57:00,
2013-03-06 19:58:00,32.5,23.9,29.15,NW,309,4.5,4.5,70,0.00,,---,0.00,VWS V14.01,2013-03-07 00:58:00,
2013-03-06 19:59:00,34.7,17.0,29.29,NNW,332,3.6,4.9,48,0.00,,---,0.16,VWS V14.01,2013-03-07 00:59:00,
2013-03-06 20:00:00,34.7,17.0,29.29,NNW,332,4.5,4.5,48,0.00,,---,0.16,VWS V14.01,2013-03-07 01:00:00,
2013-03-06 20:01:00,34.7,17.5,29.29,NNW,332,4.0,4.5,49,0.00,,---,0.16,VWS V14.01,2013-03-07 01:01:00,
2013-03-06 20:02:00,34.7,18.0,29.29,NNW,332,4.0,4.0,50,0.00,,---,0.16,VWS V14.01,2013-03-07 01:02:00,
2013-03-06 20:03:00,32.5,24.5,29.15,NW,312,4.0,5.8,72,0.00,,---,0.00,VWS V14.01,2013-03-07 01:03:00,
2013-03-06 20:04:00,34.5,17.8,29.29,NNW,339,3.6,4.5,50,0.00,,---,0.16,VWS V14.01,2013-03-07 01:04:00,
2013-03-06 20:05:00,34.5,18.3,29.29,NNW,339,3.1,4.5,51,0.00,,---,0.16,VWS V14.01,2013-03-07 01:05:00,
2013-03-06 20:06:00,34.5,18.3,29.29,NNW,339,3.1,4.5,51,0.00,,---,0.16,VWS V14.01,2013-03-07 01:06:00,
2013-03-06 20:07:00,34.5,18.3,29.29,NNW,339,3.6,4.0,51,0.00,,---,0.16,VWS V14.01,2013-03-07 01:07:00,
2013-03-06 20:08:00,32.5,25.2,29.15,NW,304,4.0,4.5,74,0.00,,---,0.00,VWS V14.01,2013-03-07 01:08:00,
2013-03-06 20:09:00,34.5,18.7,29.29,NNW,339,3.1,4.0,52,0.00,,---,0.16,VWS V14.01,2013-03-07 01:09:00,
2013-03-06 20:10:00,34.5,18.7,29.29,NNW,339,2.7,4.0,52,0.00,,---,0.16,VWS V14.01,2013-03-07 01:10:00,
2013-03-06 20:11:00,34.5,18.7,29.29,NNW,339,4.5,4.5,52,0.00,,---,0.16,VWS V14.01,2013-03-07 01:11:00,
2013-03-06 20:12:00,34.5,19.2,29.29,NNW,339,5.8,6.3,53,0.00,,---,0.16,VWS V14.01,2013-03-07 01:12:00,
2013-03-06 20:13:00,32.5,25.8,29.15,NW,312,2.7,5.8,76,0.00,,---,0.00,VWS V14.01,2013-03-07 01:13:00,
2013-03-06 20:14:00,34.3,19.0,29.29,NNW,339,3.6,5.4,53,0.00,,---,0.16,VWS V14.01,2013-03-07 01:14:00,
2013-03-06 20:15:00,34.3,19.0,29.29,NNW,339,3.1,4.9,53,0.00,,---,0.16,VWS V14.01,2013-03-07 01:15:00,
2013-03-06 20:16:00,34.3,19.0,29.29,NNW,339,3.1,6.7,53,0.00,,---,0.16,VWS V14.01,2013-03-07 01:16:00,
2013-03-06 20:17:00,34.3,19.4,29.29,NNW,339,4.9,4.9,54,0.00,,---,0.16,VWS V14.01,2013-03-07 01:17:00,
2013-03-06 20:18:00,32.5,26.5,29.15,NW,322,4.0,5.4,78,0.00,,---,0.00,VWS V14.01,2013-03-07 01:18:00,
2013-03-06 20:19:00,34.3,19.4,29.29,NNW,339,2.7,4.0,54,0.00,,---,0.16,VWS V14.01,2013-03-07 01:19:00,
2013-03-06 20:20:00,34.3,19.4,29.29,NNW,339,3.1,3.6,54,0.00,,---,0.16,VWS V14.01,2013-03-07 01:20:00,
2013-03-06 20:21:00,34.3,19.9,29.29,NNW,339,4.0,4.0,55,0.00,,---,0.16,VWS V14.01,2013-03-07 01:21:00,
2013-03-06 20:22:00,34.3,19.9,29.29,NNW,339,3.6,4.9,55,0.00,,---,0.16,VWS V14.01,2013-03-07 01:22:00,
2013-03-06 20:23:00,34.3,19.9,29.29,NNW,339,3.1,4.5,55,0.00,,---,0.16,VWS V14.01,2013-03-07 01:23:00,
2013-03-06 20:24:00,32.4,26.9,29.15,NW,320,6.3,6.7,80,0.00,,---,0.00,VWS V14.01,2013-03-07 01:24:00,
2013-03-06 20:25:00,34.3,20.3,29.29,NNW,339,2.7,4.5,56,0.00,,---,0.16,VWS V14.01,2013-03-07 01:25:00,
2013-03-06 20:26:00,34.3,20.3,29.29,NNW,339,0.0,3.6,56,0.00,,---,0.16,VWS V14.01,2013-03-07 01:26:00,
2013-03-06 20:27:00,34.3,20.3,29.29,NNW,339,0.0,0.0,56,0.00,,---,0.16,VWS V14.01,2013-03-07 01:27:00,
2013-03-06 20:28:00,34.3,20.7,29.29,NNW,339,0.0,0.0,57,0.00,,---,0.16,VWS V14.01,2013-03-07 01:28:00,
2013-03-06 20:29:00,34.3,20.7,29.29,NNW,339,0.0,0.0,57,0.00,,---,0.16,VWS V14.01,2013-03-07 01:29:00,
2013-03-06 20:30:00,32.4,27.2,29.15,NW,317,3.6,3.6,81,0.00,,---,0.00,VWS V14.01,2013-03-07 01:30:00,
2013-03-06 20:31:00,34.2,20.5,29.29,NNW,339,0.0,0.0,57,0.00,,---,0.16,VWS V14.01,2013-03-07 01:31:00,
2013-03-06 20:32:00,34.2,20.5,29.29,NNW,339,3.1,4.0,57,0.00,,---,0.16,VWS V14.01,2013-03-07 01:32:00,
2013-03-06 20:33:00,34.2,20.9,29.29,NNW,339,0.0,3.1,58,0.00,,---,0.16,VWS V14.01,2013-03-07 01:33:00,
2013-03-06 20:34:00,34.2,20.9,29.29,NNW,339,3.1,4.0,58,0.00,,---,0.16,VWS V14.01,2013-03-07 01:34:00,
2013-03-06 20:35:00,34.2,20.9,29.29,NNW,339,3.6,4.5,58,0.00,,---,0.16,VWS V14.01,2013-03-07 01:35:00,
2013-03-06 20:36:00,34.2,21.3,29.29,NNW,339,4.5,4.9,59,0.00,,---,0.16,VWS V14.01,2013-03-07 01:36:00,
2013-03-06 20:37:00,32.2,27.6,29.15,NW,309,4.0,4.9,83,0.00,,---,0.00,VWS V14.01,2013-03-07 01:37:00,
2013-03-06 20:38:00,34.2,21.3,29.29,NNW,339,3.6,4.0,59,0.00,,---,0.16,VWS V14.01,2013-03-07 01:38:00,
2013-03-06 20:39:00,34.2,21.3,29.29,NNW,339,4.9,4.9,59,0.00,,---,0.16,VWS V14.01,2013-03-07 01:39:00,
2013-03-06 20:40:00,34.0,21.2,29.29,NNW,339,5.4,6.3,59,0.00,,---,0.16,VWS V14.01,2013-03-07 01:40:00,
2013-03-06 20:41:00,34.0,21.2,29.29,NNW,339,4.5,5.4,59,0.00,,---,0.16,VWS V14.01,2013-03-07 01:41:00,
2013-03-06 20:42:00,34.0,20.8,29.29,NNW,339,4.5,4.5,58,0.00,,---,0.16,VWS V14.01,2013-03-07 01:42:00,
2013-03-06 20:43:00,32.2,27.9,29.15,WNW,299,3.1,4.9,84,0.00,,---,0.00,VWS V14.01,2013-03-07 01:43:00,
2013-03-06 20:44:00,34.0,20.8,29.29,NNW,339,3.1,4.9,58,0.00,,---,0.16,VWS V14.01,2013-03-07 01:44:00,
2013-03-06 20:45:00,34.2,20.9,29.29,NNW,339,3.1,3.6,58,0.00,,---,0.16,VWS V14.01,2013-03-07 01:45:00,
2013-03-06 20:46:00,34.2,20.9,29.29,NNW,339,4.0,4.0,58,0.00,,---,0.16,VWS V14.01,2013-03-07 01:46:00,
2013-03-06 20:47:00,34.2,20.9,29.29,NNW,339,4.9,4.9,58,0.00,,---,0.16,VWS V14.01,2013-03-07 01:47:00,
2013-03-06 20:48:00,32.2,27.9,29.15,NW,310,3.6,4.5,84,0.00,,---,0.00,VWS V14.01,2013-03-07 01:48:00,
2013-03-06 20:49:00,34.0,21.2,29.29,NNW,339,3.1,4.0,59,0.00,,---,0.16,VWS V14.01,2013-03-07 01:49:00,
2013-03-06 20:50:00,34.0,21.2,29.29,NNW,339,3.6,4.5,59,0.00,,---,0.16,VWS V14.01,2013-03-07 01:50:00,
2013-03-06 20:51:00,34.0,21.2,29.29,NNW,339,3.1,4.0,59,0.00,,---,0.16,VWS V14.01,2013-03-07 01:51:00,
2013-03-06 20:52:00,34.0,21.2,29.29,NNW,339,0.0,3.1,59,0.00,,---,0.16,VWS V14.01,2013-03-07 01:52:00,
2013-03-06 20:53:00,34.0,21.2,29.29,NNW,339,0.0,0.0,59,0.00,,---,0.16,VWS V14.01,2013-03-07 01:53:00,
2013-03-06 20:54:00,32.2,28.2,29.15,WNW,297,4.0,4.9,85,0.00,,---,0.00,VWS V14.01,2013-03-07 01:54:00,
2013-03-06 20:55:00,34.0,21.6,29.29,NNW,339,0.0,0.0,60,0.00,,---,0.16,VWS V14.01,2013-03-07 01:55:00,
2013-03-06 20:56:00,34.0,21.6,29.29,NNW,339,0.0,0.0,60,0.00,,---,0.16,VWS V14.01,2013-03-07 01:56:00,
2013-03-06 20:57:00,34.0,21.6,29.29,NNW,339,0.0,0.0,60,0.00,,---,0.16,VWS V14.01,2013-03-07 01:57:00,
2013-03-06 20:58:00,34.0,22.0,29.29,NNW,339,0.0,0.0,61,0.00,,---,0.16,VWS V14.01,2013-03-07 01:58:00,
2013-03-06 20:59:00,32.2,28.2,29.15,NW,304,0.0,5.4,85,0.00,,---,0.00,VWS V14.01,2013-03-07 01:59:00,
2013-03-06 21:00:00,33.8,22.2,29.29,NNW,339,0.0,0.0,62,0.00,,---,0.16,VWS V14.01,2013-03-07 02:00:00,
2013-03-06 21:01:00,33.8,22.2,29.29,NNW,339,0.0,0.0,62,0.00,,---,0.16,VWS V14.01,2013-03-07 02:01:00,
2013-03-06 21:02:00,33.8,21.8,29.29,NNW,339,3.1,4.9,61,0.00,,---,0.16,VWS V14.01,2013-03-07 02:02:00,
2013-03-06 21:03:00,33.8,21.8,29.29,NNW,339,3.6,4.5,61,0.00,,---,0.16,VWS V14.01,2013-03-07 02:03:00,
2013-03-06 21:04:00,33.8,21.8,29.29,NNW,339,3.1,4.9,61,0.00,,---,0.16,VWS V14.01,2013-03-07 02:04:00,
2013-03-06 21:05:00,33.8,21.8,29.29,NNW,339,3.6,3.6,61,0.00,,---,0.16,VWS V14.01,2013-03-07 02:05:00,
2013-03-06 21:06:00,32.2,28.2,29.15,NW,304,0.0,0.0,85,0.00,,---,0.00,VWS V14.01,2013-03-07 02:06:00,
2013-03-06 21:07:00,33.8,21.8,29.29,NNW,339,2.7,4.0,61,0.00,,---,0.16,VWS V14.01,2013-03-07 02:07:00,
2013-03-06 21:08:00,33.8,21.8,29.29,NNW,339,3.6,3.6,61,0.00,,---,0.16,VWS V14.01,2013-03-07 02:08:00,
2013-03-06 21:09:00,33.8,21.8,29.29,NNW,339,0.0,3.6,61,0.00,,---,0.16,VWS V14.01,2013-03-07 02:09:00,
2013-03-06 21:10:00,33.8,21.8,29.29,NNW,339,0.0,0.0,61,0.00,,---,0.16,VWS V14.01,2013-03-07 02:10:00,
2013-03-06 21:11:00,33.8,21.8,29.29,NNW,339,3.6,4.5,61,0.00,,---,0.16,VWS V14.01,2013-03-07 02:11:00,
2013-03-06 21:12:00,33.8,21.8,29.29,NNW,339,0.0,3.6,61,0.00,,---,0.16,VWS V14.01,2013-03-07 02:12:00,
2013-03-06 21:13:00,32.2,28.5,29.15,NW,317,3.6,6.3,86,0.00,,---,0.00,VWS V14.01,2013-03-07 02:13:00,
2013-03-06 21:14:00,33.8,21.8,29.29,NNW,339,0.0,2.7,61,0.00,,---,0.16,VWS V14.01,2013-03-07 02:14:00,
2013-03-06 21:15:00,33.8,21.8,29.29,NNW,339,0.0,0.0,61,0.00,,---,0.16,VWS V14.01,2013-03-07 02:15:00,
2013-03-06 21:16:00,33.8,21.8,29.29,NNW,339,3.6,4.5,61,0.00,,---,0.16,VWS V14.01,2013-03-07 02:16:00,
2013-03-06 21:17:00,33.8,21.8,29.29,NNW,339,2.7,3.6,61,0.00,,---,0.16,VWS V14.01,2013-03-07 02:17:00,
2013-03-06 21:18:00,33.8,21.4,29.29,NNW,339,3.6,4.5,60,0.00,,---,0.16,VWS V14.01,2013-03-07 02:18:00,
2013-03-06 21:19:00,32.0,28.3,29.15,WNW,297,4.9,5.4,86,0.00,,---,0.00,VWS V14.01,2013-03-07 02:19:00,
2013-03-06 21:20:00,33.8,21.4,29.29,NNW,339,2.7,3.6,60,0.00,,---,0.16,VWS V14.01,2013-03-07 02:20:00,
2013-03-06 21:21:00,33.8,21.4,29.29,NNW,339,0.0,2.7,60,0.00,,---,0.16,VWS V14.01,2013-03-07 02:21:00,
2013-03-06 21:22:00,33.8,21.4,29.29,NNW,339,0.0,0.0,60,0.00,,---,0.16,VWS V14.01,2013-03-07 02:22:00,
2013-03-06 21:23:00,33.8,21.4,29.29,NNW,339,0.0,0.0,60,0.00,,---,0.16,VWS V14.01,2013-03-07 02:23:00,
2013-03-06 21:24:00,32.0,28.3,29.15,West,276,3.6,4.9,86,0.00,,---,0.00,VWS V14.01,2013-03-07 02:24:00,
2013-03-06 21:25:00,33.8,21.8,29.29,NNW,339,4.0,4.9,61,0.00,,---,0.16,VWS V14.01,2013-03-07 02:25:00,
2013-03-06 21:26:00,33.8,21.8,29.29,NNW,339,4.9,4.9,61,0.00,,---,0.16,VWS V14.01,2013-03-07 02:26:00,
2013-03-06 21:27:00,33.8,21.8,29.29,NNW,339,4.9,6.3,61,0.00,,---,0.16,VWS V14.01,2013-03-07 02:27:00,
2013-03-06 21:28:00,33.8,21.4,29.29,NNW,339,3.1,5.8,60,0.00,,---,0.16,VWS V14.01,2013-03-07 02:28:00,
2013-03-06 21:29:00,32.0,28.3,29.18,West,277,0.0,0.0,86,0.00,,---,0.00,VWS V14.01,2013-03-07 02:29:00,
2013-03-06 21:30:00,33.8,21.0,29.29,NNW,339,3.1,4.9,59,0.00,,---,0.16,VWS V14.01,2013-03-07 02:30:00,
2013-03-06 21:31:00,33.8,21.0,29.29,NNW,339,3.6,3.6,59,0.00,,---,0.16,VWS V14.01,2013-03-07 02:31:00,
2013-03-06 21:32:00,33.8,21.0,29.29,NNW,339,0.0,3.6,59,0.00,,---,0.16,VWS V14.01,2013-03-07 02:32:00,
2013-03-06 21:33:00,33.8,21.0,29.29,NNW,339,0.0,0.0,59,0.00,,---,0.16,VWS V14.01,2013-03-07 02:33:00,
2013-03-06 21:34:00,32.0,28.6,29.18,WNW,295,4.9,5.8,87,0.00,,---,0.00,VWS V14.01,2013-03-07 02:34:00,
2013-03-06 21:35:00,33.8,21.0,29.29,NNW,339,0.0,0.0,59,0.00,,---,0.16,VWS V14.01,2013-03-07 02:35:00,
2013-03-06 21:36:00,33.8,21.4,29.29,NNW,339,0.0,0.0,60,0.00,,---,0.16,VWS V14.01,2013-03-07 02:36:00,
2013-03-06 21:37:00,33.8,21.4,29.29,NNW,339,0.0,0.0,60,0.00,,---,0.16,VWS V14.01,2013-03-07 02:37:00,
2013-03-06 21:38:00,33.6,21.2,29.29,NNW,339,0.0,0.0,60,0.00,,---,0.16,VWS V14.01,2013-03-07 02:38:00,
2013-03-06 21:39:00,32.0,28.6,29.18,WNW,299,3.6,3.6,87,0.00,,---,0.00,VWS V14.01,2013-03-07 02:39:00,
2013-03-06 21:40:00,33.6,21.6,29.29,NNW,339,0.0,4.0,61,0.00,,---,0.16,VWS V14.01,2013-03-07 02:40:00,
2013-03-06 21:41:00,33.6,21.6,29.29,NNW,339,2.7,3.6,61,0.00,,---,0.16,VWS V14.01,2013-03-07 02:41:00,
2013-03-06 21:42:00,33.6,21.6,29.29,NNW,339,0.0,2.7,61,0.00,,---,0.16,VWS V14.01,2013-03-07 02:42:00,
2013-03-06 21:43:00,33.6,21.6,29.29,NNW,339,0.0,0.0,61,0.00,,---,0.16,VWS V14.01,2013-03-07 02:43:00,
2013-03-06 21:44:00,32.0,28.6,29.18,WNW,291,4.0,6.9,87,0.00,,---,0.00,VWS V14.01,2013-03-07 02:44:00,
2013-03-06 21:45:00,33.6,21.6,29.29,NNW,339,4.0,4.9,61,0.00,,---,0.16,VWS V14.01,2013-03-07 02:45:00,
2013-03-06 21:46:00,33.6,21.6,29.29,NNW,339,3.1,4.0,61,0.00,,---,0.16,VWS V14.01,2013-03-07 02:46:00,
2013-03-06 21:47:00,33.6,21.6,29.29,NNW,339,3.6,4.0,61,0.00,,---,0.16,VWS V14.01,2013-03-07 02:47:00,
2013-03-06 21:48:00,33.6,21.2,29.29,NNW,339,3.1,4.0,60,0.00,,---,0.16,VWS V14.01,2013-03-07 02:48:00,
2013-03-06 21:49:00,33.6,21.2,29.29,NNW,339,3.1,3.6,60,0.00,,---,0.16,VWS V14.01,2013-03-07 02:49:00,
2013-03-06 21:50:00,32.0,28.6,29.18,WNW,287,0.0,0.0,87,0.00,,---,0.00,VWS V14.01,2013-03-07 02:50:00,
2013-03-06 21:51:00,33.6,21.2,29.29,NNW,339,0.0,2.7,60,0.00,,---,0.16,VWS V14.01,2013-03-07 02:51:00,
2013-03-06 21:52:00,33.6,21.2,29.29,NNW,339,4.0,4.5,60,0.00,,---,0.16,VWS V14.01,2013-03-07 02:52:00,
2013-03-06 21:53:00,33.6,20.8,29.29,NNW,339,2.7,4.5,59,0.00,,---,0.16,VWS V14.01,2013-03-07 02:53:00,
2013-03-06 21:54:00,33.6,20.8,29.29,NNW,339,2.7,3.6,59,0.00,,---,0.16,VWS V14.01,2013-03-07 02:54:00,
2013-03-06 21:55:00,33.6,20.8,29.29,NNW,339,0.0,3.1,59,0.00,,---,0.16,VWS V14.01,2013-03-07 02:55:00,
2013-03-06 21:56:00,33.6,20.8,29.29,NNW,339,4.0,5.4,59,0.00,,---,0.16,VWS V14.01,2013-03-07 02:56:00,
2013-03-06 21:57:00,33.6,20.8,29.29,NNW,339,4.0,4.0,59,0.00,,---,0.16,VWS V14.01,2013-03-07 02:57:00,
2013-03-06 21:58:00,33.6,20.8,29.29,NNW,339,0.0,4.0,59,0.00,,---,0.16,VWS V14.01,2013-03-07 02:58:00,
2013-03-06 21:59:00,33.6,20.8,29.29,NNW,339,4.0,4.5,59,0.00,,---,0.16,VWS V14.01,2013-03-07 02:59:00,
2013-03-06 22:00:00,33.6,20.8,29.29,NNW,339,4.5,4.5,59,0.00,,---,0.16,VWS V14.01,2013-03-07 03:00:00,
2013-03-06 22:01:00,33.6,20.4,29.29,NNW,339,4.0,5.8,58,0.00,,---,0.16,VWS V14.01,2013-03-07 03:01:00,
2013-03-06 22:02:00,33.6,20.4,29.29,NNW,339,3.6,5.8,58,0.00,,---,0.16,VWS V14.01,2013-03-07 03:02:00,
2013-03-06 22:03:00,33.6,20.4,29.29,NNW,339,2.7,4.0,58,0.00,,---,0.16,VWS V14.01,2013-03-07 03:03:00,
2013-03-06 22:04:00,33.6,20.4,29.29,NNW,339,3.1,3.6,58,0.00,,---,0.16,VWS V14.01,2013-03-07 03:04:00,
2013-03-06 22:05:00,33.6,20.4,29.29,NNW,339,3.6,4.0,58,0.00,,---,0.16,VWS V14.01,2013-03-07 03:05:00,
2013-03-06 22:06:00,33.6,20.4,29.29,NNW,339,3.1,4.0,58,0.00,,---,0.16,VWS V14.01,2013-03-07 03:06:00,
2013-03-06 22:07:00,33.6,20.4,29.29,NNW,339,0.0,3.6,58,0.00,,---,0.16,VWS V14.01,2013-03-07 03:07:00,
2013-03-06 22:08:00,33.6,20.4,29.29,NNW,339,3.6,4.5,58,0.00,,---,0.16,VWS V14.01,2013-03-07 03:08:00,
2013-03-06 22:09:00,33.6,20.0,29.29,NNW,339,3.6,3.6,57,0.00,,---,0.16,VWS V14.01,2013-03-07 03:09:00,
2013-03-06 22:10:00,33.6,20.0,29.29,NNW,339,0.0,3.6,57,0.00,,---,0.16,VWS V14.01,2013-03-07 03:10:00,
2013-03-06 22:11:00,33.6,20.0,29.29,NNW,339,0.0,3.1,57,0.00,,---,0.16,VWS V14.01,2013-03-07 03:11:00,
2013-03-06 22:12:00,33.6,20.0,29.29,NNW,339,4.9,5.4,57,0.00,,---,0.16,VWS V14.01,2013-03-07 03:12:00,
2013-03-06 22:13:00,33.6,20.0,29.29,NNW,339,3.6,4.9,57,0.00,,---,0.16,VWS V14.01,2013-03-07 03:13:00,
2013-03-06 22:14:00,33.6,20.0,29.29,NNW,339,3.6,4.5,57,0.00,,---,0.16,VWS V14.01,2013-03-07 03:14:00,
2013-03-06 22:15:00,33.6,20.0,29.29,NNW,339,3.6,3.6,57,0.00,,---,0.16,VWS V14.01,2013-03-07 03:15:00,
2013-03-06 22:16:00,33.6,20.0,29.29,NNW,339,4.0,4.9,57,0.00,,---,0.16,VWS V14.01,2013-03-07 03:16:00,
2013-03-06 22:17:00,33.6,19.6,29.29,NNW,339,3.1,4.5,56,0.00,,---,0.16,VWS V14.01,2013-03-07 03:17:00,
2013-03-06 22:18:00,33.6,19.6,29.29,NNW,339,3.6,4.5,56,0.00,,---,0.16,VWS V14.01,2013-03-07 03:18:00,
2013-03-06 22:19:00,33.6,19.6,29.29,NNW,339,3.6,4.0,56,0.00,,---,0.16,VWS V14.01,2013-03-07 03:19:00,
2013-03-06 22:20:00,33.6,19.6,29.29,NNW,339,4.0,4.9,56,0.00,,---,0.16,VWS V14.01,2013-03-07 03:20:00,
2013-03-06 22:21:00,33.6,19.6,29.29,NNW,339,3.1,4.5,56,0.00,,---,0.16,VWS V14.01,2013-03-07 03:21:00,
2013-03-06 22:22:00,33.6,19.6,29.29,NNW,339,0.0,3.1,56,0.00,,---,0.16,VWS V14.01,2013-03-07 03:22:00,
2013-03-06 22:23:00,33.6,19.6,29.29,NNW,339,0.0,3.6,56,0.00,,---,0.16,VWS V14.01,2013-03-07 03:23:00,
2013-03-06 22:24:00,33.6,19.6,29.29,NNW,339,0.0,0.0,56,0.00,,---,0.16,VWS V14.01,2013-03-07 03:24:00,
2013-03-06 22:25:00,33.6,20.0,29.29,NNW,339,0.0,0.0,57,0.00,,---,0.16,VWS V14.01,2013-03-07 03:25:00,
2013-03-06 22:26:00,33.6,20.0,29.29,NNW,339,0.0,0.0,57,0.00,,---,0.16,VWS V14.01,2013-03-07 03:26:00,
2013-03-06 22:27:00,33.4,19.9,29.29,NNW,339,2.7,4.0,57,0.00,,---,0.16,VWS V14.01,2013-03-07 03:27:00,
2013-03-06 22:28:00,33.4,19.9,29.29,NNW,339,0.0,2.7,57,0.00,,---,0.16,VWS V14.01,2013-03-07 03:28:00,
2013-03-06 22:29:00,33.4,20.3,29.29,NNW,339,0.0,3.6,58,0.00,,---,0.16,VWS V14.01,2013-03-07 03:29:00,
2013-03-06 22:30:00,33.4,20.3,29.29,NNW,339,0.0,2.7,58,0.00,,---,0.16,VWS V14.01,2013-03-07 03:30:00,
2013-03-06 22:31:00,33.4,20.3,29.29,NNW,339,0.0,3.1,58,0.00,,---,0.16,VWS V14.01,2013-03-07 03:31:00,
2013-03-06 22:32:00,33.3,20.1,29.29,NNW,339,0.0,0.0,58,0.00,,---,0.16,VWS V14.01,2013-03-07 03:32:00,
2013-03-06 22:33:00,33.3,20.1,29.29,NNW,339,0.0,3.1,58,0.00,,---,0.16,VWS V14.01,2013-03-07 03:33:00,
2013-03-06 22:34:00,33.3,20.5,29.29,NNW,339,0.0,0.0,59,0.00,,---,0.16,VWS V14.01,2013-03-07 03:34:00,
2013-03-06 22:35:00,33.3,20.5,29.29,NNW,339,0.0,0.0,59,0.00,,---,0.16,VWS V14.01,2013-03-07 03:35:00,
2013-03-06 22:36:00,33.3,20.5,29.29,NNW,339,0.0,0.0,59,0.00,,---,0.16,VWS V14.01,2013-03-07 03:36:00,
2013-03-06 22:37:00,33.3,20.5,29.29,NNW,339,0.0,0.0,59,0.00,,---,0.16,VWS V14.01,2013-03-07 03:37:00,
2013-03-06 22:38:00,33.3,20.5,29.29,NNW,339,0.0,0.0,59,0.00,,---,0.16,VWS V14.01,2013-03-07 03:38:00,
2013-03-06 22:39:00,33.3,20.5,29.29,NNW,339,0.0,0.0,59,0.00,,---,0.16,VWS V14.01,2013-03-07 03:39:00,
2013-03-06 22:40:00,33.3,20.9,29.29,NNW,339,0.0,0.0,60,0.00,,---,0.16,VWS V14.01,2013-03-07 03:40:00,
2013-03-06 22:41:00,33.3,20.9,29.29,NNW,339,3.6,3.6,60,0.00,,---,0.16,VWS V14.01,2013-03-07 03:41:00,
2013-03-06 22:42:00,33.3,20.9,29.29,NNW,339,3.6,5.4,60,0.00,,---,0.16,VWS V14.01,2013-03-07 03:42:00,
2013-03-06 22:43:00,33.1,20.3,29.29,NNW,339,3.1,4.5,59,0.00,,---,0.16,VWS V14.01,2013-03-07 03:43:00,
2013-03-06 22:44:00,33.1,20.3,29.29,NNW,339,0.0,3.1,59,0.00,,---,0.16,VWS V14.01,2013-03-07 03:44:00,
2013-03-06 22:45:00,33.3,20.5,29.29,NNW,339,4.0,4.5,59,0.00,,---,0.16,VWS V14.01,2013-03-07 03:45:00,
2013-03-06 22:46:00,33.1,19.9,29.29,NNW,339,0.0,4.0,58,0.00,,---,0.16,VWS V14.01,2013-03-07 03:46:00,
2013-03-06 22:47:00,31.8,29.5,29.18,WNW,293,3.6,4.5,91,0.00,,---,0.00,VWS V14.01,2013-03-07 03:47:00,
2013-03-06 22:48:00,33.3,20.1,29.29,NNW,339,3.1,4.5,58,0.00,,---,0.16,VWS V14.01,2013-03-07 03:48:00,
2013-03-06 22:49:00,33.3,19.7,29.29,NNW,339,2.7,3.6,57,0.00,,---,0.16,VWS V14.01,2013-03-07 03:49:00,
2013-03-06 22:50:00,33.3,19.7,29.29,NNW,339,0.0,3.6,57,0.00,,---,0.16,VWS V14.01,2013-03-07 03:50:00,
2013-03-06 22:51:00,33.3,19.7,29.29,NNW,339,0.0,0.0,57,0.00,,---,0.16,VWS V14.01,2013-03-07 03:51:00,
2013-03-06 22:52:00,33.3,19.7,29.29,NNW,339,0.0,0.0,57,0.00,,---,0.16,VWS V14.01,2013-03-07 03:52:00,
2013-03-06 22:53:00,31.8,29.5,29.18,WNW,282,4.5,4.9,91,0.00,,---,0.00,VWS V14.01,2013-03-07 03:53:00,
2013-03-06 22:54:00,33.3,19.7,29.29,NNW,339,0.0,0.0,57,0.00,,---,0.16,VWS V14.01,2013-03-07 03:54:00,
2013-03-06 22:55:00,33.3,19.7,29.29,NNW,339,0.0,0.0,57,0.00,,---,0.16,VWS V14.01,2013-03-07 03:55:00,
2013-03-06 22:56:00,33.3,19.7,29.29,NNW,339,0.0,0.0,57,0.00,,---,0.16,VWS V14.01,2013-03-07 03:56:00,
2013-03-06 22:57:00,33.3,19.3,29.29,NNW,339,0.0,0.0,56,0.00,,---,0.16,VWS V14.01,2013-03-07 03:57:00,
2013-03-06 22:58:00,33.3,19.3,29.29,NNW,339,0.0,0.0,56,0.00,,---,0.16,VWS V14.01,2013-03-07 03:58:00,
2013-03-06 22:59:00,31.8,29.8,29.15,WSW,252,4.0,5.4,92,0.00,,---,0.00,VWS V14.01,2013-03-07 03:59:00,
2013-03-06 23:00:00,33.3,19.7,29.29,NNW,339,0.0,0.0,57,0.00,,---,0.16,VWS V14.01,2013-03-07 04:00:00,
2013-03-06 23:01:00,33.3,19.7,29.29,NNW,339,0.0,0.0,57,0.00,,---,0.16,VWS V14.01,2013-03-07 04:01:00,
2013-03-06 23:02:00,33.3,19.7,29.29,NNW,339,0.0,0.0,57,0.00,,---,0.16,VWS V14.01,2013-03-07 04:02:00,
2013-03-06 23:03:00,33.3,19.7,29.29,NNW,339,0.0,0.0,57,0.00,,---,0.16,VWS V14.01,2013-03-07 04:03:00,
2013-03-06 23:04:00,31.6,29.6,29.15,WNW,296,4.5,4.9,92,0.00,,---,0.00,VWS V14.01,2013-03-07 04:04:00,
2013-03-06 23:05:00,33.1,19.5,29.29,NNW,339,0.0,0.0,57,0.00,,---,0.16,VWS V14.01,2013-03-07 04:05:00,
2013-03-06 23:06:00,33.1,19.5,29.29,NNW,339,0.0,0.0,57,0.00,,---,0.16,VWS V14.01,2013-03-07 04:06:00,
2013-03-06 23:07:00,33.1,19.5,29.29,NNW,339,0.0,0.0,57,0.00,,---,0.16,VWS V14.01,2013-03-07 04:07:00,
2013-03-06 23:08:00,33.1,19.5,29.29,NNW,339,0.0,0.0,57,0.00,,---,0.16,VWS V14.01,2013-03-07 04:08:00,
2013-03-06 23:09:00,33.1,19.5,29.29,NNW,339,0.0,0.0,57,0.00,,---,0.16,VWS V14.01,2013-03-07 04:09:00,
2013-03-06 23:10:00,31.6,29.9,29.15,WNW,292,4.0,4.0,93,0.00,,---,0.00,VWS V14.01,2013-03-07 04:10:00,
2013-03-06 23:11:00,33.1,19.5,29.29,NNW,339,0.0,0.0,57,0.00,,---,0.16,VWS V14.01,2013-03-07 04:11:00,
2013-03-06 23:12:00,33.1,19.5,29.29,NNW,339,0.0,0.0,57,0.00,,---,0.16,VWS V14.01,2013-03-07 04:12:00,
2013-03-06 23:13:00,33.1,19.5,29.29,NNW,339,0.0,0.0,57,0.00,,---,0.16,VWS V14.01,2013-03-07 04:13:00,
2013-03-06 23:14:00,33.1,19.9,29.29,NNW,339,0.0,0.0,58,0.00,,---,0.16,VWS V14.01,2013-03-07 04:14:00,
2013-03-06 23:15:00,33.1,19.9,29.29,NNW,339,0.0,0.0,58,0.00,,---,0.16,VWS V14.01,2013-03-07 04:15:00,
2013-03-06 23:16:00,31.6,29.9,29.18,WNW,295,4.0,5.8,93,0.00,,---,0.00,VWS V14.01,2013-03-07 04:16:00,
2013-03-06 23:17:00,33.1,19.9,29.29,NNW,339,0.0,0.0,58,0.00,,---,0.16,VWS V14.01,2013-03-07 04:17:00,
2013-03-06 23:18:00,33.1,19.9,29.29,NNW,339,0.0,0.0,58,0.00,,---,0.16,VWS V14.01,2013-03-07 04:18:00,
2013-03-06 23:19:00,33.1,19.9,29.29,NNW,339,0.0,0.0,58,0.00,,---,0.16,VWS V14.01,2013-03-07 04:19:00,
2013-03-06 23:20:00,33.1,19.9,29.29,NNW,339,0.0,0.0,58,0.00,,---,0.16,VWS V14.01,2013-03-07 04:20:00,
2013-03-06 23:21:00,33.1,19.9,29.29,NNW,339,0.0,0.0,58,0.00,,---,0.16,VWS V14.01,2013-03-07 04:21:00,
2013-03-06 23:22:00,33.1,19.9,29.29,NNW,339,0.0,0.0,58,0.00,,---,0.16,VWS V14.01,2013-03-07 04:22:00,
2013-03-06 23:23:00,31.6,30.1,29.18,WNW,289,2.7,4.0,94,0.00,,---,0.00,VWS V14.01,2013-03-07 04:23:00,
2013-03-06 23:24:00,33.1,19.9,29.29,NNW,339,2.7,3.1,58,0.00,,---,0.16,VWS V14.01,2013-03-07 04:24:00,
2013-03-06 23:25:00,33.1,19.9,29.29,NNW,339,0.0,2.7,58,0.00,,---,0.16,VWS V14.01,2013-03-07 04:25:00,
2013-03-06 23:26:00,32.9,19.8,29.29,NNW,339,0.0,0.0,58,0.00,,---,0.16,VWS V14.01,2013-03-07 04:26:00,
2013-03-06 23:27:00,32.9,19.8,29.29,NNW,339,0.0,0.0,58,0.00,,---,0.16,VWS V14.01,2013-03-07 04:27:00,
2013-03-06 23:28:00,31.6,30.1,29.15,WNW,290,2.7,3.6,94,0.00,,---,0.00,VWS V14.01,2013-03-07 04:28:00,
2013-03-06 23:29:00,32.9,19.8,29.29,NNW,339,0.0,0.0,58,0.00,,---,0.16,VWS V14.01,2013-03-07 04:29:00,
2013-03-06 23:30:00,32.9,19.8,29.29,NNW,339,2.7,4.0,58,0.00,,---,0.16,VWS V14.01,2013-03-07 04:30:00,
2013-03-06 23:31:00,32.9,19.8,29.29,NNW,339,0.0,2.7,58,0.00,,---,0.16,VWS V14.01,2013-03-07 04:31:00,
2013-03-06 23:32:00,32.9,19.8,29.29,NNW,339,0.0,0.0,58,0.00,,---,0.16,VWS V14.01,2013-03-07 04:32:00,
2013-03-06 23:33:00,31.6,30.1,29.15,WNW,290,0.0,3.6,94,0.00,,---,0.00,VWS V14.01,2013-03-07 04:33:00,
2013-03-06 23:34:00,32.7,20.0,29.29,NNW,339,0.0,0.0,59,0.00,,---,0.16,VWS V14.01,2013-03-07 04:34:00,
2013-03-06 23:35:00,32.7,20.0,29.29,NNW,339,0.0,0.0,59,0.00,,---,0.16,VWS V14.01,2013-03-07 04:35:00,
2013-03-06 23:36:00,32.7,20.0,29.29,NNW,339,2.7,3.1,59,0.00,,---,0.16,VWS V14.01,2013-03-07 04:36:00,
2013-03-06 23:37:00,32.7,20.0,29.29,NNW,339,0.0,3.1,59,0.00,,---,0.16,VWS V14.01,2013-03-07 04:37:00,
2013-03-06 23:38:00,32.7,20.0,29.29,NNW,339,0.0,0.0,59,0.00,,---,0.16,VWS V14.01,2013-03-07 04:38:00,
2013-03-06 23:39:00,32.7,20.0,29.29,NNW,339,0.0,0.0,59,0.00,,---,0.16,VWS V14.01,2013-03-07 04:39:00,
2013-03-06 23:40:00,32.7,20.0,29.29,NNW,339,0.0,0.0,59,0.00,,---,0.16,VWS V14.01,2013-03-07 04:40:00,
2013-03-06 23:41:00,31.6,30.1,29.15,WNW,291,4.0,5.4,94,0.00,,---,0.00,VWS V14.01,2013-03-07 04:41:00,
2013-03-06 23:42:00,32.5,19.8,29.29,NNW,339,0.0,0.0,59,0.00,,---,0.16,VWS V14.01,2013-03-07 04:42:00,
2013-03-06 23:43:00,32.5,19.8,29.29,NNW,339,0.0,0.0,59,0.00,,---,0.16,VWS V14.01,2013-03-07 04:43:00,
2013-03-06 23:44:00,32.5,19.8,29.29,NNW,339,0.0,2.7,59,0.00,,---,0.16,VWS V14.01,2013-03-07 04:44:00,
2013-03-06 23:45:00,32.5,19.8,29.29,NNW,339,0.0,0.0,59,0.00,,---,0.16,VWS V14.01,2013-03-07 04:45:00,
2013-03-06 23:46:00,32.4,19.6,29.29,NNW,339,0.0,0.0,59,0.00,,---,0.16,VWS V14.01,2013-03-07 04:46:00,
2013-03-06 23:47:00,32.4,19.6,29.29,NNW,339,0.0,0.0,59,0.00,,---,0.16,VWS V14.01,2013-03-07 04:47:00,
2013-03-06 23:48:00,31.6,30.4,29.15,West,279,0.0,4.9,95,0.00,,---,0.00,VWS V14.01,2013-03-07 04:48:00,
2013-03-06 23:49:00,32.2,19.5,29.29,NNW,339,0.0,0.0,59,0.00,,---,0.16,VWS V14.01,2013-03-07 04:49:00,
2013-03-06 23:50:00,32.2,19.5,29.29,NNW,339,0.0,0.0,59,0.00,,---,0.16,VWS V14.01,2013-03-07 04:50:00,
2013-03-06 23:51:00,32.2,19.5,29.29,NNW,339,0.0,0.0,59,0.00,,---,0.16,VWS V14.01,2013-03-07 04:51:00,
2013-03-06 23:52:00,32.0,19.3,29.29,NNW,339,4.5,4.9,59,0.00,,---,0.16,VWS V14.01,2013-03-07 04:52:00,
2013-03-06 23:53:00,32.0,19.3,29.29,NNW,339,2.7,4.5,59,0.00,,---,0.16,VWS V14.01,2013-03-07 04:53:00,
2013-03-06 23:54:00,32.0,19.3,29.29,NNW,339,0.0,2.7,59,0.00,,---,0.16,VWS V14.01,2013-03-07 04:54:00,
2013-03-06 23:55:00,31.5,30.2,29.15,WNW,289,2.7,6.9,95,0.00,,---,0.00,VWS V14.01,2013-03-07 04:55:00,
2013-03-06 23:56:00,32.0,18.9,29.29,NNW,339,3.1,3.6,58,0.00,,---,0.16,VWS V14.01,2013-03-07 04:56:00,
2013-03-06 23:57:00,31.8,18.7,29.29,NNW,339,0.0,3.1,58,0.00,,---,0.16,VWS V14.01,2013-03-07 04:57:00,
2013-03-06 23:58:00,31.8,18.7,29.29,NNW,339,0.0,0.0,58,0.00,,---,0.16,VWS V14.01,2013-03-07 04:58:00,
2013-03-06 23:59:00,31.8,18.7,29.29,NNW,339,0.0,0.0,58,0.00,,---,0.16,VWS V14.01,2013-03-07 04:59:00,